Provisional Data: Sangerfield River near Poolville, NY


Please select a monitoring station.
Please select start date.
Please select start date.

Toggle Unit: C/F Toggle Unit: C/F
Sample Time Temperature (C) Temperature (F) Specific Conductivity (mS/cm) pH   Turbidity (NTU+) DO (mg/L)
10/20/2020 12:00:00 AM 10.57 51.026 0.426 7.94 2.92 9.64
10/20/2020 12:15:00 AM 10.58 51.044 0.426 7.94 1.57 9.6
10/20/2020 12:30:00 AM 10.59 51.062 0.427 7.94 1.85 9.54
10/20/2020 12:45:00 AM 10.6 51.08 0.427 7.93 2.71 9.55
10/20/2020 1:00:00 AM 10.61 51.098 0.428 7.94 1.63 9.53
10/20/2020 1:15:00 AM 10.63 51.134 0.428 7.94 1.77 9.58
10/20/2020 1:30:00 AM 10.65 51.17 0.428 7.94 1.79 9.61
10/20/2020 1:45:00 AM 10.66 51.188 0.428 7.93 1.42 9.55
10/20/2020 2:00:00 AM 10.68 51.224 0.428 7.94 1.73 9.41
10/20/2020 2:15:00 AM 10.69 51.242 0.428 7.93 1.56 9.4
10/20/2020 2:30:00 AM 10.71 51.278 0.429 7.94 1.55 9.53
10/20/2020 2:45:00 AM 10.73 51.314 0.429 7.94 2.02 9.38
10/20/2020 3:00:00 AM 10.76 51.368 0.428 7.94 3.91 9.49
10/20/2020 3:15:00 AM 10.78 51.404 0.428 7.93 12.92 9.45
10/20/2020 3:30:00 AM 10.8 51.44 0.428 7.91 7.04 9.37
10/20/2020 3:45:00 AM 10.82 51.476 0.428 7.95 2.87 9.5
10/20/2020 4:00:00 AM 10.83 51.494 0.428 7.92 2.33 9.41
10/20/2020 4:15:00 AM 10.85 51.53 0.428 7.94 1.62 9.43
10/20/2020 4:30:00 AM 10.87 51.566 0.428 7.93 1.62 9.44
10/20/2020 4:45:00 AM 10.89 51.602 0.427 7.94 2.3 9.53
10/20/2020 5:00:00 AM 10.91 51.638 0.427 7.94 1.75 9.47
10/20/2020 5:15:00 AM 10.93 51.674 0.426 7.95 1.91 9.54
10/20/2020 5:30:00 AM 10.95 51.71 0.426 7.95 1.67 9.51
10/20/2020 5:45:00 AM 10.96 51.728 0.426 7.95 1.93 9.47
10/20/2020 6:00:00 AM 10.97 51.746 0.426 7.94 1.88 9.53
10/20/2020 6:15:00 AM 10.99 51.782 0.426 7.94 1.82 9.47
10/20/2020 6:30:00 AM 11 51.8 0.426 7.94 1.71 9.48
10/20/2020 6:45:00 AM 11.01 51.818 0.426 7.94 1.7 9.47
10/20/2020 7:00:00 AM 11.02 51.836 0.426 7.94 1.7 9.47
10/20/2020 7:15:00 AM 11.04 51.872 0.425 7.94 1.78 9.47
10/20/2020 7:30:00 AM 11.06 51.908 0.421 7.94 2.37 9.56
10/20/2020 7:45:00 AM 11.07 51.926 0.421 7.94 1.7 9.55
10/20/2020 8:00:00 AM 11.08 51.944 0.42 7.94 1.74 9.56
10/20/2020 8:15:00 AM 11.08 51.944 0.42 7.93 1.61 9.52
10/20/2020 8:30:00 AM 11.09 51.962 0.42 7.93 1.69 9.52
10/20/2020 8:45:00 AM 11.09 51.962 0.419 7.93 1.7 9.51
10/20/2020 9:00:00 AM 11.1 51.98 0.419 7.93 1.84 9.58
10/20/2020 9:15:00 AM 11.11 51.998 0.419 7.93 1.53 9.59
10/20/2020 9:30:00 AM 11.13 52.034 0.416 7.93 1.61 9.66
10/20/2020 9:45:00 AM 11.14 52.052 0.415 7.94 1.67 9.75
10/20/2020 10:00:00 AM 11.18 52.124 0.415 7.95 1.87 9.85
10/20/2020 10:15:00 AM 11.21 52.178 0.414 7.96 1.54 9.96
10/20/2020 10:30:00 AM 11.25 52.25 0.414 7.98 1.69 10
10/20/2020 10:45:00 AM 11.28 52.304 0.414 7.98 1.62 10.08
10/20/2020 11:00:00 AM 11.31 52.358 0.413 7.99 1.6 10.19
10/20/2020 11:15:00 AM 11.34 52.412 0.414 8 1.68 10.19
10/20/2020 11:30:00 AM 11.37 52.466 0.414 8.01 1.64 10.28
10/20/2020 11:45:00 AM 11.4 52.52 0.416 8.01 1.77 10.31
10/20/2020 12:00:00 PM 11.43 52.574 0.416 8.01 1.68 10.32
10/20/2020 12:15:00 PM 11.46 52.628 0.416 8.02 1.66 10.38
10/20/2020 12:30:00 PM 11.49 52.682 0.417 8.03 1.72 10.5
10/20/2020 12:45:00 PM 11.52 52.736 0.417 8.05 1.89 10.55
10/20/2020 1:00:00 PM 11.54 52.772 0.418 8.06 1.74 10.68
10/20/2020 1:15:00 PM 11.56 52.808 0.419 8.06 1.78 10.65
10/20/2020 1:30:00 PM 11.57 52.826 0.419 8.07 1.93 10.7
10/20/2020 1:45:00 PM 11.58 52.844 0.42 8.07 1.98 10.64
10/20/2020 2:00:00 PM 11.59 52.862 0.42 8.06 1.86 10.72
10/20/2020 2:15:00 PM 11.59 52.862 0.421 8.06 3.79 10.7
10/20/2020 2:30:00 PM 11.59 52.862 0.42 8.08 1.8 10.7
10/20/2020 2:45:00 PM 11.59 52.862 0.421 8.08 1.94 10.7
10/20/2020 3:00:00 PM 11.57 52.826 0.421 8.07 1.68 10.74
10/20/2020 3:15:00 PM 11.56 52.808 0.421 8.07 4.04 10.74
10/20/2020 3:30:00 PM 11.55 52.79 0.42 8.08 1.9 10.73
10/20/2020 3:45:00 PM 11.53 52.754 0.42 8.09 1.68 10.73
10/20/2020 4:00:00 PM 11.52 52.736 0.42 8.08 1.76 10.71
10/20/2020 4:15:00 PM 11.5 52.7 0.42 8.08 1.76 10.72
10/20/2020 4:30:00 PM 11.48 52.664 0.42 8.08 2.82 10.7
10/20/2020 4:45:00 PM 11.46 52.628 0.42 8.08 1.91 10.66
10/20/2020 5:00:00 PM 11.43 52.574 0.42 8.06 3.64 10.56
10/20/2020 5:15:00 PM 11.39 52.502 0.42 8.05 1.64 10.5
10/20/2020 5:30:00 PM 11.36 52.448 0.42 8.06 1.73 10.41
10/20/2020 5:45:00 PM 11.33 52.394 0.42 8.04 1.81 10.34
10/20/2020 6:00:00 PM 11.29 52.322 0.42 8.03 1.83 10.27
10/20/2020 6:15:00 PM 11.26 52.268 0.42 8.03 2.56 10.17
10/20/2020 6:30:00 PM 11.23 52.214 0.42 8.03 1.99 10.12
10/20/2020 6:45:00 PM 11.2 52.16 0.42 8.02 1.89 10.07
10/20/2020 7:00:00 PM 11.18 52.124 0.42 8 1.8 9.98
10/20/2020 7:15:00 PM 11.15 52.07 0.42 8 1.69 9.89
10/20/2020 7:30:00 PM 11.13 52.034 0.42 7.99 2.09 9.88
10/20/2020 7:45:00 PM 11.11 51.998 0.42 7.99 2.41 9.89
10/20/2020 8:00:00 PM 11.09 51.962 0.42 7.98 1.92 9.78
10/20/2020 8:15:00 PM 11.08 51.944 0.42 7.98 2.13 9.76
10/20/2020 8:30:00 PM 11.06 51.908 0.42 7.97 2 9.7
10/20/2020 8:45:00 PM 11.05 51.89 0.42 7.96 1.82 9.71
10/20/2020 9:00:00 PM 11.04 51.872 0.42 7.97 2.27 9.73
10/20/2020 9:15:00 PM 11.03 51.854 0.42 7.95 2.58 9.74
10/20/2020 9:30:00 PM 11.02 51.836 0.42 7.97 1.78 9.78
10/20/2020 9:45:00 PM 11.02 51.836 0.418 7.96 1.9 9.71
10/20/2020 10:00:00 PM 11.01 51.818 0.421 7.96 1.92 9.68
10/20/2020 10:15:00 PM 11.01 51.818 0.418 7.96 1.93 9.69
10/20/2020 10:30:00 PM 11 51.8 0.418 7.96 1.81 9.74
10/20/2020 10:45:00 PM 11 51.8 0.418 7.96 2.19 9.68
10/20/2020 11:00:00 PM 10.99 51.782 0.417 7.95 2.13 9.74
10/20/2020 11:15:00 PM 10.99 51.782 0.417 7.95 2.42 9.74
10/20/2020 11:30:00 PM 10.99 51.782 0.416 7.95 2.62 9.73
10/20/2020 11:45:00 PM 10.99 51.782 0.416 7.95 2.85 9.73
10/21/2020 12:00:00 AM 11 51.8 0.416 7.95 2.31 9.73
10/21/2020 12:15:00 AM 11 51.8 0.415 7.95 2.4 9.74
10/21/2020 12:30:00 AM 11 51.8 0.415 7.94 4.39 9.74
10/21/2020 12:45:00 AM 10.99 51.782 0.414 7.94 2.39 9.72
10/21/2020 1:00:00 AM 10.99 51.782 0.414 7.95 2.49 9.75
10/21/2020 1:15:00 AM 10.98 51.764 0.413 7.94 2.27 9.67
10/21/2020 1:30:00 AM 10.98 51.764 0.412 7.94 2.31 9.74
10/21/2020 1:45:00 AM 10.98 51.764 0.412 7.94 2.14 9.7
10/21/2020 2:00:00 AM 10.97 51.746 0.412 7.94 1.96 9.65
10/21/2020 2:15:00 AM 10.96 51.728 0.411 7.94 1.99 9.63
10/21/2020 2:30:00 AM 10.93 51.674 0.41 7.94 2.07 9.71
10/21/2020 2:45:00 AM 10.92 51.656 0.41 7.94 1.96 9.71
10/21/2020 3:00:00 AM 10.91 51.638 0.409 7.93 2.24 9.68
10/21/2020 3:15:00 AM 10.91 51.638 0.409 7.94 2.02 9.71
10/21/2020 3:30:00 AM 10.9 51.62 0.409 7.93 2.1 9.68
10/21/2020 3:45:00 AM 10.88 51.584 0.409 7.93 1.94 9.67
10/21/2020 4:00:00 AM 10.87 51.566 0.408 7.93 2.16 9.66
10/21/2020 4:15:00 AM 10.87 51.566 0.408 7.93 2.3 9.67
10/21/2020 4:30:00 AM 10.86 51.548 0.408 7.93 2.37 9.7
10/21/2020 4:45:00 AM 10.86 51.548 0.407 7.92 3.83 9.73
10/21/2020 5:00:00 AM 10.87 51.566 0.407 7.94 2.12 9.76
10/21/2020 5:15:00 AM 10.87 51.566 0.407 7.92 1.93 9.68
10/21/2020 5:30:00 AM 10.87 51.566 0.407 7.92 2.64 9.71
10/21/2020 5:45:00 AM 10.87 51.566 0.406 7.93 2.53 9.72
10/21/2020 6:00:00 AM 10.87 51.566 0.406 7.92 2.92 9.66
10/21/2020 6:15:00 AM 10.88 51.584 0.406 7.93 1.96 9.73
10/21/2020 6:30:00 AM 10.88 51.584 0.406 7.92 11.52 9.71
10/21/2020 6:45:00 AM 10.89 51.602 0.405 7.91 2.77 9.72
10/21/2020 7:00:00 AM 10.89 51.602 0.405 7.92 2.13 9.69
10/21/2020 7:15:00 AM 10.9 51.62 0.405 7.92 3 9.66
10/21/2020 7:30:00 AM 10.91 51.638 0.405 7.92 2.69 9.69
10/21/2020 7:45:00 AM 10.93 51.674 0.405 7.92 2.53 9.69
10/21/2020 8:00:00 AM 10.95 51.71 0.405 7.93 1.84 9.73
10/21/2020 8:15:00 AM 10.99 51.782 0.405 7.94 2.03 9.77
10/21/2020 8:30:00 AM 11.03 51.854 0.405 7.94 2.05 9.77
10/21/2020 8:45:00 AM 11.08 51.944 0.405 7.96 1.85 9.88
10/21/2020 9:00:00 AM 11.14 52.052 0.404 7.97 2.62 9.98
10/21/2020 9:15:00 AM 11.2 52.16 0.404 7.98 1.67 10.03
10/21/2020 9:30:00 AM 11.29 52.322 0.404 8 1.85 10.19
10/21/2020 9:45:00 AM 11.37 52.466 0.404 8.02 2.05 10.29
10/21/2020 10:00:00 AM 11.48 52.664 0.403 8.04 1.8 10.46
10/21/2020 10:15:00 AM 11.61 52.898 0.403 8.05 1.69 10.6
10/21/2020 10:30:00 AM 11.78 53.204 0.402 8.08 3.78 10.71
10/21/2020 10:45:00 AM 11.93 53.474 0.401 8.1 1.99 10.81
10/21/2020 11:00:00 AM 12.11 53.798 0.401 8.12 1.6 11.03
10/21/2020 11:15:00 AM 12.32 54.176 0.4 8.13 1.55 11.02
10/21/2020 11:30:00 AM 12.51 54.518 0.399 8.16 1.61 11.09
10/21/2020 11:45:00 AM 12.76 54.968 0.399 8.15 1.65 11.16
10/21/2020 12:00:00 PM 12.95 55.31 0.398 8.19 1.83 11.34
10/21/2020 12:15:00 PM 13.1 55.58 0.398 8.19 1.78 11.39
10/21/2020 12:30:00 PM 13.32 55.976 0.397 8.21 1.8 11.48
10/21/2020 12:45:00 PM 13.64 56.552 0.397 8.22 1.59 11.52
10/21/2020 1:00:00 PM 13.97 57.146 0.396 8.23 1.89 11.52
10/21/2020 1:15:00 PM 14.26 57.668 0.395 8.26 1.53 11.7
10/21/2020 1:30:00 PM 14.35 57.83 0.394 8.25 1.59 11.7
10/21/2020 1:45:00 PM 14.42 57.956 0.394 8.23 6.9 11.38
10/21/2020 2:00:00 PM 14.55 58.19 0.393 8.26 1.62 11.59
10/21/2020 2:15:00 PM 14.65 58.37 0.393 8.25 1.68 11.51
10/21/2020 2:30:00 PM 14.78 58.604 0.392 8.25 1.88 11.45
10/21/2020 2:45:00 PM 14.88 58.784 0.392 8.25 1.66 11.42
10/21/2020 3:00:00 PM 15.03 59.054 0.391 8.25 1.46 11.48
10/21/2020 3:15:00 PM 15.15 59.27 0.391 8.25 1.69 11.39
10/21/2020 3:30:00 PM 15.22 59.396 0.39 8.26 1.59 11.24
10/21/2020 3:45:00 PM 15.23 59.414 0.39 8.23 1.75 11.02
10/21/2020 4:00:00 PM 15.2 59.36 0.39 8.23 1.77 11.07
10/21/2020 4:15:00 PM 15.18 59.324 0.39 8.21 1.89 10.87
10/21/2020 4:30:00 PM 15.17 59.306 0.39 8.19 1.5 10.74
10/21/2020 4:45:00 PM 15.14 59.252 0.39 8.19 1.55 10.66
10/21/2020 5:00:00 PM 15.1 59.18 0.39 8.15 1.7 10.48
10/21/2020 5:15:00 PM 15.04 59.072 0.391 8.14 1.98 10.23
10/21/2020 5:30:00 PM 14.98 58.964 0.391 8.09 2.03 9.96
10/21/2020 5:45:00 PM 14.94 58.892 0.391 8.08 4.74 9.79
10/21/2020 6:00:00 PM 14.93 58.874 0.386 8.07 1.85 9.58
10/21/2020 6:15:00 PM 14.88 58.784 0.385 8.05 2.01 9.46
10/21/2020 6:30:00 PM 14.83 58.694 0.385 8.02 1.93 9.37
10/21/2020 6:45:00 PM 14.77 58.586 0.385 8.02 2.15 9.3
10/21/2020 7:00:00 PM 14.72 58.496 0.386 8 2 9.21
10/21/2020 7:15:00 PM 14.67 58.406 0.386 7.99 1.74 9.14
10/21/2020 7:30:00 PM 14.62 58.316 0.385 7.97 2.13 9.06
10/21/2020 7:45:00 PM 14.59 58.262 0.385 7.95 2.01 8.98
10/21/2020 8:00:00 PM 14.55 58.19 0.385 7.95 2.64 8.95
10/21/2020 8:15:00 PM 14.52 58.136 0.385 7.94 3.81 8.89
10/21/2020 8:30:00 PM 14.49 58.082 0.385 7.94 2.1 8.88
10/21/2020 8:45:00 PM 14.47 58.046 0.385 7.92 2.75 8.86
10/21/2020 9:00:00 PM 14.44 57.992 0.386 7.93 2.39 8.81
10/21/2020 9:15:00 PM 14.41 57.938 0.387 7.92 2.53 8.83
10/21/2020 9:30:00 PM 14.38 57.884 0.387 7.91 2.34 8.84
10/21/2020 9:45:00 PM 14.36 57.848 0.388 7.92 2.6 8.79
10/21/2020 10:00:00 PM 14.32 57.776 0.388 7.91 2.53 8.78
10/21/2020 10:15:00 PM 14.28 57.704 0.389 7.9 2.65 8.82
10/21/2020 10:30:00 PM 14.24 57.632 0.39 7.9 2.66 8.81
10/21/2020 10:45:00 PM 14.2 57.56 0.39 7.9 2.99 8.81
10/21/2020 11:00:00 PM 14.16 57.488 0.391 7.9 2.41 8.82
10/21/2020 11:15:00 PM 14.11 57.398 0.392 7.89 2.22 8.82
10/21/2020 11:30:00 PM 14.07 57.326 0.392 7.89 2.5 8.8
10/21/2020 11:45:00 PM 14.02 57.236 0.392 7.9 2.61 8.86
10/22/2020 12:00:00 AM 13.98 57.164 0.392 7.89 2.55 8.81
10/22/2020 12:15:00 AM 13.93 57.074 0.393 7.88 2.22 8.82
10/22/2020 12:30:00 AM 13.88 56.984 0.393 7.89 2.44 8.84
10/22/2020 12:45:00 AM 13.82 56.876 0.393 7.88 2.45 8.87
10/22/2020 1:00:00 AM 13.77 56.786 0.393 7.89 2.99 8.88
10/22/2020 1:15:00 AM 13.71 56.678 0.393 7.88 2.38 8.89
10/22/2020 1:30:00 AM 13.67 56.606 0.393 7.88 2.08 8.86
10/22/2020 1:45:00 AM 13.61 56.498 0.393 7.87 2.81 8.91
10/22/2020 2:00:00 AM 13.57 56.426 0.394 7.87 2.63 8.91
10/22/2020 2:15:00 AM 13.53 56.354 0.392 7.88 2.46 8.89
10/22/2020 2:30:00 AM 13.49 56.282 0.392 7.88 2.19 8.88
10/22/2020 2:45:00 AM 13.44 56.192 0.392 7.88 2.87 8.95
10/22/2020 3:00:00 AM 13.41 56.138 0.393 7.87 2.69 8.95
10/22/2020 3:15:00 AM 13.37 56.066 0.393 7.87 2.76 8.93
10/22/2020 3:30:00 AM 13.31 55.958 0.393 7.87 2.67 8.95
10/22/2020 3:45:00 AM 13.26 55.868 0.393 7.87 2.56 9
10/22/2020 4:00:00 AM 13.2 55.76 0.393 7.86 3 9.03
10/22/2020 4:15:00 AM 13.14 55.652 0.393 7.87 3.13 9.06
10/22/2020 4:30:00 AM 13.08 55.544 0.393 7.86 3.06 9.03
10/22/2020 4:45:00 AM 13.01 55.418 0.393 7.86 3.49 9.08
10/22/2020 5:00:00 AM 12.98 55.364 0.393 7.85 3.7 9.11
10/22/2020 5:15:00 AM 12.96 55.328 0.393 7.87 3.03 9.09
10/22/2020 5:30:00 AM 12.92 55.256 0.393 7.86 4.67 9.13
10/22/2020 5:45:00 AM 12.89 55.202 0.393 7.86 3.61 9.12
10/22/2020 6:00:00 AM 12.86 55.148 0.393 7.87 2.87 9.15
10/22/2020 6:15:00 AM 12.84 55.112 0.393 7.88 2.9 9.16
10/22/2020 6:30:00 AM 12.82 55.076 0.393 7.88 3.3 9.17
10/22/2020 6:45:00 AM 12.79 55.022 0.393 7.88 3.11 9.17
10/22/2020 7:00:00 AM 12.75 54.95 0.392 7.87 3.22 9.17
10/22/2020 7:15:00 AM 12.72 54.896 0.392 7.87 9.63 9.15
10/22/2020 7:30:00 AM 12.69 54.842 0.392 7.87 3.86 9.11
10/22/2020 7:45:00 AM 12.69 54.842 0.392 7.88 3.67 9.18
10/22/2020 8:00:00 AM 12.69 54.842 0.392 7.88 8.39 9.22
10/22/2020 8:15:00 AM 12.69 54.842 0.392 7.89 3.13 9.23
10/22/2020 8:30:00 AM 12.7 54.86 0.391 7.9 2.77 9.28
10/22/2020 8:45:00 AM 12.71 54.878 0.391 7.91 4.05 9.33
10/22/2020 9:00:00 AM 12.72 54.896 0.391 7.92 2.69 9.31
10/22/2020 9:15:00 AM 12.74 54.932 0.391 7.93 2.45 9.42
10/22/2020 9:30:00 AM 12.77 54.986 0.39 7.94 2.37 9.56
10/22/2020 9:45:00 AM 12.81 55.058 0.39 7.94 4.23 9.7
10/22/2020 10:00:00 AM 12.82 55.076 0.39 7.96 2.54 9.62
10/22/2020 10:15:00 AM 12.83 55.094 0.39 7.96 2.16 9.67
10/22/2020 10:30:00 AM 12.85 55.13 0.39 7.96 2.32 9.64
10/22/2020 10:45:00 AM 12.88 55.184 0.39 7.98 2.42 9.8
10/22/2020 11:00:00 AM 12.92 55.256 0.39 7.99 3.03 9.88
10/22/2020 11:15:00 AM 12.96 55.328 0.39 8.01 2.29 9.93
10/22/2020 11:30:00 AM 12.99 55.382 0.39 8 2.35 9.99
10/22/2020 11:45:00 AM 13.02 55.436 0.39 8.02 2.33 10.01
10/22/2020 12:00:00 PM 13.04 55.472 0.39 8.02 2.31 9.98
10/22/2020 12:15:00 PM 13.08 55.544 0.39 8.03 2.16 10.11
10/22/2020 12:30:00 PM 13.13 55.634 0.389 8.06 2.3 10.24
10/22/2020 12:45:00 PM 13.2 55.76 0.389 8.08 2.19 10.35
10/22/2020 1:00:00 PM 13.36 56.048 0.389 8.11 2.42 10.47
10/22/2020 1:15:00 PM 13.47 56.246 0.388 8.12 2.84 10.62
10/22/2020 1:30:00 PM 13.54 56.372 0.388 8.13 2.11 10.69
10/22/2020 1:45:00 PM 13.6 56.48 0.388 8.13 2.15 10.71
10/22/2020 2:00:00 PM 13.65 56.57 0.388 8.13 2.27 10.75
10/22/2020 2:15:00 PM 13.74 56.732 0.387 8.15 2.33 10.77
10/22/2020 2:30:00 PM 13.84 56.912 0.387 8.16 2.04 10.87
10/22/2020 2:45:00 PM 13.91 57.038 0.386 8.17 1.98 10.91
10/22/2020 3:00:00 PM 13.96 57.128 0.386 8.17 2.16 10.92
10/22/2020 3:15:00 PM 14.01 57.218 0.386 8.18 2.02 10.92
10/22/2020 3:30:00 PM 14.09 57.362 0.386 8.18 2.65 10.9
10/22/2020 3:45:00 PM 14.19 57.542 0.385 8.19 2 10.91
10/22/2020 4:00:00 PM 14.25 57.65 0.385 8.2 2.5 10.98
10/22/2020 4:15:00 PM 14.27 57.686 0.385 8.19 2.43 10.9
10/22/2020 4:30:00 PM 14.31 57.758 0.384 8.19 2.15 10.84
10/22/2020 4:45:00 PM 14.35 57.83 0.384 8.19 2.15 10.83
10/22/2020 5:00:00 PM 14.33 57.794 0.384 8.17 2.44 10.71
10/22/2020 5:15:00 PM 14.28 57.704 0.384 8.15 2.29 10.56
10/22/2020 5:30:00 PM 14.24 57.632 0.385 8.13 2.37 10.37
10/22/2020 5:45:00 PM 14.19 57.542 0.385 8.11 2.37 10.23
10/22/2020 6:00:00 PM 14.13 57.434 0.385 8.09 2.46 10.08
10/22/2020 6:15:00 PM 14.06 57.308 0.385 8.07 2.68 9.94
10/22/2020 6:30:00 PM 14 57.2 0.385 8.04 3.71 9.8
10/22/2020 6:45:00 PM 13.91 57.038 0.386 8.02 2.78 9.69
10/22/2020 7:00:00 PM 13.83 56.894 0.386 8 2.49 9.6
10/22/2020 7:15:00 PM 13.74 56.732 0.386 7.97 2.62 9.52
10/22/2020 7:30:00 PM 13.66 56.588 0.386 7.96 2.7 9.46
10/22/2020 7:45:00 PM 13.59 56.462 0.385 7.95 3.2 9.39
10/22/2020 8:00:00 PM 13.51 56.318 0.385 7.94 3 9.38
10/22/2020 8:15:00 PM 13.45 56.21 0.384 7.93 3.09 9.35
10/22/2020 8:30:00 PM 13.4 56.12 0.384 7.93 2.69 9.33
10/22/2020 8:45:00 PM 13.35 56.03 0.383 7.93 3.12 9.33
10/22/2020 9:00:00 PM 13.3 55.94 0.382 7.92 3.02 9.32
10/22/2020 9:15:00 PM 13.26 55.868 0.382 7.92 3.01 9.31
10/22/2020 9:30:00 PM 13.23 55.814 0.381 7.92 3.04 9.31
10/22/2020 9:45:00 PM 13.2 55.76 0.38 7.91 3.13 9.29
10/22/2020 10:00:00 PM 13.16 55.688 0.379 7.91 3.04 9.31
10/22/2020 10:15:00 PM 13.12 55.616 0.378 7.9 2.85 9.3
10/22/2020 10:30:00 PM 13.07 55.526 0.377 7.9 2.95 9.31
10/22/2020 10:45:00 PM 13.02 55.436 0.377 7.89 3.28 9.31
10/22/2020 11:00:00 PM 12.97 55.346 0.376 7.89 3.44 9.31
10/22/2020 11:15:00 PM 12.92 55.256 0.376 7.89 3.54 9.31
10/22/2020 11:30:00 PM 12.85 55.13 0.375 7.88 3.18 9.31
10/22/2020 11:45:00 PM 12.8 55.04 0.375 7.87 3.44 9.32
10/23/2020 12:00:00 AM 12.75 54.95 0.375 7.88 3.67 9.34
10/23/2020 12:15:00 AM 12.7 54.86 0.375 7.88 3.35 9.33
10/23/2020 12:30:00 AM 12.65 54.77 0.375 7.86 3.17 9.33
10/23/2020 12:45:00 AM 12.6 54.68 0.374 7.87 5.56 9.34
10/23/2020 1:00:00 AM 12.54 54.572 0.374 7.86 3.38 9.33
10/23/2020 1:15:00 AM 12.48 54.464 0.375 7.86 3.41 9.36
10/23/2020 1:30:00 AM 12.43 54.374 0.375 7.85 3.14 9.35
10/23/2020 1:45:00 AM 12.37 54.266 0.375 7.86 3.17 9.36
10/23/2020 2:00:00 AM 12.32 54.176 0.375 7.85 3.27 9.37
10/23/2020 2:15:00 AM 12.25 54.05 0.375 7.84 3.51 9.38
10/23/2020 2:30:00 AM 12.19 53.942 0.375 7.85 3.31 9.39
10/23/2020 2:45:00 AM 12.14 53.852 0.376 7.84 3.53 9.39
10/23/2020 3:00:00 AM 12.09 53.762 0.376 7.85 3.67 9.4
10/23/2020 3:15:00 AM 12.04 53.672 0.376 7.84 3.62 9.41
10/23/2020 3:30:00 AM 12 53.6 0.376 7.85 6.16 9.41
10/23/2020 3:45:00 AM 11.97 53.546 0.377 7.86 3.35 9.43
10/23/2020 4:00:00 AM 11.95 53.51 0.377 7.86 3.34 9.42
10/23/2020 4:15:00 AM 11.94 53.492 0.377 7.86 3.44 9.43
10/23/2020 4:30:00 AM 11.94 53.492 0.377 7.86 3.61 9.45
10/23/2020 4:45:00 AM 11.93 53.474 0.378 7.86 3.43 9.42
10/23/2020 5:00:00 AM 11.92 53.456 0.378 7.86 3.24 9.44
10/23/2020 5:15:00 AM 11.9 53.42 0.378 7.86 3.33 9.45
10/23/2020 5:30:00 AM 11.88 53.384 0.378 7.86 3.64 9.47
10/23/2020 5:45:00 AM 11.86 53.348 0.379 7.86 4.01 9.46
10/23/2020 6:00:00 AM 11.84 53.312 0.379 7.87 3.63 9.45
10/23/2020 6:15:00 AM 11.83 53.294 0.379 7.86 6.46 9.48
10/23/2020 6:30:00 AM 11.81 53.258 0.379 7.85 3.32 9.48
10/23/2020 6:45:00 AM 11.79 53.222 0.379 7.86 3.64 9.47
10/23/2020 7:00:00 AM 11.79 53.222 0.38 7.87 2.94 9.48
10/23/2020 7:15:00 AM 11.79 53.222 0.38 7.86 13.08 9.47
10/23/2020 7:30:00 AM 11.78 53.204 0.38 7.87 3.15 9.5
10/23/2020 7:45:00 AM 11.78 53.204 0.38 7.88 4.52 9.51
10/23/2020 8:00:00 AM 11.78 53.204 0.38 7.88 3.45 9.56
10/23/2020 8:15:00 AM 11.78 53.204 0.38 7.89 3.22 9.58
10/23/2020 8:30:00 AM 11.79 53.222 0.38 7.89 5.52 9.62
10/23/2020 8:45:00 AM 11.8 53.24 0.38 7.91 2.94 9.74
10/23/2020 9:00:00 AM 11.83 53.294 0.381 7.92 2.56 9.75
10/23/2020 9:15:00 AM 11.9 53.42 0.381 7.95 3.24 9.91
10/23/2020 9:30:00 AM 11.96 53.528 0.38 7.95 5.13 10.01
10/23/2020 9:45:00 AM 12.04 53.672 0.381 7.98 2.6 10.06
10/23/2020 10:00:00 AM 12.16 53.888 0.381 8 2.68 10.14
10/23/2020 10:15:00 AM 12.26 54.068 0.38 8.01 2.74 10.29
10/23/2020 10:30:00 AM 12.31 54.158 0.38 8.02 2.53 10.34
10/23/2020 10:45:00 AM 12.4 54.32 0.381 8.03 2.4 10.36
10/23/2020 11:00:00 AM 12.58 54.644 0.38 8.06 2.39 10.51
10/23/2020 11:15:00 AM 12.76 54.968 0.38 8.09 2.33 10.62
10/23/2020 11:30:00 AM 12.96 55.328 0.38 8.1 2.94 10.67
10/23/2020 11:45:00 AM 13.17 55.706 0.38 8.11 3.85 10.78
10/23/2020 12:00:00 PM 13.36 56.048 0.38 8.13 2.36 10.84
10/23/2020 12:15:00 PM 13.59 56.462 0.379 8.14 2.23 10.92
10/23/2020 12:30:00 PM 13.78 56.804 0.38 8.16 2.58 10.95
10/23/2020 12:45:00 PM 14.01 57.218 0.379 8.17 2.7 11
10/23/2020 1:00:00 PM 14.17 57.506 0.379 8.17 2.32 11.03
10/23/2020 1:15:00 PM 14.36 57.848 0.379 8.18 2.44 11.04
10/23/2020 1:30:00 PM 14.53 58.154 0.379 8.18 2.6 10.99
10/23/2020 1:45:00 PM 14.59 58.262 0.379 8.19 2.2 11.02
10/23/2020 2:00:00 PM 14.73 58.514 0.379 8.19 2.25 11.01
10/23/2020 2:15:00 PM 14.84 58.712 0.379 8.19 2.36 10.96
10/23/2020 2:30:00 PM 14.97 58.946 0.379 8.2 2.33 10.96
10/23/2020 2:45:00 PM 15.08 59.144 0.38 8.2 2.53 10.91
10/23/2020 3:00:00 PM 15.2 59.36 0.38 8.21 2.33 10.92
10/23/2020 3:15:00 PM 15.31 59.558 0.38 8.21 2.64 10.85
10/23/2020 3:30:00 PM 15.3 59.54 0.38 8.19 2.42 10.69
10/23/2020 3:45:00 PM 15.37 59.666 0.38 8.19 2.27 10.67
10/23/2020 4:00:00 PM 15.41 59.738 0.38 8.19 2.35 10.58
10/23/2020 4:15:00 PM 15.43 59.774 0.38 8.19 2.4 10.52
10/23/2020 4:30:00 PM 15.44 59.792 0.381 8.16 2.52 10.42
10/23/2020 4:45:00 PM 15.43 59.774 0.381 8.16 2.61 10.28
10/23/2020 5:00:00 PM 15.42 59.756 0.381 8.13 2.21 10.09
10/23/2020 5:15:00 PM 15.42 59.756 0.382 8.14 2.51 10
10/23/2020 5:30:00 PM 15.4 59.72 0.382 8.12 2.36 9.82
10/23/2020 5:45:00 PM 15.37 59.666 0.383 8.1 8.48 9.7
10/23/2020 6:00:00 PM 15.34 59.612 0.383 8.09 2.57 9.57
10/23/2020 6:15:00 PM 15.32 59.576 0.383 8.06 2.43 9.34
10/23/2020 6:30:00 PM 15.27 59.486 0.384 8.05 2.68 9.3
10/23/2020 6:45:00 PM 15.21 59.378 0.384 8.02 2.5 9.17
10/23/2020 7:00:00 PM 15.14 59.252 0.385 8 2.65 9.09
10/23/2020 7:15:00 PM 15.09 59.162 0.385 7.99 2.37 8.98
10/23/2020 7:30:00 PM 15.01 59.018 0.385 7.96 2.92 8.89
10/23/2020 7:45:00 PM 14.96 58.928 0.386 7.97 2.62 8.9
10/23/2020 8:00:00 PM 14.92 58.856 0.386 7.96 2.83 8.81
10/23/2020 8:15:00 PM 14.87 58.766 0.386 7.94 2.71 8.79
10/23/2020 8:30:00 PM 14.82 58.676 0.386 7.95 2.81 8.74
10/23/2020 8:45:00 PM 14.77 58.586 0.386 7.94 2.54 8.74
10/23/2020 9:00:00 PM 14.74 58.532 0.387 7.94 2.56 8.7
10/23/2020 9:15:00 PM 14.69 58.442 0.387 7.94 2.69 8.7
10/23/2020 9:30:00 PM 14.63 58.334 0.387 7.93 2.65 8.73
10/23/2020 9:45:00 PM 14.58 58.244 0.387 7.92 8.9 8.71
10/23/2020 10:00:00 PM 14.54 58.172 0.387 7.91 2.75 8.65
10/23/2020 10:15:00 PM 14.48 58.064 0.387 7.91 2.77 8.65
10/23/2020 10:30:00 PM 14.42 57.956 0.387 7.91 2.75 8.68
10/23/2020 10:45:00 PM 14.38 57.884 0.388 7.9 2.64 8.64
10/23/2020 11:00:00 PM 14.32 57.776 0.388 7.91 2.4 8.63
10/23/2020 11:15:00 PM 14.27 57.686 0.388 7.91 2.97 8.62
10/23/2020 11:30:00 PM 14.24 57.632 0.388 7.91 2.58 8.69
10/23/2020 11:45:00 PM 14.22 57.596 0.388 7.92 3.24 8.7
10/24/2020 12:00:00 AM 14.2 57.56 0.388 7.92 4.2 8.69
10/24/2020 12:15:00 AM 14.19 57.542 0.389 7.91 3.26 8.67
10/24/2020 12:30:00 AM 14.17 57.506 0.389 7.91 3.52 8.69
10/24/2020 12:45:00 AM 14.15 57.47 0.389 7.91 3.15 8.69
10/24/2020 1:00:00 AM 14.14 57.452 0.389 7.91 2.93 8.65
10/24/2020 1:15:00 AM 14.13 57.434 0.389 7.91 3.22 8.66
10/24/2020 1:30:00 AM 14.12 57.416 0.389 7.91 2.8 8.68
10/24/2020 1:45:00 AM 14.12 57.416 0.389 7.92 2.79 8.72
10/24/2020 2:00:00 AM 14.12 57.416 0.39 7.91 2.74 8.65
10/24/2020 2:15:00 AM 14.11 57.398 0.39 7.91 3.35 8.69
10/24/2020 2:30:00 AM 14.09 57.362 0.39 7.9 3.33 8.69
10/24/2020 2:45:00 AM 14.07 57.326 0.39 7.91 3.24 8.68
10/24/2020 3:00:00 AM 14.05 57.29 0.39 7.9 3.09 8.67
10/24/2020 3:15:00 AM 14.04 57.272 0.39 7.9 3.1 8.64
10/24/2020 3:30:00 AM 14.03 57.254 0.39 7.9 3.16 8.67
10/24/2020 3:45:00 AM 14.03 57.254 0.39 7.91 2.8 8.66
10/24/2020 4:00:00 AM 14.02 57.236 0.39 7.91 3.24 8.68
10/24/2020 4:15:00 AM 14.02 57.236 0.39 7.91 2.81 8.68
10/24/2020 4:30:00 AM 14.02 57.236 0.39 7.91 2.63 8.65
10/24/2020 4:45:00 AM 14.02 57.236 0.39 7.9 2.74 8.64
10/24/2020 5:00:00 AM 14.01 57.218 0.39 7.9 2.89 8.67
10/24/2020 5:15:00 AM 14 57.2 0.39 7.9 2.8 8.68
10/24/2020 5:30:00 AM 14 57.2 0.39 7.9 2.62 8.68
10/24/2020 5:45:00 AM 13.99 57.182 0.39 7.89 2.85 8.62
10/24/2020 6:00:00 AM 13.99 57.182 0.39 7.9 3.12 8.66
10/24/2020 6:15:00 AM 13.99 57.182 0.39 7.9 2.69 8.65
10/24/2020 6:30:00 AM 13.98 57.164 0.39 7.9 3.71 8.69
10/24/2020 6:45:00 AM 13.95 57.11 0.39 7.89 2.78 8.64
10/24/2020 7:00:00 AM 13.89 57.002 0.389 7.89 3.16 8.7
10/24/2020 7:15:00 AM 13.86 56.948 0.389 7.89 2.88 8.61
10/24/2020 7:30:00 AM 13.8 56.84 0.389 7.89 2.68 8.68
10/24/2020 7:45:00 AM 13.74 56.732 0.389 7.88 2.86 8.67
10/24/2020 8:00:00 AM 13.7 56.66 0.389 7.88 2.89 8.62
10/24/2020 8:15:00 AM 13.64 56.552 0.389 7.88 3 8.7
10/24/2020 8:30:00 AM 13.59 56.462 0.389 7.89 2.58 8.72
10/24/2020 8:45:00 AM 13.54 56.372 0.389 7.89 2.6 8.76
10/24/2020 9:00:00 AM 13.48 56.264 0.388 7.89 2.45 8.8
10/24/2020 9:15:00 AM 13.42 56.156 0.387 7.88 2.61 8.86
10/24/2020 9:30:00 AM 13.36 56.048 0.387 7.89 2.28 8.98
10/24/2020 9:45:00 AM 13.29 55.922 0.386 7.91 2.26 9.08
10/24/2020 10:00:00 AM 13.26 55.868 0.386 7.92 2.46 9.13
10/24/2020 10:15:00 AM 13.2 55.76 0.386 7.93 2.53 9.31
10/24/2020 10:30:00 AM 13.16 55.688 0.386 7.95 2.35 9.49
10/24/2020 10:45:00 AM 13.11 55.598 0.386 7.96 2.4 9.55
10/24/2020 11:00:00 AM 13.09 55.562 0.386 7.98 2.55 9.66
10/24/2020 11:15:00 AM 13.09 55.562 0.385 8.01 2.33 9.78
10/24/2020 11:30:00 AM 13.1 55.58 0.385 8.04 2.44 10.03
10/24/2020 11:45:00 AM 13.08 55.544 0.385 8.04 2.32 10.09
10/24/2020 12:00:00 PM 13.06 55.508 0.385 8.06 2.3 10.22
10/24/2020 12:15:00 PM 13.04 55.472 0.384 8.07 2.29 10.27
10/24/2020 12:30:00 PM 13.03 55.454 0.385 8.09 2.22 10.39
10/24/2020 12:45:00 PM 13.01 55.418 0.384 8.11 2.33 10.55
10/24/2020 1:00:00 PM 12.99 55.382 0.384 8.1 2.32 10.59
10/24/2020 1:15:00 PM 12.96 55.328 0.384 8.12 2.25 10.62
10/24/2020 1:30:00 PM 12.94 55.292 0.384 8.13 4.09 10.7
10/24/2020 1:45:00 PM 12.91 55.238 0.384 8.14 2.04 10.66
10/24/2020 2:00:00 PM 12.88 55.184 0.384 8.14 2.05 10.76
10/24/2020 2:15:00 PM 12.86 55.148 0.384 8.15 2.08 10.85
10/24/2020 2:30:00 PM 12.85 55.13 0.384 8.17 2 10.89
10/24/2020 2:45:00 PM 12.83 55.094 0.383 8.17 2.01 10.92
10/24/2020 3:00:00 PM 12.8 55.04 0.384 8.18 2.16 10.93
10/24/2020 3:15:00 PM 12.77 54.986 0.383 8.18 2.02 10.95
10/24/2020 3:30:00 PM 12.73 54.914 0.384 8.17 2.37 10.9
10/24/2020 3:45:00 PM 12.67 54.806 0.383 8.17 3.81 10.86
10/24/2020 4:00:00 PM 12.61 54.698 0.384 8.17 2.3 10.8
10/24/2020 4:15:00 PM 12.54 54.572 0.384 8.16 2.09 10.71
10/24/2020 4:30:00 PM 12.49 54.482 0.384 8.15 2.34 10.63
10/24/2020 4:45:00 PM 12.42 54.356 0.384 8.14 2.14 10.55
10/24/2020 5:00:00 PM 12.36 54.248 0.385 8.13 2.12 10.47
10/24/2020 5:15:00 PM 12.3 54.14 0.385 8.13 2.17 10.42
10/24/2020 5:30:00 PM 12.23 54.014 0.385 8.11 4.16 10.31
10/24/2020 5:45:00 PM 12.17 53.906 0.386 8.1 2.12 10.18
10/24/2020 6:00:00 PM 12.09 53.762 0.386 8.09 2.18 10.12
10/24/2020 6:15:00 PM 12.01 53.618 0.386 8.06 2.08 10.06
10/24/2020 6:30:00 PM 11.93 53.474 0.387 8.06 2.33 9.96
10/24/2020 6:45:00 PM 11.86 53.348 0.387 8.05 2.31 9.9
10/24/2020 7:00:00 PM 11.78 53.204 0.387 8.04 2.54 9.84
10/24/2020 7:15:00 PM 11.71 53.078 0.388 8.03 2.17 9.8
10/24/2020 7:30:00 PM 11.65 52.97 0.388 8.01 2.17 9.75
10/24/2020 7:45:00 PM 11.58 52.844 0.388 8.02 2.37 9.73
10/24/2020 8:00:00 PM 11.51 52.718 0.389 8 2.24 9.69
10/24/2020 8:15:00 PM 11.41 52.538 0.389 8 2.29 9.68
10/24/2020 8:30:00 PM 11.33 52.394 0.389 7.99 2.15 9.66
10/24/2020 8:45:00 PM 11.25 52.25 0.389 7.98 3 9.65
10/24/2020 9:00:00 PM 11.16 52.088 0.39 7.97 3.79 9.66
10/24/2020 9:15:00 PM 11.08 51.944 0.39 7.97 2.58 9.66
10/24/2020 9:30:00 PM 11.01 51.818 0.39 7.96 2.45 9.68
10/24/2020 9:45:00 PM 10.93 51.674 0.39 7.97 2.28 9.69
10/24/2020 10:00:00 PM 10.85 51.53 0.39 7.97 4.5 9.67
10/24/2020 10:15:00 PM 10.76 51.368 0.39 7.95 2.37 9.69
10/24/2020 10:30:00 PM 10.67 51.206 0.391 7.96 2.52 9.72
10/24/2020 10:45:00 PM 10.59 51.062 0.391 7.95 2.94 9.73
10/24/2020 11:00:00 PM 10.52 50.936 0.391 7.95 2.48 9.76
10/24/2020 11:15:00 PM 10.46 50.828 0.391 7.96 2.55 9.77
10/24/2020 11:30:00 PM 10.4 50.72 0.391 7.96 2.31 9.79
10/24/2020 11:45:00 PM 10.34 50.612 0.391 7.95 2.4 9.8
10/25/2020 12:00:00 AM 10.3 50.54 0.391 7.96 4.52 9.83
10/25/2020 12:15:00 AM 10.26 50.468 0.391 7.96 4.38 9.81
10/25/2020 12:30:00 AM 10.23 50.414 0.392 7.96 4.05 9.83
10/25/2020 12:45:00 AM 10.19 50.342 0.392 7.96 4.67 9.84
10/25/2020 1:00:00 AM 10.14 50.252 0.392 7.95 2.72 9.85
10/25/2020 1:15:00 AM 10.08 50.144 0.392 7.95 2.8 9.87
10/25/2020 1:30:00 AM 10.04 50.072 0.392 7.96 2.88 9.87
10/25/2020 1:45:00 AM 10.01 50.018 0.392 7.95 4.78 9.91
10/25/2020 2:00:00 AM 10 50 0.393 7.95 2.86 9.88
10/25/2020 2:15:00 AM 9.98 49.964 0.393 7.96 7.29 9.91
10/25/2020 2:30:00 AM 9.96 49.928 0.393 7.96 2.43 9.91
10/25/2020 2:45:00 AM 9.94 49.892 0.393 7.96 2.61 9.91
10/25/2020 3:00:00 AM 9.92 49.856 0.393 7.96 4.68 9.93
10/25/2020 3:15:00 AM 9.89 49.802 0.393 7.95 4.84 9.93
10/25/2020 3:30:00 AM 9.86 49.748 0.393 7.96 3.17 9.93
10/25/2020 3:45:00 AM 9.83 49.694 0.393 7.95 2.93 9.94
10/25/2020 4:00:00 AM 9.8 49.64 0.393 7.95 4.86 9.93
10/25/2020 4:15:00 AM 9.74 49.532 0.393 7.95 5.07 9.97
10/25/2020 4:30:00 AM 9.66 49.388 0.393 7.94 5.42 9.97
10/25/2020 4:45:00 AM 9.59 49.262 0.393 7.94 2.55 9.96
10/25/2020 5:00:00 AM 9.52 49.136 0.393 7.94 4.8 10.02
10/25/2020 5:15:00 AM 9.44 48.992 0.393 7.93 3.3 10
10/25/2020 5:30:00 AM 9.35 48.83 0.393 7.92 4.65 10.05
10/25/2020 5:45:00 AM 9.26 48.668 0.393 7.91 2.87 10.07
10/25/2020 6:00:00 AM 9.18 48.524 0.393 7.93 2.64 10.08
10/25/2020 6:15:00 AM 9.09 48.362 0.393 7.91 2.47 10.11
10/25/2020 6:30:00 AM 9 48.2 0.393 7.93 4.61 10.14
10/25/2020 6:45:00 AM 8.91 48.038 0.393 7.92 2.56 10.16
10/25/2020 7:00:00 AM 8.83 47.894 0.393 7.92 2.44 10.19
10/25/2020 7:15:00 AM 8.73 47.714 0.393 7.91 2.53 10.19
10/25/2020 7:30:00 AM 8.64 47.552 0.394 7.92 2.76 10.24
10/25/2020 7:45:00 AM 8.57 47.426 0.394 7.92 2.38 10.27
10/25/2020 8:00:00 AM 8.5 47.3 0.394 7.93 2.78 10.33
10/25/2020 8:15:00 AM 8.44 47.192 0.393 7.94 2.24 10.4
10/25/2020 8:30:00 AM 8.4 47.12 0.393 7.96 2.39 10.61
10/25/2020 8:45:00 AM 8.38 47.084 0.393 7.98 2.38 10.72
10/25/2020 9:00:00 AM 8.37 47.066 0.393 7.99 2.26 10.87
10/25/2020 9:15:00 AM 8.37 47.066 0.393 8.01 2.21 11
10/25/2020 9:30:00 AM 8.4 47.12 0.393 8.03 2.14 11.13
10/25/2020 9:45:00 AM 8.44 47.192 0.392 8.06 4.44 11.27
10/25/2020 10:00:00 AM 8.47 47.246 0.392 8.06 2.48 11.36
10/25/2020 10:15:00 AM 8.55 47.39 0.392 8.09 2.15 11.48
10/25/2020 10:30:00 AM 8.63 47.534 0.392 8.12 2.35 11.64
10/25/2020 10:45:00 AM 8.72 47.696 0.392 8.14 2.17 11.74
10/25/2020 11:00:00 AM 8.83 47.894 0.391 8.15 2.14 11.81
10/25/2020 11:15:00 AM 8.94 48.092 0.391 8.17 2.04 11.92
10/25/2020 11:30:00 AM 9.08 48.344 0.391 8.17 4.24 12.03
10/25/2020 11:45:00 AM 9.21 48.578 0.391 8.18 2.3 12.08
10/25/2020 12:00:00 PM 9.28 48.704 0.39 8.2 2.06 12.15
10/25/2020 12:15:00 PM 9.39 48.902 0.39 8.21 1.99 12.21
10/25/2020 12:30:00 PM 9.58 49.244 0.39 8.22 4.02 12.3
10/25/2020 12:45:00 PM 9.69 49.442 0.39 8.25 1.93 12.32
10/25/2020 1:00:00 PM 9.72 49.496 0.389 8.24 2.63 12.38
10/25/2020 1:15:00 PM 9.85 49.73 0.389 8.26 1.95 12.38
10/25/2020 1:30:00 PM 9.98 49.964 0.389 8.26 4.18 12.44
10/25/2020 1:45:00 PM 10.13 50.234 0.389 8.28 1.84 12.46
10/25/2020 2:00:00 PM 10.26 50.468 0.388 8.29 1.94 12.5
10/25/2020 2:15:00 PM 10.36 50.648 0.388 8.29 1.96 12.49
10/25/2020 2:30:00 PM 10.47 50.846 0.388 8.3 1.91 12.51
10/25/2020 2:45:00 PM 10.52 50.936 0.388 8.3 1.85 12.51
10/25/2020 3:00:00 PM 10.55 50.99 0.388 8.3 1.87 12.53
10/25/2020 3:15:00 PM 10.57 51.026 0.387 8.31 1.96 12.52
10/25/2020 3:30:00 PM 10.55 50.99 0.387 8.3 1.78 12.46
10/25/2020 3:45:00 PM 10.53 50.954 0.387 8.29 1.76 12.43
10/25/2020 4:00:00 PM 10.5 50.9 0.387 8.29 1.84 12.32
10/25/2020 4:15:00 PM 10.47 50.846 0.388 8.27 1.96 12.23
10/25/2020 4:30:00 PM 10.45 50.81 0.388 8.28 2.09 12.11
10/25/2020 4:45:00 PM 10.42 50.756 0.388 8.27 1.94 11.99
10/25/2020 5:00:00 PM 10.39 50.702 0.388 8.26 1.95 11.81
10/25/2020 5:15:00 PM 10.34 50.612 0.389 8.24 1.89 11.67
10/25/2020 5:30:00 PM 10.3 50.54 0.389 8.22 1.83 11.51
10/25/2020 5:45:00 PM 10.25 50.45 0.39 8.21 2.02 11.36
10/25/2020 6:00:00 PM 10.2 50.36 0.39 8.19 1.81 11.2
10/25/2020 6:15:00 PM 10.14 50.252 0.391 8.17 1.84 11.06
10/25/2020 6:30:00 PM 10.09 50.162 0.391 8.15 1.89 10.91
10/25/2020 6:45:00 PM 10.06 50.108 0.392 8.14 2.08 10.81
10/25/2020 7:00:00 PM 10 50 0.392 8.12 3.66 10.7
10/25/2020 7:15:00 PM 9.98 49.964 0.393 8.11 2.04 10.62
10/25/2020 7:30:00 PM 9.94 49.892 0.393 8.11 1.99 10.53
10/25/2020 7:45:00 PM 9.91 49.838 0.394 8.1 1.95 10.47
10/25/2020 8:00:00 PM 9.88 49.784 0.394 8.08 2.05 10.44
10/25/2020 8:15:00 PM 9.86 49.748 0.394 8.07 4.51 10.36
10/25/2020 8:30:00 PM 9.84 49.712 0.395 8.06 2.22 10.34
10/25/2020 8:45:00 PM 9.82 49.676 0.395 8.06 2.19 10.31
10/25/2020 9:00:00 PM 9.79 49.622 0.395 8.05 3.56 10.28
10/25/2020 9:15:00 PM 9.77 49.586 0.395 8.05 2.14 10.27
10/25/2020 9:30:00 PM 9.74 49.532 0.396 8.04 2.39 10.25
10/25/2020 9:45:00 PM 9.71 49.478 0.396 8.03 2.08 10.24
10/25/2020 10:00:00 PM 9.67 49.406 0.396 8.03 2.04 10.21
10/25/2020 10:15:00 PM 9.62 49.316 0.396 8.02 2.01 10.22
10/25/2020 10:30:00 PM 9.6 49.28 0.396 8.03 1.96 10.2
10/25/2020 10:45:00 PM 9.57 49.226 0.396 8.03 2.21 10.18
10/25/2020 11:00:00 PM 9.56 49.208 0.396 8.02 2.27 10.18
10/25/2020 11:15:00 PM 9.53 49.154 0.396 8.02 4.4 10.2
10/25/2020 11:30:00 PM 9.51 49.118 0.397 8 2.18 10.15
10/25/2020 11:45:00 PM 9.47 49.046 0.397 8.01 4.12 10.19
10/26/2020 12:00:00 AM 9.44 48.992 0.397 8 4.18 10.18
10/26/2020 12:15:00 AM 9.42 48.956 0.397 8.01 2.31 10.2
10/26/2020 12:30:00 AM 9.4 48.92 0.397 8 4.27 10.19
10/26/2020 12:45:00 AM 9.37 48.866 0.397 8 1.98 10.21
10/26/2020 1:00:00 AM 9.34 48.812 0.397 8 4.26 10.21
10/26/2020 1:15:00 AM 9.32 48.776 0.398 8 2.01 10.18
10/26/2020 1:30:00 AM 9.29 48.722 0.398 7.99 2.22 10.2
10/26/2020 1:45:00 AM 9.25 48.65 0.397 7.99 2.36 10.24
10/26/2020 2:00:00 AM 9.21 48.578 0.396 7.99 4.35 10.25
10/26/2020 2:15:00 AM 9.17 48.506 0.396 7.98 2.06 10.26
10/26/2020 2:30:00 AM 9.13 48.434 0.395 7.99 2.19 10.27
10/26/2020 2:45:00 AM 9.11 48.398 0.395 7.98 2.73 10.28
10/26/2020 3:00:00 AM 9.07 48.326 0.395 7.98 2.42 10.29
10/26/2020 3:15:00 AM 9.04 48.272 0.395 7.98 2.39 10.29
10/26/2020 3:30:00 AM 9 48.2 0.395 7.98 6.98 10.29
10/26/2020 3:45:00 AM 8.96 48.128 0.395 7.97 2.65 10.3
10/26/2020 4:00:00 AM 8.93 48.074 0.395 7.98 2.5 10.32
10/26/2020 4:15:00 AM 8.89 48.002 0.395 7.97 4.47 10.32
10/26/2020 4:30:00 AM 8.86 47.948 0.395 7.96 2.5 10.34
10/26/2020 4:45:00 AM 8.84 47.912 0.395 7.97 2.82 10.32
10/26/2020 5:00:00 AM 8.81 47.858 0.395 7.97 3.26 10.32
10/26/2020 5:15:00 AM 8.79 47.822 0.395 7.96 2.58 10.34
10/26/2020 5:30:00 AM 8.77 47.786 0.395 7.97 2.74 10.36
10/26/2020 5:45:00 AM 8.76 47.768 0.395 7.97 4.78 10.35
10/26/2020 6:00:00 AM 8.74 47.732 0.395 7.97 2.51 10.34
10/26/2020 6:15:00 AM 8.72 47.696 0.395 7.97 2.47 10.35
10/26/2020 6:30:00 AM 8.71 47.678 0.396 7.96 2.33 10.36
10/26/2020 6:45:00 AM 8.7 47.66 0.396 7.97 2.43 10.37
10/26/2020 7:00:00 AM 8.69 47.642 0.396 7.97 2.29 10.37
10/26/2020 7:15:00 AM 8.69 47.642 0.395 7.97 2.4 10.36
10/26/2020 7:30:00 AM 8.68 47.624 0.395 7.97 2.23 10.37
10/26/2020 7:45:00 AM 8.68 47.624 0.395 7.97 2.35 10.35
10/26/2020 8:00:00 AM 8.68 47.624 0.395 7.97 3.47 10.36
10/26/2020 8:15:00 AM 8.69 47.642 0.395 7.97 2.39 10.38
10/26/2020 8:30:00 AM 8.69 47.642 0.394 7.97 2.26 10.4
10/26/2020 8:45:00 AM 8.71 47.678 0.394 7.98 2.36 10.44
10/26/2020 9:00:00 AM 8.73 47.714 0.394 7.99 2.1 10.55
10/26/2020 9:15:00 AM 8.75 47.75 0.393 8 2.15 10.6
10/26/2020 9:30:00 AM 8.77 47.786 0.393 8 2.13 10.65
10/26/2020 9:45:00 AM 8.79 47.822 0.393 8.01 2.02 10.7
10/26/2020 10:00:00 AM 8.82 47.876 0.392 8.02 2.13 10.75
10/26/2020 10:15:00 AM 8.85 47.93 0.392 8.03 1.89 10.83
10/26/2020 10:30:00 AM 8.89 48.002 0.392 8.04 2.01 10.93
10/26/2020 10:45:00 AM 8.94 48.092 0.392 8.06 2 11.01
10/26/2020 11:00:00 AM 8.97 48.146 0.392 8.06 1.99 11.04
10/26/2020 11:15:00 AM 9.02 48.236 0.391 8.08 2.04 11.17
10/26/2020 11:30:00 AM 9.07 48.326 0.391 8.09 1.98 11.23
10/26/2020 11:45:00 AM 9.12 48.416 0.391 8.1 1.96 11.28
10/26/2020 12:00:00 PM 9.17 48.506 0.391 8.12 2.22 11.35
10/26/2020 12:15:00 PM 9.25 48.65 0.391 8.12 2.11 11.46
10/26/2020 12:30:00 PM 9.3 48.74 0.391 8.14 1.99 11.52
10/26/2020 12:45:00 PM 9.33 48.794 0.391 8.14 2.08 11.5
10/26/2020 1:00:00 PM 9.36 48.848 0.391 8.13 4.13 11.45
10/26/2020 1:15:00 PM 9.39 48.902 0.391 8.13 4.1 11.45
10/26/2020 1:30:00 PM 9.43 48.974 0.391 8.14 4.24 11.47
10/26/2020 1:45:00 PM 9.47 49.046 0.391 8.16 1.95 11.48
10/26/2020 2:00:00 PM 9.51 49.118 0.391 8.16 2.04 11.49
10/26/2020 2:15:00 PM 9.56 49.208 0.391 8.17 2.36 11.49
10/26/2020 2:30:00 PM 9.61 49.298 0.391 8.18 2.31 11.55
10/26/2020 2:45:00 PM 9.67 49.406 0.391 8.19 1.97 11.6
10/26/2020 3:00:00 PM 9.7 49.46 0.391 8.19 1.77 11.58
10/26/2020 3:15:00 PM 9.74 49.532 0.391 8.19 1.94 11.57
10/26/2020 3:30:00 PM 9.78 49.604 0.39 8.17 2.79 11.52
10/26/2020 3:45:00 PM 9.8 49.64 0.392 8.18 1.81 11.43
10/26/2020 4:00:00 PM 9.81 49.658 0.392 8.17 1.88 11.33
10/26/2020 4:15:00 PM 9.83 49.694 0.391 8.16 1.88 11.23
10/26/2020 4:30:00 PM 9.86 49.748 0.391 8.15 1.9 11.18
10/26/2020 4:45:00 PM 9.89 49.802 0.391 8.15 1.78 11.15
10/26/2020 5:00:00 PM 9.92 49.856 0.391 8.15 1.86 11.13
10/26/2020 5:15:00 PM 9.93 49.874 0.391 8.15 1.96 11.06
10/26/2020 5:30:00 PM 9.94 49.892 0.391 8.12 2.13 10.95
10/26/2020 5:45:00 PM 9.95 49.91 0.391 8.12 1.95 10.83
10/26/2020 6:00:00 PM 9.95 49.91 0.391 8.1 2.04 10.73
10/26/2020 6:15:00 PM 9.95 49.91 0.391 8.08 2.21 10.65
10/26/2020 6:30:00 PM 9.96 49.928 0.391 8.07 2.64 10.57
10/26/2020 6:45:00 PM 9.97 49.946 0.39 8.05 5.05 10.5
10/26/2020 7:00:00 PM 9.96 49.928 0.39 8.05 2.07 10.45
10/26/2020 7:15:00 PM 9.95 49.91 0.39 8.04 2.11 10.38
10/26/2020 7:30:00 PM 9.93 49.874 0.391 8.03 2.25 10.36
10/26/2020 7:45:00 PM 9.91 49.838 0.391 8.02 2.18 10.31
10/26/2020 8:00:00 PM 9.9 49.82 0.391 8.01 2.37 10.29
10/26/2020 8:15:00 PM 9.89 49.802 0.391 8 2.26 10.27
10/26/2020 8:30:00 PM 9.88 49.784 0.391 8 2.47 10.26
10/26/2020 8:45:00 PM 9.87 49.766 0.392 7.99 2.26 10.22
10/26/2020 9:00:00 PM 9.85 49.73 0.392 7.99 2.27 10.21
10/26/2020 9:15:00 PM 9.84 49.712 0.392 7.99 2.25 10.2
10/26/2020 9:30:00 PM 9.82 49.676 0.392 7.99 2.78 10.22
10/26/2020 9:45:00 PM 9.81 49.658 0.392 7.98 2.43 10.22
10/26/2020 10:00:00 PM 9.79 49.622 0.392 7.97 3.65 10.21
10/26/2020 10:15:00 PM 9.77 49.586 0.392 7.97 4 10.21
10/26/2020 10:30:00 PM 9.76 49.568 0.392 7.97 2.46 10.18
10/26/2020 10:45:00 PM 9.75 49.55 0.392 7.96 4.56 10.19
10/26/2020 11:00:00 PM 9.73 49.514 0.392 7.97 2.39 10.21
10/26/2020 11:15:00 PM 9.72 49.496 0.391 7.97 2.58 10.19
10/26/2020 11:30:00 PM 9.71 49.478 0.391 7.97 2.36 10.18
10/26/2020 11:45:00 PM 9.71 49.478 0.391 7.96 2.5 10.18
10/27/2020 12:00:00 AM 9.69 49.442 0.39 7.96 2.37 10.2
10/27/2020 12:15:00 AM 9.67 49.406 0.39 7.96 2.45 10.2
10/27/2020 12:30:00 AM 9.64 49.352 0.389 7.95 4.56 10.2
10/27/2020 12:45:00 AM 9.62 49.316 0.389 7.95 2.44 10.19
10/27/2020 1:00:00 AM 9.6 49.28 0.388 7.96 2.43 10.2
10/27/2020 1:15:00 AM 9.58 49.244 0.387 7.95 2.39 10.19
10/27/2020 1:30:00 AM 9.56 49.208 0.387 7.95 2.55 10.19
10/27/2020 1:45:00 AM 9.54 49.172 0.386 7.95 2.4 10.19
10/27/2020 2:00:00 AM 9.52 49.136 0.385 7.95 2.79 10.22
10/27/2020 2:15:00 AM 9.5 49.1 0.384 7.94 2.66 10.23
10/27/2020 2:30:00 AM 9.48 49.064 0.383 7.94 4.47 10.23
10/27/2020 2:45:00 AM 9.45 49.01 0.383 7.93 3.03 10.23
10/27/2020 3:00:00 AM 9.44 48.992 0.383 7.94 3.18 10.23
10/27/2020 3:15:00 AM 9.43 48.974 0.382 7.94 6.22 10.23
10/27/2020 3:30:00 AM 9.41 48.938 0.382 7.94 3.1 10.24
10/27/2020 3:45:00 AM 9.39 48.902 0.381 7.93 5.12 10.25
10/27/2020 4:00:00 AM 9.37 48.866 0.381 7.93 4.65 10.25
10/27/2020 4:15:00 AM 9.35 48.83 0.381 7.93 2.8 10.25
10/27/2020 4:30:00 AM 9.34 48.812 0.381 7.93 5.23 10.27
10/27/2020 4:45:00 AM 9.32 48.776 0.381 7.94 2.91 10.27
10/27/2020 5:00:00 AM 9.3 48.74 0.381 7.94 2.66 10.28
10/27/2020 5:15:00 AM 9.27 48.686 0.381 7.93 2.93 10.28
10/27/2020 5:30:00 AM 9.25 48.65 0.381 7.94 2.97 10.28
10/27/2020 5:45:00 AM 9.23 48.614 0.381 7.93 2.74 10.28
10/27/2020 6:00:00 AM 9.21 48.578 0.381 7.93 3.59 10.3
10/27/2020 6:15:00 AM 9.18 48.524 0.381 7.93 3.06 10.31
10/27/2020 6:30:00 AM 9.17 48.506 0.381 7.93 3.07 10.32
10/27/2020 6:45:00 AM 9.15 48.47 0.381 7.93 5.45 10.3
10/27/2020 7:00:00 AM 9.13 48.434 0.381 7.93 3.33 10.34
10/27/2020 7:15:00 AM 9.11 48.398 0.381 7.93 3.13 10.33
10/27/2020 7:30:00 AM 9.1 48.38 0.38 7.93 3.05 10.34
10/27/2020 7:45:00 AM 9.08 48.344 0.38 7.93 2.65 10.34
10/27/2020 8:00:00 AM 9.07 48.326 0.38 7.93 3.81 10.34
10/27/2020 8:15:00 AM 9.06 48.308 0.379 7.94 2.78 10.43
10/27/2020 8:30:00 AM 9.05 48.29 0.379 7.95 2.81 10.49
10/27/2020 8:45:00 AM 9.03 48.254 0.379 7.95 2.47 10.57
10/27/2020 9:00:00 AM 9.05 48.29 0.378 7.97 2.54 10.68
10/27/2020 9:15:00 AM 9.07 48.326 0.378 7.98 2.74 10.81
10/27/2020 9:30:00 AM 9.13 48.434 0.377 8.01 2.67 10.95
10/27/2020 9:45:00 AM 9.14 48.452 0.377 8.01 2.54 10.98
10/27/2020 10:00:00 AM 9.14 48.452 0.376 8 3.62 11.01
10/27/2020 10:15:00 AM 9.17 48.506 0.376 8.03 2.83 11.11
10/27/2020 10:30:00 AM 9.21 48.578 0.375 8.05 2.57 11.22
10/27/2020 10:45:00 AM 9.28 48.704 0.375 8.07 2.47 11.33
10/27/2020 11:00:00 AM 9.36 48.848 0.374 8.08 4.78 11.44
10/27/2020 11:15:00 AM 9.42 48.956 0.373 8.09 4.74 11.5
10/27/2020 11:30:00 AM 9.49 49.082 0.372 8.12 2.57 11.58
10/27/2020 11:45:00 AM 9.55 49.19 0.371 8.13 2.36 11.64
10/27/2020 12:00:00 PM 9.57 49.226 0.37 8.13 3.14 11.65
10/27/2020 12:15:00 PM 9.59 49.262 0.37 8.13 2.31 11.63
10/27/2020 12:30:00 PM 9.63 49.334 0.369 8.14 2.62 11.64
10/27/2020 12:45:00 PM 9.65 49.37 0.368 8.14 2.47 11.65
10/27/2020 1:00:00 PM 9.68 49.424 0.367 8.14 2.49 11.66
10/27/2020 1:15:00 PM 9.74 49.532 0.367 8.16 2.38 11.7
10/27/2020 1:30:00 PM 9.77 49.586 0.366 8.17 2.28 11.76
10/27/2020 1:45:00 PM 9.8 49.64 0.365 8.17 2.61 11.78
10/27/2020 2:00:00 PM 9.81 49.658 0.364 8.17 2.29 11.75
10/27/2020 2:15:00 PM 9.86 49.748 0.364 8.18 2.57 11.78
10/27/2020 2:30:00 PM 9.89 49.802 0.363 8.19 2.24 11.8
10/27/2020 2:45:00 PM 9.9 49.82 0.363 8.18 2.24 11.8
10/27/2020 3:00:00 PM 9.91 49.838 0.362 8.18 2.58 11.73
10/27/2020 3:15:00 PM 9.9 49.82 0.362 8.17 2.26 11.64
10/27/2020 3:30:00 PM 9.89 49.802 0.362 8.16 2.31 11.54
10/27/2020 3:45:00 PM 9.88 49.784 0.362 8.15 2.53 11.44
10/27/2020 4:00:00 PM 9.87 49.766 0.362 8.14 2.3 11.38
10/27/2020 4:15:00 PM 9.86 49.748 0.362 8.13 2.47 11.28
10/27/2020 4:30:00 PM 9.84 49.712 0.362 8.12 2.41 11.18
10/27/2020 4:45:00 PM 9.82 49.676 0.362 8.1 2.58 11.09
10/27/2020 5:00:00 PM 9.79 49.622 0.362 8.09 2.6 11
10/27/2020 5:15:00 PM 9.78 49.604 0.362 8.08 2.67 10.94
10/27/2020 5:30:00 PM 9.75 49.55 0.362 8.07 2.36 10.88
10/27/2020 5:45:00 PM 9.73 49.514 0.362 8.06 2.51 10.8
10/27/2020 6:00:00 PM 9.71 49.478 0.362 8.05 2.56 10.75
10/27/2020 6:15:00 PM 9.68 49.424 0.362 8.03 2.85 10.69
10/27/2020 6:30:00 PM 9.66 49.388 0.362 8.03 2.84 10.65
10/27/2020 6:45:00 PM 9.64 49.352 0.361 8.02 2.79 10.61
10/27/2020 7:00:00 PM 9.61 49.298 0.361 8.01 2.89 10.59
10/27/2020 7:15:00 PM 9.58 49.244 0.361 8 2.89 10.57
10/27/2020 7:30:00 PM 9.54 49.172 0.361 8 2.97 10.55
10/27/2020 7:45:00 PM 9.52 49.136 0.36 7.99 4.96 10.52
10/27/2020 8:00:00 PM 9.49 49.082 0.361 7.98 3.06 10.52
10/27/2020 8:15:00 PM 9.46 49.028 0.36 7.98 3.3 10.5
10/27/2020 8:30:00 PM 9.44 48.992 0.36 7.98 2.99 10.5
10/27/2020 8:45:00 PM 9.41 48.938 0.36 7.96 3.38 10.49
10/27/2020 9:00:00 PM 9.39 48.902 0.361 7.97 3.51 10.47
10/27/2020 9:15:00 PM 9.37 48.866 0.361 7.96 3.05 10.46
10/27/2020 9:30:00 PM 9.35 48.83 0.361 7.96 3.13 10.45
10/27/2020 9:45:00 PM 9.33 48.794 0.361 7.96 5.67 10.45
10/27/2020 10:00:00 PM 9.31 48.758 0.361 7.95 5.17 10.44
10/27/2020 10:15:00 PM 9.29 48.722 0.361 7.95 3.47 10.44
10/27/2020 10:30:00 PM 9.28 48.704 0.361 7.95 3.48 10.43
10/27/2020 10:45:00 PM 9.26 48.668 0.362 7.95 3.03 10.43
10/27/2020 11:00:00 PM 9.25 48.65 0.362 7.94 5.49 10.41
10/27/2020 11:15:00 PM 9.24 48.632 0.362 7.94 3.39 10.42
10/27/2020 11:30:00 PM 9.22 48.596 0.362 7.94 3.04 10.42
10/27/2020 11:45:00 PM 9.21 48.578 0.362 7.93 5.37 10.41
10/28/2020 12:00:00 AM 9.2 48.56 0.362 7.94 3.12 10.4
10/28/2020 12:15:00 AM 9.19 48.542 0.362 7.94 3.23 10.4
10/28/2020 12:30:00 AM 9.18 48.524 0.362 7.93 2.99 10.39
10/28/2020 12:45:00 AM 9.17 48.506 0.362 7.93 5.41 10.4
10/28/2020 1:00:00 AM 9.16 48.488 0.362 7.93 3.28 10.4
10/28/2020 1:15:00 AM 9.15 48.47 0.362 7.92 3.33 10.4
10/28/2020 1:30:00 AM 9.14 48.452 0.362 7.93 3.25 10.4
10/28/2020 1:45:00 AM 9.13 48.434 0.362 7.93 3.64 10.39
10/28/2020 2:00:00 AM 9.12 48.416 0.362 7.92 8.21 10.38
10/28/2020 2:15:00 AM 9.11 48.398 0.363 7.93 3.7 10.4
10/28/2020 2:30:00 AM 9.09 48.362 0.363 7.92 3.03 10.39
10/28/2020 2:45:00 AM 9.09 48.362 0.363 7.92 5.69 10.39
10/28/2020 3:00:00 AM 9.08 48.344 0.363 7.92 3.21 10.39
10/28/2020 3:15:00 AM 9.07 48.326 0.363 7.92 4.29 10.4
10/28/2020 3:30:00 AM 9.06 48.308 0.363 7.91 6.8 10.39
10/28/2020 3:45:00 AM 9.05 48.29 0.363 7.91 5.46 10.4
10/28/2020 4:00:00 AM 9.04 48.272 0.363 7.92 3.58 10.41
10/28/2020 4:15:00 AM 9.03 48.254 0.363 7.91 3.3 10.4
10/28/2020 4:30:00 AM 9.03 48.254 0.363 7.91 3.43 10.41
10/28/2020 4:45:00 AM 9.02 48.236 0.363 7.92 3.54 10.41
10/28/2020 5:00:00 AM 9.01 48.218 0.363 7.91 3.54 10.4
10/28/2020 5:15:00 AM 9 48.2 0.363 7.91 3.71 10.4
10/28/2020 5:30:00 AM 8.99 48.182 0.363 7.91 6.63 10.4
10/28/2020 5:45:00 AM 8.99 48.182 0.363 7.91 6.24 10.4
10/28/2020 6:00:00 AM 8.98 48.164 0.363 7.91 3.62 10.4
10/28/2020 6:15:00 AM 8.97 48.146 0.363 7.91 3.3 10.4
10/28/2020 6:30:00 AM 8.97 48.146 0.363 7.91 3.52 10.41
10/28/2020 6:45:00 AM 8.96 48.128 0.363 7.91 3.53 10.4
10/28/2020 7:00:00 AM 8.95 48.11 0.363 7.91 3.59 10.42
10/28/2020 7:15:00 AM 8.95 48.11 0.363 7.91 3.59 10.41
10/28/2020 7:30:00 AM 8.94 48.092 0.363 7.89 3.35 10.41
10/28/2020 7:45:00 AM 8.94 48.092 0.363 7.91 3.75 10.41
10/28/2020 8:00:00 AM 8.93 48.074 0.363 7.91 3.25 10.41
10/28/2020 8:15:00 AM 8.93 48.074 0.363 7.9 3.29 10.43
10/28/2020 8:30:00 AM 8.93 48.074 0.363 7.92 3.04 10.44
10/28/2020 8:45:00 AM 8.93 48.074 0.363 7.92 3.13 10.49
10/28/2020 9:00:00 AM 8.94 48.092 0.363 7.92 3.12 10.54
10/28/2020 9:15:00 AM 8.95 48.11 0.363 7.93 2.84 10.61
10/28/2020 9:30:00 AM 8.97 48.146 0.363 7.94 2.92 10.68
10/28/2020 9:45:00 AM 8.99 48.182 0.363 7.95 2.82 10.74
10/28/2020 10:00:00 AM 9 48.2 0.363 7.95 4.9 10.77
10/28/2020 10:15:00 AM 9.03 48.254 0.363 7.96 2.75 10.84
10/28/2020 10:30:00 AM 9.06 48.308 0.363 7.98 2.74 10.95
10/28/2020 10:45:00 AM 9.09 48.362 0.363 8 2.73 11.01
10/28/2020 11:00:00 AM 9.13 48.434 0.363 8.01 2.8 11.08
10/28/2020 11:15:00 AM 9.17 48.506 0.363 8.02 2.71 11.15
10/28/2020 11:30:00 AM 9.22 48.596 0.363 8.03 4.98 11.24
10/28/2020 11:45:00 AM 9.29 48.722 0.363 8.06 3.3 11.33
10/28/2020 12:00:00 PM 9.34 48.812 0.363 8.07 2.58 11.38
10/28/2020 12:15:00 PM 9.39 48.902 0.363 8.08 2.58 11.43
10/28/2020 12:30:00 PM 9.46 49.028 0.363 8.1 2.5 11.5
10/28/2020 12:45:00 PM 9.56 49.208 0.363 8.12 2.62 11.6
10/28/2020 1:00:00 PM 9.63 49.334 0.363 8.12 2.48 11.65
10/28/2020 1:15:00 PM 9.67 49.406 0.363 8.13 2.58 11.64
10/28/2020 1:30:00 PM 9.68 49.424 0.363 8.12 2.57 11.59
10/28/2020 1:45:00 PM 9.74 49.532 0.362 8.13 2.66 11.63
10/28/2020 2:00:00 PM 9.77 49.586 0.362 8.14 2.54 11.66
10/28/2020 2:15:00 PM 9.78 49.604 0.362 8.14 2.72 11.59
10/28/2020 2:30:00 PM 9.78 49.604 0.362 8.13 2.58 11.52
10/28/2020 2:45:00 PM 9.82 49.676 0.362 8.14 2.48 11.55
10/28/2020 3:00:00 PM 9.88 49.784 0.361 8.15 2.49 11.63
10/28/2020 3:15:00 PM 9.9 49.82 0.361 8.15 2.51 11.61
10/28/2020 3:30:00 PM 9.93 49.874 0.361 8.15 2.54 11.57
10/28/2020 3:45:00 PM 9.94 49.892 0.361 8.15 2.83 11.57
10/28/2020 4:00:00 PM 9.95 49.91 0.361 8.15 2.81 11.58
10/28/2020 4:15:00 PM 9.97 49.946 0.361 8.15 2.81 11.56
10/28/2020 4:30:00 PM 9.98 49.964 0.36 8.16 2.63 11.55
10/28/2020 4:45:00 PM 9.96 49.928 0.36 8.15 2.78 11.49
10/28/2020 5:00:00 PM 9.92 49.856 0.36 8.14 2.81 11.41
10/28/2020 5:15:00 PM 9.87 49.766 0.36 8.13 2.61 11.32
10/28/2020 5:30:00 PM 9.83 49.694 0.361 8.11 2.83 11.21
10/28/2020 5:45:00 PM 9.79 49.622 0.361 8.08 2.97 11.11
10/28/2020 6:00:00 PM 9.74 49.532 0.361 8.08 2.72 11.01
10/28/2020 6:15:00 PM 9.67 49.406 0.361 8.06 3.04 10.93
10/28/2020 6:30:00 PM 9.59 49.262 0.361 8.03 3 10.83
10/28/2020 6:45:00 PM 9.51 49.118 0.361 8.02 3.08 10.76
10/28/2020 7:00:00 PM 9.44 48.992 0.361 8.01 3.27 10.69
10/28/2020 7:15:00 PM 9.38 48.884 0.361 8 3.48 10.65
10/28/2020 7:30:00 PM 9.32 48.776 0.362 7.99 3.36 10.61
10/28/2020 7:45:00 PM 9.26 48.668 0.362 7.98 3.61 10.59
10/28/2020 8:00:00 PM 9.21 48.578 0.362 7.97 5.84 10.57
10/28/2020 8:15:00 PM 9.14 48.452 0.361 7.96 6.06 10.56
10/28/2020 8:30:00 PM 9.08 48.344 0.362 7.96 3.39 10.56
10/28/2020 8:45:00 PM 9.02 48.236 0.362 7.95 3.3 10.56
10/28/2020 9:00:00 PM 8.95 48.11 0.362 7.95 3.17 10.56
10/28/2020 9:15:00 PM 8.9 48.02 0.362 7.94 5.7 10.56
10/28/2020 9:30:00 PM 8.84 47.912 0.362 7.94 4.64 10.56
10/28/2020 9:45:00 PM 8.78 47.804 0.362 7.93 3.48 10.56
10/28/2020 10:00:00 PM 8.73 47.714 0.362 7.93 3.33 10.56
10/28/2020 10:15:00 PM 8.67 47.606 0.362 7.93 5.92 10.55
10/28/2020 10:30:00 PM 8.62 47.516 0.362 7.92 3.12 10.56
10/28/2020 10:45:00 PM 8.57 47.426 0.362 7.92 3.69 10.56
10/28/2020 11:00:00 PM 8.52 47.336 0.362 7.92 5.69 10.55
10/28/2020 11:15:00 PM 8.46 47.228 0.362 7.91 3.39 10.57
10/28/2020 11:30:00 PM 8.41 47.138 0.362 7.91 3.27 10.57
10/28/2020 11:45:00 PM 8.36 47.048 0.362 7.91 3.43 10.58
10/29/2020 12:00:00 AM 8.31 46.958 0.362 7.91 3.21 10.59
10/29/2020 12:15:00 AM 8.27 46.886 0.362 7.91 3.79 10.59
10/29/2020 12:30:00 AM 8.23 46.814 0.362 7.91 3.48 10.6
10/29/2020 12:45:00 AM 8.2 46.76 0.362 7.91 3.63 10.61
10/29/2020 1:00:00 AM 8.18 46.724 0.362 7.9 3.33 10.62
10/29/2020 1:15:00 AM 8.16 46.688 0.361 7.91 3.24 10.62
10/29/2020 1:30:00 AM 8.14 46.652 0.361 7.91 3.39 10.62
10/29/2020 1:45:00 AM 8.12 46.616 0.361 7.91 3.21 10.63
10/29/2020 2:00:00 AM 8.1 46.58 0.361 7.91 3.31 10.63
10/29/2020 2:15:00 AM 8.08 46.544 0.361 7.91 3.19 10.64
10/29/2020 2:30:00 AM 8.06 46.508 0.361 7.91 3.24 10.65
10/29/2020 2:45:00 AM 8.03 46.454 0.361 7.91 5.65 10.65
10/29/2020 3:00:00 AM 8.01 46.418 0.361 7.91 3.49 10.65
10/29/2020 3:15:00 AM 7.99 46.382 0.361 7.9 3.67 10.66
10/29/2020 3:30:00 AM 7.97 46.346 0.361 7.9 3.37 10.66
10/29/2020 3:45:00 AM 7.95 46.31 0.361 7.9 3.51 10.67
10/29/2020 4:00:00 AM 7.94 46.292 0.361 7.9 3.55 10.67
10/29/2020 4:15:00 AM 7.92 46.256 0.361 7.91 3.47 10.67
10/29/2020 4:30:00 AM 7.9 46.22 0.36 7.9 4.13 10.68
10/29/2020 4:45:00 AM 7.88 46.184 0.36 7.9 3.91 10.68
10/29/2020 5:00:00 AM 7.86 46.148 0.36 7.9 4.02 10.69
10/29/2020 5:15:00 AM 7.84 46.112 0.36 7.9 4.3 10.69
10/29/2020 5:30:00 AM 7.83 46.094 0.36 7.9 3.51 10.7
10/29/2020 5:45:00 AM 7.81 46.058 0.36 7.89 3.73 10.7
10/29/2020 6:00:00 AM 7.79 46.022 0.36 7.9 3.52 10.7
10/29/2020 6:15:00 AM 7.78 46.004 0.36 7.9 5.63 10.71
10/29/2020 6:30:00 AM 7.77 45.986 0.36 7.9 5.86 10.71
10/29/2020 6:45:00 AM 7.76 45.968 0.36 7.9 3.53 10.71
10/29/2020 7:00:00 AM 7.75 45.95 0.36 7.9 3.47 10.72
10/29/2020 7:15:00 AM 7.75 45.95 0.36 7.9 6.45 10.71
10/29/2020 7:30:00 AM 7.74 45.932 0.36 7.9 3.32 10.72
10/29/2020 7:45:00 AM 7.74 45.932 0.36 7.9 5.68 10.73
10/29/2020 8:00:00 AM 7.73 45.914 0.36 7.9 3.16 10.75
10/29/2020 8:15:00 AM 7.73 45.914 0.36 7.91 3.04 10.77
10/29/2020 8:30:00 AM 7.72 45.896 0.36 7.91 3.03 10.79
10/29/2020 8:45:00 AM 7.72 45.896 0.36 7.91 2.97 10.82
10/29/2020 9:00:00 AM 7.72 45.896 0.36 7.92 2.96 10.86
10/29/2020 9:15:00 AM 7.71 45.878 0.36 7.91 2.92 10.9
10/29/2020 9:30:00 AM 7.72 45.896 0.359 7.93 2.73 10.96
10/29/2020 9:45:00 AM 7.74 45.932 0.359 7.94 4.89 11.03
10/29/2020 10:00:00 AM 7.76 45.968 0.359 7.95 2.61 11.1
10/29/2020 10:15:00 AM 7.78 46.004 0.359 7.97 2.85 11.17
10/29/2020 10:30:00 AM 7.8 46.04 0.359 7.97 2.58 11.22
10/29/2020 10:45:00 AM 7.82 46.076 0.358 7.98 5.04 11.28
10/29/2020 11:00:00 AM 7.85 46.13 0.358 7.99 2.6 11.36
10/29/2020 11:15:00 AM 7.88 46.184 0.358 8.01 3.96 11.44
10/29/2020 11:30:00 AM 7.91 46.238 0.358 8.02 2.6 11.48
10/29/2020 11:45:00 AM 7.94 46.292 0.357 8.03 2.43 11.52
10/29/2020 12:00:00 PM 7.96 46.328 0.357 8.03 2.34 11.55
10/29/2020 12:15:00 PM 7.98 46.364 0.357 8.04 4.69 11.56
10/29/2020 12:30:00 PM 8.01 46.418 0.356 8.05 2.34 11.6
10/29/2020 12:45:00 PM 8.05 46.49 0.356 8.06 4.5 11.66
10/29/2020 1:00:00 PM 8.07 46.526 0.356 8.07 2.33 11.69
10/29/2020 1:15:00 PM 8.08 46.544 0.355 8.07 2.34 11.67
10/29/2020 1:30:00 PM 8.11 46.598 0.355 8.08 2.42 11.69
10/29/2020 1:45:00 PM 8.15 46.67 0.354 8.09 2.44 11.73
10/29/2020 2:00:00 PM 8.17 46.706 0.354 8.1 2.34 11.78
10/29/2020 2:15:00 PM 8.17 46.706 0.354 8.09 2.31 11.71
10/29/2020 2:30:00 PM 8.16 46.688 0.354 8.07 4.67 11.64
10/29/2020 2:45:00 PM 8.16 46.688 0.353 8.08 2.3 11.62
10/29/2020 3:00:00 PM 8.16 46.688 0.353 8.07 2.39 11.58
10/29/2020 3:15:00 PM 8.14 46.652 0.352 8.07 2.34 11.54
10/29/2020 3:30:00 PM 8.14 46.652 0.351 8.07 2.46 11.52
10/29/2020 3:45:00 PM 8.14 46.652 0.351 8.07 2.47 11.49
10/29/2020 4:00:00 PM 8.13 46.634 0.351 8.07 2.39 11.45
10/29/2020 4:15:00 PM 8.12 46.616 0.351 8.05 2.71 11.41
10/29/2020 4:30:00 PM 8.11 46.598 0.35 8.07 2.84 11.39
10/29/2020 4:45:00 PM 8.1 46.58 0.35 8.05 2.51 11.34
10/29/2020 5:00:00 PM 8.09 46.562 0.35 8.04 2.68 11.29
10/29/2020 5:15:00 PM 8.08 46.544 0.35 8.03 2.96 11.23
10/29/2020 5:30:00 PM 8.06 46.508 0.35 8.02 2.88 11.18
10/29/2020 5:45:00 PM 8.03 46.454 0.35 8.01 3.16 11.13
10/29/2020 6:00:00 PM 8.01 46.418 0.351 8.01 3.09 11.09
10/29/2020 6:15:00 PM 7.99 46.382 0.351 8 3.73 11.04
10/29/2020 6:30:00 PM 7.98 46.364 0.352 7.99 3.7 11
10/29/2020 6:45:00 PM 7.96 46.328 0.352 7.98 6.36 10.96
10/29/2020 7:00:00 PM 7.95 46.31 0.352 7.98 6.28 10.94
10/29/2020 7:15:00 PM 7.93 46.274 0.353 7.97 6.74 10.91
10/29/2020 7:30:00 PM 7.92 46.256 0.353 7.96 4.08 10.89
10/29/2020 7:45:00 PM 7.9 46.22 0.353 7.96 3.83 10.88
10/29/2020 8:00:00 PM 7.89 46.202 0.354 7.96 4.17 10.86
10/29/2020 8:15:00 PM 7.88 46.184 0.354 7.94 4.02 10.85
10/29/2020 8:30:00 PM 7.86 46.148 0.354 7.95 3.93 10.84
10/29/2020 8:45:00 PM 7.85 46.13 0.355 7.94 3.97 10.83
10/29/2020 9:00:00 PM 7.83 46.094 0.355 7.94 5.17 10.82
10/29/2020 9:15:00 PM 7.81 46.058 0.355 7.94 6.4 10.82
10/29/2020 9:30:00 PM 7.79 46.022 0.355 7.93 4.07 10.81
10/29/2020 9:45:00 PM 7.78 46.004 0.355 7.92 4.35 10.8
10/29/2020 10:00:00 PM 7.76 45.968 0.355 7.92 6.07 10.8
10/29/2020 10:15:00 PM 7.75 45.95 0.355 7.92 6.86 10.8
10/29/2020 10:30:00 PM 7.73 45.914 0.355 7.91 4.83 10.8
10/29/2020 10:45:00 PM 7.71 45.878 0.355 7.91 5.1 10.79
10/29/2020 11:00:00 PM 7.7 45.86 0.355 7.92 7.14 10.78
10/29/2020 11:15:00 PM 7.69 45.842 0.355 7.91 5.81 10.79
10/29/2020 11:30:00 PM 7.68 45.824 0.354 7.91 8.58 10.78
10/29/2020 11:45:00 PM 7.67 45.806 0.354 7.9 8.4 10.78
10/30/2020 12:00:00 AM 7.66 45.788 0.354 7.9 6.65 10.79
10/30/2020 12:15:00 AM 7.66 45.788 0.353 7.9 7.37 10.79
10/30/2020 12:30:00 AM 7.65 45.77 0.353 7.9 7.62 10.79
10/30/2020 12:45:00 AM 7.64 45.752 0.352 7.89 12.21 10.79
10/30/2020 1:00:00 AM 7.63 45.734 0.352 7.89 10.51 10.79
10/30/2020 1:15:00 AM 7.62 45.716 0.351 7.89 8.14 10.79
10/30/2020 1:30:00 AM 7.61 45.698 0.35 7.88 8.81 10.79
10/30/2020 1:45:00 AM 7.6 45.68 0.349 7.89 11.4 10.79
10/30/2020 2:00:00 AM 7.58 45.644 0.348 7.89 13.78 10.8
10/30/2020 2:15:00 AM 7.56 45.608 0.348 7.88 9.53 10.79
10/30/2020 2:30:00 AM 7.55 45.59 0.347 7.88 9.21 10.8
10/30/2020 2:45:00 AM 7.53 45.554 0.346 7.87 11.52 10.8
10/30/2020 3:00:00 AM 7.52 45.536 0.346 7.85 15.44 10.8
10/30/2020 3:15:00 AM 7.5 45.5 0.345 7.85 17.8 10.8
10/30/2020 3:30:00 AM 7.49 45.482 0.344 7.85 17.66 10.79
10/30/2020 3:45:00 AM 7.47 45.446 0.343 7.84 24.59 10.79
10/30/2020 4:00:00 AM 7.45 45.41 0.342 7.84 24.31 10.8
10/30/2020 4:15:00 AM 7.42 45.356 0.341 7.82 21.08 10.8
10/30/2020 4:30:00 AM 7.4 45.32 0.34 7.83 19.4 10.81
10/30/2020 4:45:00 AM 7.37 45.266 0.339 7.84 15.21 10.81
10/30/2020 5:00:00 AM 7.33 45.194 0.338 7.83 17.76 10.82
10/30/2020 5:15:00 AM 7.31 45.158 0.337 7.84 16.76 10.84
10/30/2020 5:30:00 AM 7.29 45.122 0.337 7.84 29.22 10.82
10/30/2020 5:45:00 AM 7.27 45.086 0.336 7.84 15.88 10.85
10/30/2020 6:00:00 AM 7.25 45.05 0.336 7.84 16.2 10.85
10/30/2020 6:15:00 AM 7.23 45.014 0.335 7.83 16.33 10.85
10/30/2020 6:30:00 AM 7.21 44.978 0.335 7.84 12.45 10.84
10/30/2020 6:45:00 AM 7.18 44.924 0.334 7.84 12.68 10.85
10/30/2020 7:00:00 AM 7.17 44.906 0.334 7.83 13.52 10.87
10/30/2020 7:15:00 AM 7.15 44.87 0.332 7.82 12.27 10.9
10/30/2020 7:30:00 AM 7.13 44.834 0.331 7.83 14.03 10.89
10/30/2020 7:45:00 AM 7.11 44.798 0.33 7.83 12.92 10.9
10/30/2020 8:00:00 AM 7.09 44.762 0.329 7.82 12.04 10.89
10/30/2020 8:15:00 AM 7.08 44.744 0.328 7.83 11.05 10.93
10/30/2020 8:30:00 AM 7.07 44.726 0.327 7.83 11.43 10.9
10/30/2020 8:45:00 AM 7.05 44.69 0.327 7.83 10.42 10.94
10/30/2020 9:00:00 AM 7.04 44.672 0.327 7.83 13.9 10.98
10/30/2020 9:15:00 AM 7.02 44.636 0.327 7.83 10.48 10.99
10/30/2020 9:30:00 AM 7.01 44.618 0.327 7.83 10.97 11
10/30/2020 9:45:00 AM 7 44.6 0.327 7.82 12.3 11.03
10/30/2020 10:00:00 AM 6.98 44.564 0.327 7.83 12.73 11.07
10/30/2020 10:15:00 AM 6.97 44.546 0.328 7.83 8.46 11.1
10/30/2020 10:30:00 AM 6.96 44.528 0.328 7.84 8.65 11.17
10/30/2020 10:45:00 AM 6.97 44.546 0.328 7.84 7.55 11.14
10/30/2020 11:00:00 AM 6.97 44.546 0.328 7.85 6.84 11.2
10/30/2020 11:15:00 AM 6.98 44.564 0.327 7.86 12.01 11.25
10/30/2020 11:30:00 AM 6.99 44.582 0.327 7.86 19.89 11.32
10/30/2020 11:45:00 AM 7.03 44.654 0.327 7.88 7.56 11.39
10/30/2020 12:00:00 PM 7.04 44.672 0.326 7.89 7.61 11.4
10/30/2020 12:15:00 PM 7.05 44.69 0.326 7.89 7.04 11.39
10/30/2020 12:30:00 PM 7.05 44.69 0.326 7.89 9.14 11.48
10/30/2020 12:45:00 PM 7.07 44.726 0.326 7.9 6.37 11.5
10/30/2020 1:00:00 PM 7.08 44.744 0.325 7.9 5.9 11.49
10/30/2020 1:15:00 PM 7.08 44.744 0.325 7.91 7.29 11.51
10/30/2020 1:30:00 PM 7.09 44.762 0.325 7.91 6.55 11.53
10/30/2020 1:45:00 PM 7.07 44.726 0.325 7.91 7.98 11.53
10/30/2020 2:00:00 PM 7.07 44.726 0.325 7.91 5.5 11.5
10/30/2020 2:15:00 PM 7.06 44.708 0.325 7.9 6.14 11.52
10/30/2020 2:30:00 PM 7.08 44.744 0.325 7.92 5.28 11.52
10/30/2020 2:45:00 PM 7.12 44.816 0.324 7.92 5.57 11.56
10/30/2020 3:00:00 PM 7.1 44.78 0.324 7.9 16.24 11.49
10/30/2020 3:15:00 PM 7.11 44.798 0.324 7.92 29.17 11.57
10/30/2020 3:30:00 PM 7.1 44.78 0.324 7.93 6.18 11.67
10/30/2020 3:45:00 PM 7.14 44.852 0.324 7.95 5.36 11.67
10/30/2020 4:00:00 PM 7.14 44.852 0.324 7.94 6.21 11.7
10/30/2020 4:15:00 PM 7.07 44.726 0.324 7.92 7.19 11.63
10/30/2020 4:30:00 PM 7.03 44.654 0.324 7.93 7.89 11.67
10/30/2020 4:45:00 PM 7.01 44.618 0.324 7.92 5.16 11.64
10/30/2020 5:00:00 PM 6.95 44.51 0.323 7.92 6.35 11.61
10/30/2020 5:15:00 PM 6.89 44.402 0.323 7.9 7.92 11.61
10/30/2020 5:30:00 PM 6.82 44.276 0.323 7.89 6 11.56
10/30/2020 5:45:00 PM 6.74 44.132 0.324 7.87 5.61 11.5
10/30/2020 6:00:00 PM 6.67 44.006 0.323 7.88 5.88 11.48
10/30/2020 6:15:00 PM 6.61 43.898 0.323 7.87 6.67 11.41
10/30/2020 6:30:00 PM 6.54 43.772 0.323 7.86 5.42 11.45
10/30/2020 6:45:00 PM 6.49 43.682 0.323 7.86 6.98 11.39
10/30/2020 7:00:00 PM 6.43 43.574 0.323 7.85 6.06 11.44
10/30/2020 7:15:00 PM 6.38 43.484 0.323 7.84 8.72 11.37
10/30/2020 7:30:00 PM 6.33 43.394 0.323 7.84 9.77 11.44
10/30/2020 7:45:00 PM 6.26 43.268 0.323 7.84 6.35 11.44
10/30/2020 8:00:00 PM 6.19 43.142 0.323 7.84 9.41 11.44
10/30/2020 8:15:00 PM 6.13 43.034 0.323 7.83 9.44 11.45
10/30/2020 8:30:00 PM 6.07 42.926 0.323 7.82 11.68 11.46
10/30/2020 8:45:00 PM 6.01 42.818 0.323 7.81 8.98 11.46
10/30/2020 9:00:00 PM 5.96 42.728 0.323 7.83 37.14 11.46
10/30/2020 9:15:00 PM 5.9 42.62 0.323 7.82 9.43 11.48
10/30/2020 9:30:00 PM 5.85 42.53 0.323 7.82 9.59 11.5
10/30/2020 9:45:00 PM 5.8 42.44 0.323 7.81 6.53 11.51
10/30/2020 10:00:00 PM 5.75 42.35 0.323 7.82 8.49 11.52
10/30/2020 10:15:00 PM 5.69 42.242 0.323 7.82 8.14 11.52
10/30/2020 10:30:00 PM 5.63 42.134 0.323 7.81 7.09 11.55
10/30/2020 10:45:00 PM 5.57 42.026 0.323 7.81 8.64 11.57
10/30/2020 11:00:00 PM 5.51 41.918 0.323 7.81 5.58 11.58
10/30/2020 11:15:00 PM 5.45 41.81 0.323 7.8 10.77 11.61
10/30/2020 11:30:00 PM 5.4 41.72 0.323 7.8 6.21 11.62
10/30/2020 11:45:00 PM 5.34 41.612 0.323 7.81 9.12 11.64
10/31/2020 12:00:00 AM 5.29 41.522 0.323 7.8 6.21 11.64
10/31/2020 12:15:00 AM 5.24 41.432 0.323 7.81 5.72 11.66
10/31/2020 12:30:00 AM 5.19 41.342 0.323 7.8 6.31 11.69
10/31/2020 12:45:00 AM 5.14 41.252 0.323 7.81 9.25 11.7
10/31/2020 1:00:00 AM 5.08 41.144 0.323 7.79 5.89 11.72
10/31/2020 1:15:00 AM 5.04 41.072 0.322 7.8 5.79 11.74
10/31/2020 1:30:00 AM 4.98 40.964 0.322 7.79 5.7 11.75
10/31/2020 1:45:00 AM 4.94 40.892 0.322 7.8 8.89 11.76
10/31/2020 2:00:00 AM 4.89 40.802 0.321 7.79 5.85 11.78
10/31/2020 2:15:00 AM 4.84 40.712 0.321 7.8 5.23 11.79
10/31/2020 2:30:00 AM 4.8 40.64 0.321 7.8 5.23 11.81
10/31/2020 2:45:00 AM 4.75 40.55 0.32 7.79 6.37 11.82
10/31/2020 3:00:00 AM 4.7 40.46 0.32 7.79 8.2 11.84
10/31/2020 3:15:00 AM 4.65 40.37 0.32 7.79 5.64 11.86
10/31/2020 3:30:00 AM 4.6 40.28 0.32 7.79 5.48 11.88
10/31/2020 3:45:00 AM 4.55 40.19 0.319 7.79 8.29 11.9
10/31/2020 4:00:00 AM 4.53 40.154 0.319 7.79 9.28 11.92
10/31/2020 4:15:00 AM 4.5 40.1 0.319 7.78 8.02 11.93
10/31/2020 4:30:00 AM 4.47 40.046 0.319 7.79 41.44 11.93
10/31/2020 4:45:00 AM 4.44 39.992 0.319 7.77 26.5 11.89
10/31/2020 5:00:00 AM 4.43 39.974 0.318 7.8 8.69 11.97
10/31/2020 5:15:00 AM 4.4 39.92 0.318 7.79 7.35 12
10/31/2020 5:30:00 AM 4.38 39.884 0.318 7.79 7.91 12
10/31/2020 5:45:00 AM 4.36 39.848 0.318 7.79 5.8 12.02
10/31/2020 6:00:00 AM 4.35 39.83 0.318 7.8 5.79 12
10/31/2020 6:15:00 AM 4.33 39.794 0.318 7.79 9.64 12.02
10/31/2020 6:30:00 AM 4.31 39.758 0.318 7.8 8.59 12.03
10/31/2020 6:45:00 AM 4.28 39.704 0.318 7.79 7.23 12.06
10/31/2020 7:00:00 AM 4.25 39.65 0.318 7.79 12.85 12.08
10/31/2020 7:15:00 AM 4.2 39.56 0.318 7.8 7.34 12.1
10/31/2020 7:30:00 AM 4.15 39.47 0.318 7.78 5.16 12.12
10/31/2020 7:45:00 AM 4.1 39.38 0.318 7.79 5.02 12.13
10/31/2020 8:00:00 AM 4.06 39.308 0.318 7.79 7.59 12.17
10/31/2020 8:15:00 AM 4.03 39.254 0.318 7.79 6.02 12.19
10/31/2020 8:30:00 AM 4.02 39.236 0.319 7.8 34.41 12.23
10/31/2020 8:45:00 AM 4.02 39.236 0.319 7.81 7.87 12.26
10/31/2020 9:00:00 AM 4.04 39.272 0.319 7.82 6.83 12.34
10/31/2020 9:15:00 AM 4.07 39.326 0.319 7.84 5.53 12.4
10/31/2020 9:30:00 AM 4.11 39.398 0.319 7.86 4.57 12.47
10/31/2020 9:45:00 AM 4.16 39.488 0.319 7.86 6.9 12.52
10/31/2020 10:00:00 AM 4.21 39.578 0.319 7.87 6.19 12.57
10/31/2020 10:15:00 AM 4.29 39.722 0.319 7.89 4.03 12.61
10/31/2020 10:30:00 AM 4.35 39.83 0.319 7.91 4.44 12.67
10/31/2020 10:45:00 AM 4.4 39.92 0.319 7.9 6.69 12.68
10/31/2020 11:00:00 AM 4.49 40.082 0.319 7.91 3.99 12.72
10/31/2020 11:15:00 AM 4.6 40.28 0.319 7.94 3.74 12.73
10/31/2020 11:30:00 AM 4.74 40.532 0.319 7.95 3.31 12.76
10/31/2020 11:45:00 AM 4.7 40.46 0.319 7.92 5.55 12.75
10/31/2020 12:00:00 PM 4.73 40.514 0.319 7.94 3.48 12.77
10/31/2020 12:15:00 PM 5.08 41.144 0.319 7.96 5.56 12.8
10/31/2020 12:30:00 PM 5.17 41.306 0.319 7.97 3.16 12.81
10/31/2020 12:45:00 PM 5.27 41.486 0.319 7.98 3 12.83
10/31/2020 1:00:00 PM 5.37 41.666 0.319 7.98 3.15 12.82
10/31/2020 1:15:00 PM 5.37 41.666 0.319 7.98 3.22 12.8
10/31/2020 1:30:00 PM 5.44 41.792 0.319 7.97 4.63 12.8
10/31/2020 1:45:00 PM 5.49 41.882 0.319 7.99 3.37 12.81
10/31/2020 2:00:00 PM 5.52 41.936 0.319 7.99 3.08 12.81
10/31/2020 2:15:00 PM 5.54 41.972 0.319 7.99 3.1 12.81
10/31/2020 2:30:00 PM 5.59 42.062 0.319 7.98 5.52 12.8
10/31/2020 2:45:00 PM 5.64 42.152 0.319 7.99 5.05 12.8
10/31/2020 3:00:00 PM 5.68 42.224 0.319 8 3.09 12.77
10/31/2020 3:15:00 PM 5.7 42.26 0.319 8.01 3.18 12.76
10/31/2020 3:30:00 PM 5.75 42.35 0.319 8.01 3.02 12.74
10/31/2020 3:45:00 PM 5.8 42.44 0.319 8.01 3.17 12.72
10/31/2020 4:00:00 PM 5.86 42.548 0.319 8 5.17 12.68
10/31/2020 4:15:00 PM 5.85 42.53 0.319 7.99 3 12.66
10/31/2020 4:30:00 PM 5.84 42.512 0.319 7.99 5.53 12.6
10/31/2020 4:45:00 PM 5.82 42.476 0.319 7.99 3.12 12.55
10/31/2020 5:00:00 PM 5.8 42.44 0.319 7.97 4.94 12.49
10/31/2020 5:15:00 PM 5.77 42.386 0.319 7.97 3.02 12.44
10/31/2020 5:30:00 PM 5.74 42.332 0.319 7.97 3.13 12.38
10/31/2020 5:45:00 PM 5.67 42.206 0.319 7.95 3.45 12.33
10/31/2020 6:00:00 PM 5.6 42.08 0.319 7.93 3.46 12.26
10/31/2020 6:15:00 PM 5.53 41.954 0.319 7.92 3.39 12.21
10/31/2020 6:30:00 PM 5.47 41.846 0.319 7.9 6.25 12.16
10/31/2020 6:45:00 PM 5.42 41.756 0.319 7.89 4.71 12.13
10/31/2020 7:00:00 PM 5.37 41.666 0.319 7.89 6.52 12.1
10/31/2020 7:15:00 PM 5.33 41.594 0.319 7.89 6.46 12.07
10/31/2020 7:30:00 PM 5.28 41.504 0.319 7.88 7.02 12.06
10/31/2020 7:45:00 PM 5.24 41.432 0.319 7.88 6.2 12.05
10/31/2020 8:00:00 PM 5.18 41.324 0.319 7.87 4.03 12.03
10/31/2020 8:15:00 PM 5.13 41.234 0.319 7.87 6.77 12.03
10/31/2020 8:30:00 PM 5.08 41.144 0.319 7.86 6.41 12.01
10/31/2020 8:45:00 PM 5.03 41.054 0.319 7.86 5.86 12.02
10/31/2020 9:00:00 PM 4.98 40.964 0.319 7.85 4.77 12.01
10/31/2020 9:15:00 PM 4.94 40.892 0.319 7.85 6.35 12
10/31/2020 9:30:00 PM 4.9 40.82 0.319 7.85 4.29 12.01
10/31/2020 9:45:00 PM 4.87 40.766 0.319 7.85 4.16 11.99
10/31/2020 10:00:00 PM 4.83 40.694 0.319 7.85 4.12 12
10/31/2020 10:15:00 PM 4.8 40.64 0.319 7.85 5.73 11.99
10/31/2020 10:30:00 PM 4.78 40.604 0.319 7.85 4.12 11.99
10/31/2020 10:45:00 PM 4.77 40.586 0.319 7.84 222.58 11.98
10/31/2020 11:00:00 PM 4.74 40.532 0.319 7.84 4.53 11.99
10/31/2020 11:15:00 PM 4.71 40.478 0.319 7.85 5.45 11.99
10/31/2020 11:30:00 PM 4.69 40.442 0.319 7.85 4.05 11.99
10/31/2020 11:45:00 PM 4.67 40.406 0.319 7.84 6.31 11.99
11/1/2020 12:00:00 AM 4.64 40.352 0.319 7.84 6.09 12
11/1/2020 12:15:00 AM 4.61 40.298 0.319 7.84 7.18 12
11/1/2020 12:30:00 AM 4.58 40.244 0.319 7.84 4.22 12
11/1/2020 12:45:00 AM 4.56 40.208 0.319 7.84 4.15 12
11/1/2020 1:00:00 AM 4.53 40.154 0.319 7.84 6.03 12
11/1/2020 1:15:00 AM 4.5 40.1 0.319 7.84 5.42 12.01
11/1/2020 1:30:00 AM 4.47 40.046 0.319 7.83 5.9 12.02
11/1/2020 1:45:00 AM 4.44 39.992 0.32 7.84 3.89 12.03
11/1/2020 2:00:00 AM 4.42 39.956 0.32 7.84 3.87 12.03
11/1/2020 2:15:00 AM 4.38 39.884 0.32 7.82 4.61 12.04
11/1/2020 2:30:00 AM 4.35 39.83 0.32 7.84 4.21 12.05
11/1/2020 2:45:00 AM 4.32 39.776 0.32 7.83 6.99 12.06
11/1/2020 3:00:00 AM 4.28 39.704 0.32 7.83 5.29 12.07
11/1/2020 3:15:00 AM 4.25 39.65 0.32 7.83 5.19 12.08
11/1/2020 3:30:00 AM 4.25 39.65 0.32 7.83 4.09 12.09
11/1/2020 3:45:00 AM 4.24 39.632 0.32 7.83 4.13 12.1
11/1/2020 4:00:00 AM 4.24 39.632 0.32 7.84 6.27 12.1
11/1/2020 4:15:00 AM 4.23 39.614 0.32 7.84 4.15 12.11
11/1/2020 4:30:00 AM 4.23 39.614 0.321 7.84 4.29 12.12
11/1/2020 4:45:00 AM 4.23 39.614 0.321 7.84 7.57 12.11
11/1/2020 5:00:00 AM 4.23 39.614 0.321 7.84 5.88 12.1
11/1/2020 5:15:00 AM 4.23 39.614 0.321 7.84 4.03 12.11
11/1/2020 5:30:00 AM 4.22 39.596 0.321 7.85 3.84 12.11
11/1/2020 5:45:00 AM 4.22 39.596 0.321 7.84 6.27 12.11
11/1/2020 6:00:00 AM 4.22 39.596 0.321 7.85 3.86 12.11
11/1/2020 6:15:00 AM 4.22 39.596 0.321 7.85 3.95 12.11
11/1/2020 6:30:00 AM 4.22 39.596 0.321 7.84 3.66 12.11
11/1/2020 6:45:00 AM 4.22 39.596 0.322 7.85 3.75 12.11
11/1/2020 7:00:00 AM 4.23 39.614 0.322 7.84 6.24 12.12
11/1/2020 7:15:00 AM 4.24 39.632 0.322 7.85 3.48 12.13
11/1/2020 7:30:00 AM 4.26 39.668 0.322 7.86 3.34 12.15
11/1/2020 7:45:00 AM 4.28 39.704 0.322 7.86 3.25 12.17
11/1/2020 8:00:00 AM 4.31 39.758 0.322 7.86 6.84 12.21
11/1/2020 8:15:00 AM 4.34 39.812 0.322 7.87 4.8 12.26
11/1/2020 8:30:00 AM 4.37 39.866 0.322 7.88 5.28 12.3
11/1/2020 8:45:00 AM 4.39 39.902 0.322 7.88 4.64 12.31
11/1/2020 9:00:00 AM 4.42 39.956 0.322 7.88 4.92 12.31
11/1/2020 9:15:00 AM 4.47 40.046 0.322 7.9 5.23 12.37
11/1/2020 9:30:00 AM 4.52 40.136 0.322 7.92 2.73 12.42
11/1/2020 9:45:00 AM 4.56 40.208 0.322 7.91 4.83 12.44
11/1/2020 10:00:00 AM 4.59 40.262 0.322 7.92 4.8 12.45
11/1/2020 10:15:00 AM 4.63 40.334 0.322 7.94 2.62 12.47
11/1/2020 10:30:00 AM 4.68 40.424 0.322 7.95 2.69 12.5
11/1/2020 10:45:00 AM 4.74 40.532 0.322 7.95 2.62 12.52
11/1/2020 11:00:00 AM 4.8 40.64 0.322 7.96 2.68 12.55
11/1/2020 11:15:00 AM 4.96 40.928 0.322 7.98 4.84 12.59
11/1/2020 11:30:00 AM 4.99 40.982 0.322 7.97 3.99 12.58
11/1/2020 11:45:00 AM 5.01 41.018 0.322 7.98 2.45 12.57
11/1/2020 12:00:00 PM 5.04 41.072 0.322 7.97 5.09 12.52
11/1/2020 12:15:00 PM 5.08 41.144 0.322 7.97 3.8 12.49
11/1/2020 12:30:00 PM 5.11 41.198 0.322 7.97 3.49 12.47
11/1/2020 12:45:00 PM 5.13 41.234 0.321 7.96 4.02 12.44
11/1/2020 1:00:00 PM 5.16 41.288 0.321 7.96 4.48 12.4
11/1/2020 1:15:00 PM 5.19 41.342 0.321 7.97 2.47 12.38
11/1/2020 1:30:00 PM 5.22 41.396 0.321 7.98 2.43 12.36
11/1/2020 1:45:00 PM 5.24 41.432 0.321 7.97 4.64 12.31
11/1/2020 2:00:00 PM 5.26 41.468 0.321 7.95 4.97 12.26
11/1/2020 2:15:00 PM 5.28 41.504 0.321 7.97 2.4 12.24
11/1/2020 2:30:00 PM 5.3 41.54 0.321 7.97 2.44 12.22
11/1/2020 2:45:00 PM 5.34 41.612 0.321 7.95 4.59 12.18
11/1/2020 3:00:00 PM 5.37 41.666 0.321 7.96 2.82 12.15
11/1/2020 3:15:00 PM 5.4 41.72 0.32 7.96 2.47 12.1
11/1/2020 3:30:00 PM 5.43 41.774 0.32 7.96 2.42 12.07
11/1/2020 3:45:00 PM 5.45 41.81 0.32 7.96 2.41 12.05
11/1/2020 4:00:00 PM 5.47 41.846 0.32 7.95 2.56 12
11/1/2020 4:15:00 PM 5.45 41.81 0.319 7.93 2.48 11.97
11/1/2020 4:30:00 PM 5.43 41.774 0.319 7.94 2.67 11.96
11/1/2020 4:45:00 PM 5.42 41.756 0.32 7.93 2.48 11.92
11/1/2020 5:00:00 PM 5.41 41.738 0.32 7.91 5.65 11.88
11/1/2020 5:15:00 PM 5.39 41.702 0.32 7.92 2.51 11.85
11/1/2020 5:30:00 PM 5.37 41.666 0.32 7.9 4.93 11.83
11/1/2020 5:45:00 PM 5.34 41.612 0.321 7.9 2.96 11.82
11/1/2020 6:00:00 PM 5.32 41.576 0.321 7.9 2.94 11.8
11/1/2020 6:15:00 PM 5.28 41.504 0.322 7.89 3.03 11.78
11/1/2020 6:30:00 PM 5.24 41.432 0.322 7.88 5.26 11.77
11/1/2020 6:45:00 PM 5.2 41.36 0.322 7.88 3.49 11.76
11/1/2020 7:00:00 PM 5.19 41.342 0.322 7.88 3.09 11.76
11/1/2020 7:15:00 PM 5.17 41.306 0.322 7.88 3.28 11.73
11/1/2020 7:30:00 PM 5.15 41.27 0.322 7.87 5.81 11.74
11/1/2020 7:45:00 PM 5.15 41.27 0.322 7.87 5.44 11.73
11/1/2020 8:00:00 PM 5.14 41.252 0.322 7.88 3.04 11.72
11/1/2020 8:15:00 PM 5.14 41.252 0.322 7.88 3.41 11.72
11/1/2020 8:30:00 PM 5.11 41.198 0.322 7.88 3.04 11.72
11/1/2020 8:45:00 PM 5.09 41.162 0.322 7.86 5.32 11.72
11/1/2020 9:00:00 PM 5.05 41.09 0.322 7.86 5.55 11.72
11/1/2020 9:15:00 PM 5 41 0.322 7.86 3.08 11.73
11/1/2020 9:30:00 PM 4.95 40.91 0.322 7.86 3.6 11.72
11/1/2020 9:45:00 PM 4.91 40.838 0.322 7.86 4.95 11.74
11/1/2020 10:00:00 PM 4.86 40.748 0.322 7.86 5.47 11.74
11/1/2020 10:15:00 PM 4.8 40.64 0.322 7.85 5.19 11.75
11/1/2020 10:30:00 PM 4.74 40.532 0.323 7.85 5.29 11.77
11/1/2020 10:45:00 PM 4.69 40.442 0.323 7.85 5.18 11.77
11/1/2020 11:00:00 PM 4.63 40.334 0.323 7.85 2.9 11.79
11/1/2020 11:15:00 PM 4.6 40.28 0.323 7.85 3.18 11.8
11/1/2020 11:30:00 PM 4.56 40.208 0.323 7.85 3.16 11.8
11/1/2020 11:45:00 PM 4.53 40.154 0.323 7.85 3.3 11.81
11/2/2020 12:00:00 AM 4.52 40.136 0.323 7.86 6.05 11.81
11/2/2020 12:15:00 AM 4.47 40.046 0.323 7.85 3.02 11.82
11/2/2020 12:30:00 AM 4.45 40.01 0.323 7.85 5.33 11.81
11/2/2020 12:45:00 AM 4.45 40.01 0.323 7.86 5.33 11.83
11/2/2020 1:00:00 AM 4.44 39.992 0.323 7.86 5.68 11.83
11/2/2020 1:15:00 AM 4.43 39.974 0.323 7.86 3.76 11.84
11/2/2020 1:30:00 AM 4.43 39.974 0.322 7.86 3.46 11.84
11/2/2020 1:45:00 AM 4.42 39.956 0.322 7.86 3.58 11.84
11/2/2020 2:00:00 AM 4.41 39.938 0.322 7.86 5.69 11.84
11/2/2020 2:15:00 AM 4.4 39.92 0.322 7.85 5.53 11.85
11/2/2020 2:30:00 AM 4.38 39.884 0.322 7.85 5.86 11.86
11/2/2020 2:45:00 AM 4.31 39.758 0.322 7.84 5.41 11.86
11/2/2020 3:00:00 AM 4.24 39.632 0.322 7.84 5.42 11.86
11/2/2020 3:15:00 AM 4.18 39.524 0.321 7.84 5.57 11.88
11/2/2020 3:30:00 AM 4.16 39.488 0.321 7.85 3.31 11.89
11/2/2020 3:45:00 AM 4.14 39.452 0.321 7.85 3.58 11.9
11/2/2020 4:00:00 AM 4.09 39.362 0.321 7.85 5.84 11.91
11/2/2020 4:15:00 AM 4 39.2 0.321 7.83 5.63 11.93
11/2/2020 4:30:00 AM 3.95 39.11 0.321 7.84 3.25 11.94
11/2/2020 4:45:00 AM 3.91 39.038 0.321 7.84 3.21 11.96
11/2/2020 5:00:00 AM 3.86 38.948 0.321 7.84 3.37 11.97
11/2/2020 5:15:00 AM 3.78 38.804 0.321 7.84 5.21 12
11/2/2020 5:30:00 AM 3.73 38.714 0.321 7.84 5.51 12.02
11/2/2020 5:45:00 AM 3.69 38.642 0.321 7.84 3.13 12.03
11/2/2020 6:00:00 AM 3.64 38.552 0.321 7.84 5.26 12.06
11/2/2020 6:15:00 AM 3.58 38.444 0.321 7.84 5.24 12.07
11/2/2020 6:30:00 AM 3.55 38.39 0.321 7.83 3.64 12.09
11/2/2020 6:45:00 AM 3.52 38.336 0.321 7.85 5.2 12.12
11/2/2020 7:00:00 AM 3.51 38.318 0.321 7.85 5.31 12.15
11/2/2020 7:15:00 AM 3.48 38.264 0.32 7.85 4.52 12.18
11/2/2020 7:30:00 AM 3.46 38.228 0.32 7.86 3.25 12.25
11/2/2020 7:45:00 AM 3.44 38.192 0.32 7.87 3.13 12.31
11/2/2020 8:00:00 AM 3.42 38.156 0.32 7.88 5.47 12.37
11/2/2020 8:15:00 AM 3.41 38.138 0.32 7.88 4.95 12.45
11/2/2020 8:30:00 AM 3.41 38.138 0.319 7.9 2.89 12.53
11/2/2020 8:45:00 AM 3.41 38.138 0.319 7.91 2.77 12.6
11/2/2020 9:00:00 AM 3.43 38.174 0.319 7.93 2.86 12.68
11/2/2020 9:15:00 AM 3.45 38.21 0.318 7.94 2.83 12.75
11/2/2020 9:30:00 AM 3.51 38.318 0.318 7.97 2.76 12.82
11/2/2020 9:45:00 AM 3.52 38.336 0.318 7.97 2.72 12.88
11/2/2020 10:00:00 AM 3.5 38.3 0.317 7.96 4.92 12.91
11/2/2020 10:15:00 AM 3.51 38.318 0.317 7.98 4.87 12.96
11/2/2020 10:30:00 AM 3.55 38.39 0.317 8 2.63 13
11/2/2020 10:45:00 AM 3.58 38.444 0.317 8 4.65 13.04
11/2/2020 11:00:00 AM 3.61 38.498 0.317 8.01 2.73 13.06
11/2/2020 11:15:00 AM 3.67 38.606 0.316 8.03 2.63 13.11
11/2/2020 11:30:00 AM 3.81 38.858 0.316 8.04 2.8 13.14
11/2/2020 11:45:00 AM 3.84 38.912 0.316 8.04 2.4 13.16
11/2/2020 12:00:00 PM 3.86 38.948 0.316 8.04 4.46 13.18
11/2/2020 12:15:00 PM 3.91 39.038 0.315 8.06 2.4 13.21
11/2/2020 12:30:00 PM 3.95 39.11 0.315 8.06 2.66 13.23
11/2/2020 12:45:00 PM 4.01 39.218 0.315 8.06 4.72 13.25
11/2/2020 1:00:00 PM 4.01 39.218 0.315 8.07 2.4 13.25
11/2/2020 1:15:00 PM 4.02 39.236 0.315 8.06 4.96 13.25
11/2/2020 1:30:00 PM 4.04 39.272 0.315 8.06 4.64 13.25
11/2/2020 1:45:00 PM 4.07 39.326 0.315 8.07 4.77 13.25
11/2/2020 2:00:00 PM 4.16 39.488 0.315 8.09 3.63 13.27
11/2/2020 2:15:00 PM 4.22 39.596 0.315 8.09 2.55 13.28
11/2/2020 2:30:00 PM 4.21 39.578 0.315 8.1 2.5 13.27
11/2/2020 2:45:00 PM 4.2 39.56 0.315 8.09 2.56 13.25
11/2/2020 3:00:00 PM 4.21 39.578 0.315 8.08 4.7 13.23
11/2/2020 3:15:00 PM 4.22 39.596 0.316 8.08 4.5 13.23
11/2/2020 3:30:00 PM 4.18 39.524 0.317 8.08 4.32 13.21
11/2/2020 3:45:00 PM 4.13 39.434 0.317 8.07 4.73 13.17
11/2/2020 4:00:00 PM 4.08 39.344 0.317 8.06 2.54 13.13
11/2/2020 4:15:00 PM 4.05 39.29 0.317 8.06 4.62 13.09
11/2/2020 4:30:00 PM 4 39.2 0.317 8.05 4.72 13.02
11/2/2020 4:45:00 PM 3.95 39.11 0.317 8.04 4.63 12.94
11/2/2020 5:00:00 PM 3.91 39.038 0.316 8.01 4.56 12.87
11/2/2020 5:15:00 PM 3.86 38.948 0.317 8.01 2.68 12.8
11/2/2020 5:30:00 PM 3.83 38.894 0.317 7.99 2.56 12.74
11/2/2020 5:45:00 PM 3.8 38.84 0.317 7.98 2.69 12.69
11/2/2020 6:00:00 PM 3.78 38.804 0.317 7.97 2.62 12.64
11/2/2020 6:15:00 PM 3.76 38.768 0.317 7.97 2.74 12.6
11/2/2020 6:30:00 PM 3.73 38.714 0.317 7.96 2.59 12.57
11/2/2020 6:45:00 PM 3.71 38.678 0.317 7.95 4.56 12.55
11/2/2020 7:00:00 PM 3.7 38.66 0.317 7.95 2.86 12.53
11/2/2020 7:15:00 PM 3.69 38.642 0.318 7.95 2.61 12.5
11/2/2020 7:30:00 PM 3.68 38.624 0.317 7.93 3.98 12.48
11/2/2020 7:45:00 PM 3.67 38.606 0.318 7.94 5.19 12.48
11/2/2020 8:00:00 PM 3.65 38.57 0.318 7.94 3 12.47
11/2/2020 8:15:00 PM 3.65 38.57 0.318 7.93 5.11 12.45
11/2/2020 8:30:00 PM 3.63 38.534 0.318 7.93 2.94 12.44
11/2/2020 8:45:00 PM 3.61 38.498 0.318 7.93 5.78 12.42
11/2/2020 9:00:00 PM 3.61 38.498 0.319 7.93 2.85 12.4
11/2/2020 9:15:00 PM 3.6 38.48 0.319 7.92 3.29 12.38
11/2/2020 9:30:00 PM 3.58 38.444 0.319 7.92 2.96 12.37
11/2/2020 9:45:00 PM 3.56 38.408 0.319 7.91 3.38 12.36
11/2/2020 10:00:00 PM 3.54 38.372 0.319 7.91 3.16 12.35
11/2/2020 10:15:00 PM 3.54 38.372 0.319 7.91 6.82 12.31
11/2/2020 10:30:00 PM 3.54 38.372 0.319 7.91 3.37 12.34
11/2/2020 10:45:00 PM 3.54 38.372 0.319 7.91 3.28 12.34
11/2/2020 11:00:00 PM 3.54 38.372 0.32 7.9 3.2 12.32
11/2/2020 11:15:00 PM 3.54 38.372 0.32 7.91 3 12.32
11/2/2020 11:30:00 PM 3.54 38.372 0.32 7.9 3.13 12.32
11/2/2020 11:45:00 PM 3.55 38.39 0.32 7.91 3.26 12.31
11/3/2020 12:00:00 AM 3.57 38.426 0.32 7.9 5.44 12.31
11/3/2020 12:15:00 AM 3.57 38.426 0.321 7.9 3.07 12.3
11/3/2020 12:30:00 AM 3.58 38.444 0.321 7.9 3.04 12.29
11/3/2020 12:45:00 AM 3.59 38.462 0.321 7.89 5.34 12.28
11/3/2020 1:00:00 AM 3.6 38.48 0.321 7.9 2.85 12.28
11/3/2020 1:15:00 AM 3.61 38.498 0.321 7.89 2.9 12.27
11/3/2020 1:30:00 AM 3.6 38.48 0.321 7.89 5.24 12.26
11/3/2020 1:45:00 AM 3.59 38.462 0.321 7.89 4.87 12.26
11/3/2020 2:00:00 AM 3.59 38.462 0.321 7.89 2.66 12.25
11/3/2020 2:15:00 AM 3.6 38.48 0.321 7.89 2.85 12.25
11/3/2020 2:30:00 AM 3.61 38.498 0.322 7.89 5.24 12.25
11/3/2020 2:45:00 AM 3.62 38.516 0.322 7.88 3.08 12.24
11/3/2020 3:00:00 AM 3.63 38.534 0.322 7.89 5.12 12.24
11/3/2020 3:15:00 AM 3.65 38.57 0.322 7.89 2.87 12.24
11/3/2020 3:30:00 AM 3.66 38.588 0.322 7.89 5.23 12.24
11/3/2020 3:45:00 AM 3.67 38.606 0.322 7.89 2.89 12.23
11/3/2020 4:00:00 AM 3.69 38.642 0.322 7.88 4.71 12.22
11/3/2020 4:15:00 AM 3.7 38.66 0.323 7.88 4.69 12.22
11/3/2020 4:30:00 AM 3.71 38.678 0.323 7.89 2.97 12.22
11/3/2020 4:45:00 AM 3.72 38.696 0.323 7.89 2.68 12.21
11/3/2020 5:00:00 AM 3.71 38.678 0.323 7.88 5.07 12.21
11/3/2020 5:15:00 AM 3.64 38.552 0.322 7.87 4.92 12.21
11/3/2020 5:30:00 AM 3.6 38.48 0.322 7.86 5.28 12.23
11/3/2020 5:45:00 AM 3.61 38.498 0.322 7.87 2.9 12.23
11/3/2020 6:00:00 AM 3.6 38.48 0.322 7.87 7.06 12.24
11/3/2020 6:15:00 AM 3.58 38.444 0.322 7.87 5 12.25
11/3/2020 6:30:00 AM 3.57 38.426 0.322 7.87 2.98 12.25
11/3/2020 6:45:00 AM 3.57 38.426 0.322 7.87 5.05 12.26
11/3/2020 7:00:00 AM 3.56 38.408 0.323 7.87 3.02 12.27
11/3/2020 7:15:00 AM 3.57 38.426 0.323 7.87 5.15 12.29
11/3/2020 7:30:00 AM 3.58 38.444 0.323 7.87 5.09 12.34
11/3/2020 7:45:00 AM 3.6 38.48 0.324 7.88 5.15 12.37
11/3/2020 8:00:00 AM 3.61 38.498 0.325 7.89 5 12.42
11/3/2020 8:15:00 AM 3.63 38.534 0.326 7.9 4.9 12.5
11/3/2020 8:30:00 AM 3.66 38.588 0.327 7.91 5.05 12.55
11/3/2020 8:45:00 AM 3.67 38.606 0.327 7.92 2.73 12.6
11/3/2020 9:00:00 AM 3.71 38.678 0.327 7.92 4.8 12.66
11/3/2020 9:15:00 AM 3.72 38.696 0.326 7.93 4.34 12.71
11/3/2020 9:30:00 AM 3.75 38.75 0.326 7.94 4.73 12.76
11/3/2020 9:45:00 AM 3.78 38.804 0.325 7.95 4.69 12.83
11/3/2020 10:00:00 AM 3.82 38.876 0.324 7.97 4.59 12.88
11/3/2020 10:15:00 AM 3.87 38.966 0.324 7.97 4.64 12.93
11/3/2020 10:30:00 AM 3.94 39.092 0.319 7.98 4.4 12.96
11/3/2020 10:45:00 AM 4.05 39.29 0.323 8 4.4 13.01
11/3/2020 11:00:00 AM 4.21 39.578 0.322 8.03 2.47 13.05
11/3/2020 11:15:00 AM 4.34 39.812 0.322 8.04 2.65 13.07
11/3/2020 11:30:00 AM 4.45 40.01 0.322 8.03 4.53 13.09
11/3/2020 11:45:00 AM 4.5 40.1 0.321 8.03 4.37 13.1
11/3/2020 12:00:00 PM 4.51 40.118 0.321 8.04 2.48 13.1
11/3/2020 12:15:00 PM 4.53 40.154 0.321 8.04 2.52 13.1
11/3/2020 12:30:00 PM 4.6 40.28 0.321 8.06 2.39 13.11
11/3/2020 12:45:00 PM 4.64 40.352 0.321 8.05 4.91 13.11
11/3/2020 1:00:00 PM 4.68 40.424 0.321 8.06 2.6 13.11
11/3/2020 1:15:00 PM 4.71 40.478 0.321 8.05 4.82 13.11
11/3/2020 1:30:00 PM 4.76 40.568 0.32 8.07 2.39 13.11
11/3/2020 1:45:00 PM 4.81 40.658 0.32 8.08 2.73 13.11
11/3/2020 2:00:00 PM 4.89 40.802 0.32 8.09 2.75 13.09
11/3/2020 2:15:00 PM 4.96 40.928 0.32 8.09 2.71 13.12
11/3/2020 2:30:00 PM 5.03 41.054 0.32 8.1 3.06 13.08
11/3/2020 2:45:00 PM 5.06 41.108 0.32 8.08 4.67 13.07
11/3/2020 3:00:00 PM 5.04 41.072 0.32 8.07 2.87 13.01
11/3/2020 3:15:00 PM 5.04 41.072 0.32 8.07 2.62 12.97
11/3/2020 3:30:00 PM 5.03 41.054 0.32 8.07 3.02 12.97
11/3/2020 3:45:00 PM 5 41 0.32 8.06 2.62 12.94
11/3/2020 4:00:00 PM 4.95 40.91 0.32 8.06 2.99 12.9
11/3/2020 4:15:00 PM 4.91 40.838 0.32 8.04 2.71 12.85
11/3/2020 4:30:00 PM 4.89 40.802 0.32 8.04 2.87 12.8
11/3/2020 4:45:00 PM 4.86 40.748 0.32 8.03 2.96 12.73
11/3/2020 5:00:00 PM 4.82 40.676 0.32 8.01 2.78 12.64
11/3/2020 5:15:00 PM 4.79 40.622 0.32 7.99 2.91 12.58
11/3/2020 5:30:00 PM 4.77 40.586 0.32 7.98 5.02 12.51
11/3/2020 5:45:00 PM 4.75 40.55 0.321 7.97 3.24 12.46
11/3/2020 6:00:00 PM 4.74 40.532 0.321 7.96 5.18 12.41
11/3/2020 6:15:00 PM 4.73 40.514 0.32 7.95 5.61 12.38
11/3/2020 6:30:00 PM 4.72 40.496 0.32 7.95 5.11 12.35
11/3/2020 6:45:00 PM 4.7 40.46 0.32 7.95 3.32 12.32
11/3/2020 7:00:00 PM 4.68 40.424 0.32 7.94 3.43 12.31
11/3/2020 7:15:00 PM 4.65 40.37 0.32 7.93 3.91 12.3
11/3/2020 7:30:00 PM 4.62 40.316 0.32 7.92 3.46 12.29
11/3/2020 7:45:00 PM 4.59 40.262 0.32 7.92 5.52 12.28
11/3/2020 8:00:00 PM 4.57 40.226 0.319 7.91 5.12 12.26
11/3/2020 8:15:00 PM 4.54 40.172 0.319 7.91 5.19 12.25
11/3/2020 8:30:00 PM 4.51 40.118 0.319 7.9 6.3 12.23
11/3/2020 8:45:00 PM 4.47 40.046 0.319 7.9 3.99 12.22
11/3/2020 9:00:00 PM 4.44 39.992 0.319 7.89 6.18 12.22
11/3/2020 9:15:00 PM 4.42 39.956 0.319 7.89 3.77 12.21
11/3/2020 9:30:00 PM 4.4 39.92 0.318 7.89 4.09 12.21
11/3/2020 9:45:00 PM 4.39 39.902 0.318 7.88 5.33 12.21
11/3/2020 10:00:00 PM 4.36 39.848 0.318 7.88 4.85 12.21
11/3/2020 10:15:00 PM 4.35 39.83 0.318 7.88 7.72 12.2
11/3/2020 10:30:00 PM 4.33 39.794 0.318 7.87 4.28 12.2
11/3/2020 10:45:00 PM 4.31 39.758 0.318 7.88 4.49 12.2
11/3/2020 11:00:00 PM 4.27 39.686 0.317 7.86 5.82 12.22
11/3/2020 11:15:00 PM 4.24 39.632 0.318 7.86 4.67 12.22
11/3/2020 11:30:00 PM 4.23 39.614 0.317 7.86 6.78 12.22
11/3/2020 11:45:00 PM 4.22 39.596 0.317 7.87 4.61 12.22
11/4/2020 12:00:00 AM 4.2 39.56 0.317 7.87 4.37 12.23
11/4/2020 12:15:00 AM 4.19 39.542 0.317 7.86 5.85 12.23
11/4/2020 12:30:00 AM 4.17 39.506 0.317 7.85 6.54 12.21
11/4/2020 12:45:00 AM 4.13 39.434 0.317 7.85 5.99 12.23
11/4/2020 1:00:00 AM 4.09 39.362 0.317 7.85 4.36 12.24
11/4/2020 1:15:00 AM 4.05 39.29 0.317 7.85 3.95 12.25
11/4/2020 1:30:00 AM 4.01 39.218 0.317 7.85 4.45 12.27
11/4/2020 1:45:00 AM 3.97 39.146 0.317 7.84 4.72 12.28
11/4/2020 2:00:00 AM 3.94 39.092 0.317 7.84 4.15 12.3
11/4/2020 2:15:00 AM 3.9 39.02 0.317 7.84 4.38 12.31
11/4/2020 2:30:00 AM 3.87 38.966 0.317 7.84 5.18 12.3
11/4/2020 2:45:00 AM 3.82 38.876 0.317 7.83 4.81 12.34
11/4/2020 3:00:00 AM 3.79 38.822 0.317 7.82 7.31 12.34
11/4/2020 3:15:00 AM 3.75 38.75 0.317 7.83 6.86 12.35
11/4/2020 3:30:00 AM 3.72 38.696 0.317 7.84 7.49 12.36
11/4/2020 3:45:00 AM 3.69 38.642 0.317 7.83 6.58 12.37
11/4/2020 4:00:00 AM 3.66 38.588 0.317 7.83 4.45 12.38
11/4/2020 4:15:00 AM 3.63 38.534 0.317 7.82 5.96 12.4
11/4/2020 4:30:00 AM 3.6 38.48 0.317 7.83 6.77 12.41
11/4/2020 4:45:00 AM 3.58 38.444 0.317 7.83 6.75 12.42
11/4/2020 5:00:00 AM 3.55 38.39 0.317 7.82 7.65 12.43
11/4/2020 5:15:00 AM 3.53 38.354 0.317 7.83 6.67 12.44
11/4/2020 5:30:00 AM 3.5 38.3 0.317 7.82 7.31 12.46
11/4/2020 5:45:00 AM 3.48 38.264 0.317 7.83 4.46 12.46
11/4/2020 6:00:00 AM 3.46 38.228 0.317 7.82 6.69 12.45
11/4/2020 6:15:00 AM 3.44 38.192 0.317 7.83 6.24 12.47
11/4/2020 6:30:00 AM 3.42 38.156 0.317 7.83 4.36 12.48
11/4/2020 6:45:00 AM 3.41 38.138 0.317 7.83 6.36 12.5
11/4/2020 7:00:00 AM 3.4 38.12 0.317 7.83 4.32 12.52
11/4/2020 7:15:00 AM 3.39 38.102 0.317 7.83 6.49 12.55
11/4/2020 7:30:00 AM 3.39 38.102 0.317 7.84 3.72 12.59
11/4/2020 7:45:00 AM 3.4 38.12 0.317 7.85 3.69 12.62
11/4/2020 8:00:00 AM 3.42 38.156 0.317 7.85 6.14 12.67
11/4/2020 8:15:00 AM 3.44 38.192 0.317 7.85 5.49 12.71
11/4/2020 8:30:00 AM 3.47 38.246 0.317 7.87 5.11 12.75
11/4/2020 8:45:00 AM 3.51 38.318 0.316 7.87 5.16 12.79
11/4/2020 9:00:00 AM 3.56 38.408 0.316 7.89 8.66 12.82
11/4/2020 9:15:00 AM 3.63 38.534 0.316 7.9 5.32 12.85
11/4/2020 9:30:00 AM 3.7 38.66 0.316 7.91 3.24 12.87
11/4/2020 9:45:00 AM 3.79 38.822 0.316 7.91 5.52 12.9
11/4/2020 10:00:00 AM 3.87 38.966 0.316 7.93 4.2 12.93
11/4/2020 10:15:00 AM 3.97 39.146 0.316 7.92 4.65 12.94
11/4/2020 10:30:00 AM 4.08 39.344 0.317 7.94 5.2 12.96
11/4/2020 10:45:00 AM 4.2 39.56 0.316 7.94 5.66 12.97
11/4/2020 11:00:00 AM 4.34 39.812 0.316 7.95 5.13 12.98
11/4/2020 11:15:00 AM 4.49 40.082 0.316 7.96 4.63 12.99
11/4/2020 11:30:00 AM 4.63 40.334 0.316 7.97 2.84 13
11/4/2020 11:45:00 AM 4.79 40.622 0.316 7.99 2.96 12.99
11/4/2020 12:00:00 PM 4.96 40.928 0.316 7.99 3.05 12.98
11/4/2020 12:15:00 PM 5.12 41.216 0.316 7.99 5.45 12.97
11/4/2020 12:30:00 PM 5.29 41.522 0.316 8.01 3.01 12.95
11/4/2020 12:45:00 PM 5.44 41.792 0.315 8.02 2.93 12.93
11/4/2020 1:00:00 PM 5.57 42.026 0.315 8.02 3.18 12.9
11/4/2020 1:15:00 PM 5.71 42.278 0.315 8.03 2.81 12.89
11/4/2020 1:30:00 PM 5.84 42.512 0.315 8.03 2.92 12.86
11/4/2020 1:45:00 PM 5.96 42.728 0.315 8.02 5.48 12.83
11/4/2020 2:00:00 PM 6.05 42.89 0.315 8.01 4.56 12.79
11/4/2020 2:15:00 PM 6.13 43.034 0.315 8.03 2.99 12.75
11/4/2020 2:30:00 PM 6.21 43.178 0.315 8.02 5.14 12.71
11/4/2020 2:45:00 PM 6.27 43.286 0.315 8.02 5.22 12.67
11/4/2020 3:00:00 PM 6.31 43.358 0.315 8.01 4.82 12.62
11/4/2020 3:15:00 PM 6.35 43.43 0.315 8.01 2.97 12.55
11/4/2020 3:30:00 PM 6.38 43.484 0.315 7.99 4.86 12.49
11/4/2020 3:45:00 PM 6.41 43.538 0.315 7.98 5.99 12.43
11/4/2020 4:00:00 PM 6.42 43.556 0.315 7.99 3.32 12.37
11/4/2020 4:15:00 PM 6.41 43.538 0.315 7.96 5.81 12.31
11/4/2020 4:30:00 PM 6.39 43.502 0.315 7.95 5.44 12.25
11/4/2020 4:45:00 PM 6.35 43.43 0.316 7.95 3.02 12.18
11/4/2020 5:00:00 PM 6.31 43.358 0.316 7.93 3.4 12.11
11/4/2020 5:15:00 PM 6.27 43.286 0.316 7.92 6.35 12.04
11/4/2020 5:30:00 PM 6.24 43.232 0.316 7.91 3.51 11.99
11/4/2020 5:45:00 PM 6.21 43.178 0.316 7.9 73.38 11.95
11/4/2020 6:00:00 PM 6.18 43.124 0.317 7.89 138.95 11.91
11/4/2020 6:15:00 PM 6.15 43.07 0.317 7.88 6.31 11.89
11/4/2020 6:30:00 PM 6.12 43.016 0.317 7.88 3.87 11.86
11/4/2020 6:45:00 PM 6.08 42.944 0.317 7.88 6.26 11.85
11/4/2020 7:00:00 PM 6.05 42.89 0.317 7.87 3.65 11.83
11/4/2020 7:15:00 PM 6.03 42.854 0.317 7.86 7.69 11.82
11/4/2020 7:30:00 PM 6 42.8 0.318 7.86 3.89 11.8
11/4/2020 7:45:00 PM 5.98 42.764 0.318 7.86 4.04 11.79
11/4/2020 8:00:00 PM 5.96 42.728 0.318 7.86 4.11 11.78
11/4/2020 8:15:00 PM 5.95 42.71 0.318 7.86 3.62 11.77
11/4/2020 8:30:00 PM 5.93 42.674 0.318 7.85 3.94 11.75
11/4/2020 8:45:00 PM 5.92 42.656 0.318 7.86 3.78 11.74
11/4/2020 9:00:00 PM 5.9 42.62 0.318 7.86 3.88 11.74
11/4/2020 9:15:00 PM 5.89 42.602 0.318 7.85 6.16 11.73
11/4/2020 9:30:00 PM 5.87 42.566 0.318 7.85 6.36 11.73
11/4/2020 9:45:00 PM 5.85 42.53 0.319 7.84 5.19 11.73
11/4/2020 10:00:00 PM 5.82 42.476 0.319 7.85 6.78 11.72
11/4/2020 10:15:00 PM 5.8 42.44 0.319 7.84 4.05 11.73
11/4/2020 10:30:00 PM 5.79 42.422 0.319 7.85 5.81 11.72
11/4/2020 10:45:00 PM 5.77 42.386 0.319 7.84 4.27 11.71
11/4/2020 11:00:00 PM 5.76 42.368 0.319 7.85 6.96 11.72
11/4/2020 11:15:00 PM 5.74 42.332 0.319 7.84 3.92 11.71
11/4/2020 11:30:00 PM 5.72 42.296 0.319 7.84 6.15 11.71
11/4/2020 11:45:00 PM 5.69 42.242 0.319 7.84 4.41 11.72
11/5/2020 12:00:00 AM 5.67 42.206 0.319 7.83 7.75 11.72
11/5/2020 12:15:00 AM 5.64 42.152 0.319 7.81 4.84 11.72
11/5/2020 12:30:00 AM 5.62 42.116 0.319 7.82 4.45 11.72
11/5/2020 12:45:00 AM 5.6 42.08 0.319 7.79 4.26 11.74
11/5/2020 1:00:00 AM 5.58 42.044 0.319 7.82 4.39 11.74
11/5/2020 1:15:00 AM 5.56 42.008 0.318 7.82 7.02 11.74
11/5/2020 1:30:00 AM 5.54 41.972 0.318 7.82 5.97 11.75
11/5/2020 1:45:00 AM 5.52 41.936 0.318 7.82 5.84 11.75
11/5/2020 2:00:00 AM 5.49 41.882 0.318 7.82 6.46 11.76
11/5/2020 2:15:00 AM 5.46 41.828 0.318 7.8 4.15 11.78
11/5/2020 2:30:00 AM 5.43 41.774 0.318 7.81 6.27 11.79
11/5/2020 2:45:00 AM 5.4 41.72 0.318 7.81 6.79 11.79
11/5/2020 3:00:00 AM 5.36 41.648 0.318 7.8 6.59 11.8
11/5/2020 3:15:00 AM 5.32 41.576 0.318 7.79 6.28 11.81
11/5/2020 3:30:00 AM 5.28 41.504 0.318 7.81 6.85 11.82
11/5/2020 3:45:00 AM 5.24 41.432 0.318 7.79 4.58 11.84
11/5/2020 4:00:00 AM 5.21 41.378 0.318 7.79 4.15 11.84
11/5/2020 4:15:00 AM 5.18 41.324 0.318 7.8 4.39 11.84
11/5/2020 4:30:00 AM 5.15 41.27 0.318 7.8 4.26 11.86
11/5/2020 4:45:00 AM 5.11 41.198 0.318 7.8 4.01 11.87
11/5/2020 5:00:00 AM 5.08 41.144 0.318 7.79 3.91 11.88
11/5/2020 5:15:00 AM 5.05 41.09 0.318 7.79 4.03 11.9
11/5/2020 5:30:00 AM 5.02 41.036 0.318 7.81 3.98 11.91
11/5/2020 5:45:00 AM 5 41 0.318 7.8 4.3 11.9
11/5/2020 6:00:00 AM 4.98 40.964 0.318 7.81 3.93 11.91
11/5/2020 6:15:00 AM 4.96 40.928 0.317 7.81 4.48 11.92
11/5/2020 6:30:00 AM 4.94 40.892 0.317 7.82 4.59 11.93
11/5/2020 6:45:00 AM 4.92 40.856 0.317 7.81 3.96 11.95
11/5/2020 7:00:00 AM 4.91 40.838 0.317 7.82 4.25 11.96
11/5/2020 7:15:00 AM 4.9 40.82 0.291 7.83 4.98 12
11/5/2020 7:30:00 AM 4.89 40.802 0.317 7.83 3.87 12.02
11/5/2020 7:45:00 AM 4.89 40.802 0.317 7.83 3.61 12.05
11/5/2020 8:00:00 AM 4.91 40.838 0.317 7.85 4.37 12.1
11/5/2020 8:15:00 AM 4.93 40.874 0.317 7.86 3.91 12.16
11/5/2020 8:30:00 AM 4.97 40.946 0.317 7.86 5.18 12.21
11/5/2020 8:45:00 AM 5 41 0.317 7.88 3.67 12.24
11/5/2020 9:00:00 AM 5.06 41.108 0.317 7.89 3.14 12.3
11/5/2020 9:15:00 AM 5.12 41.216 0.317 7.9 5.33 12.34
11/5/2020 9:30:00 AM 5.19 41.342 0.316 7.92 3.19 12.38
11/5/2020 9:45:00 AM 5.27 41.486 0.316 7.92 5.4 12.42
11/5/2020 10:00:00 AM 5.37 41.666 0.316 7.93 4.98 12.47
11/5/2020 10:15:00 AM 5.46 41.828 0.316 7.94 4.74 12.49
11/5/2020 10:30:00 AM 5.57 42.026 0.316 7.95 4.55 12.52
11/5/2020 10:45:00 AM 5.7 42.26 0.316 7.98 2.59 12.56
11/5/2020 11:00:00 AM 5.84 42.512 0.316 7.98 5.12 12.6
11/5/2020 11:15:00 AM 6 42.8 0.316 8.01 2.56 12.62
11/5/2020 11:30:00 AM 6.13 43.034 0.315 8 5.1 12.64
11/5/2020 11:45:00 AM 6.31 43.358 0.315 8.04 2.57 12.67
11/5/2020 12:00:00 PM 6.44 43.592 0.315 8.03 4.8 12.68
11/5/2020 12:15:00 PM 6.55 43.79 0.315 8.05 2.55 12.67
11/5/2020 12:30:00 PM 6.63 43.934 0.315 8.05 2.82 12.65
11/5/2020 12:45:00 PM 6.81 44.258 0.315 8.08 2.64 12.67
11/5/2020 1:00:00 PM 6.95 44.51 0.315 8.08 3.19 12.68
11/5/2020 1:15:00 PM 7.12 44.816 0.315 8.1 2.86 12.68
11/5/2020 1:30:00 PM 7.27 45.086 0.315 8.1 5.62 12.68
11/5/2020 1:45:00 PM 7.38 45.284 0.315 8.12 2.62 12.67
11/5/2020 2:00:00 PM 7.48 45.464 0.315 8.12 3.45 12.65
11/5/2020 2:15:00 PM 7.57 45.626 0.315 8.11 3.29 12.61
11/5/2020 2:30:00 PM 7.7 45.86 0.315 8.14 3.19 12.62
11/5/2020 2:45:00 PM 7.77 45.986 0.315 8.13 4.06 12.56
11/5/2020 3:00:00 PM 7.8 46.04 0.315 8.12 2.85 12.5
11/5/2020 3:15:00 PM 7.84 46.112 0.315 8.12 2.74 12.46
11/5/2020 3:30:00 PM 7.85 46.13 0.315 8.1 2.93 12.38
11/5/2020 3:45:00 PM 7.86 46.148 0.315 8.09 3.27 12.3
11/5/2020 4:00:00 PM 7.85 46.13 0.316 8.07 3.36 12.21
11/5/2020 4:15:00 PM 7.82 46.076 0.316 8.06 3.33 12.12
11/5/2020 4:30:00 PM 7.77 45.986 0.316 8.04 3.1 12.03
11/5/2020 4:45:00 PM 7.72 45.896 0.317 8.02 2.83 11.94
11/5/2020 5:00:00 PM 7.66 45.788 0.317 8 3.68 11.84
11/5/2020 5:15:00 PM 7.61 45.698 0.317 7.97 3.26 11.74
11/5/2020 5:30:00 PM 7.56 45.608 0.318 7.96 3.78 11.67
11/5/2020 5:45:00 PM 7.52 45.536 0.318 7.95 3.58 11.62
11/5/2020 6:00:00 PM 7.49 45.482 0.318 7.93 5.27 11.57
11/5/2020 6:15:00 PM 7.45 45.41 0.319 7.92 4.74 11.53
11/5/2020 6:30:00 PM 7.42 45.356 0.319 7.92 3.33 11.5
11/5/2020 6:45:00 PM 7.38 45.284 0.319 7.91 3.39 11.48
11/5/2020 7:00:00 PM 7.34 45.212 0.319 7.91 3.85 11.45
11/5/2020 7:15:00 PM 7.3 45.14 0.32 7.9 3.62 11.44
11/5/2020 7:30:00 PM 7.26 45.068 0.32 7.9 3.53 11.42
11/5/2020 7:45:00 PM 7.23 45.014 0.32 7.9 4.5 11.4
11/5/2020 8:00:00 PM 7.19 44.942 0.321 7.87 3.71 11.39
11/5/2020 8:15:00 PM 7.15 44.87 0.321 7.88 3.75 11.38
11/5/2020 8:30:00 PM 7.13 44.834 0.321 7.88 3.55 11.36
11/5/2020 8:45:00 PM 7.1 44.78 0.322 7.86 3.74 11.36
11/5/2020 9:00:00 PM 7.08 44.744 0.322 7.87 4.27 11.35
11/5/2020 9:15:00 PM 7.06 44.708 0.322 7.87 3.24 11.33
11/5/2020 9:30:00 PM 7.05 44.69 0.323 7.86 3.54 11.33
11/5/2020 9:45:00 PM 7.04 44.672 0.323 7.87 5.69 11.32
11/5/2020 10:00:00 PM 7.03 44.654 0.323 7.86 3.91 11.31
11/5/2020 10:15:00 PM 7.02 44.636 0.324 7.86 3.9 11.29
11/5/2020 10:30:00 PM 7.01 44.618 0.324 7.86 5.05 11.29
11/5/2020 10:45:00 PM 7 44.6 0.324 7.85 3.98 11.29
11/5/2020 11:00:00 PM 6.99 44.582 0.325 7.85 5.35 11.29
11/5/2020 11:15:00 PM 6.97 44.546 0.325 7.85 11.5 11.29
11/5/2020 11:30:00 PM 6.96 44.528 0.325 7.84 6.87 11.28
11/5/2020 11:45:00 PM 6.95 44.51 0.326 7.85 4.83 11.28
11/6/2020 12:00:00 AM 6.94 44.492 0.326 7.85 4.09 11.27
11/6/2020 12:15:00 AM 6.93 44.474 0.326 7.84 3.32 11.28
11/6/2020 12:30:00 AM 6.93 44.474 0.327 7.85 3.46 11.26
11/6/2020 12:45:00 AM 6.93 44.474 0.327 7.85 3.63 11.26
11/6/2020 1:00:00 AM 6.92 44.456 0.327 7.83 5.58 11.26
11/6/2020 1:15:00 AM 6.92 44.456 0.327 7.83 3.54 11.26
11/6/2020 1:30:00 AM 6.92 44.456 0.327 7.84 3.48 11.26
11/6/2020 1:45:00 AM 6.92 44.456 0.328 7.84 3.5 11.25
11/6/2020 2:00:00 AM 6.92 44.456 0.328 7.82 3.61 11.26
11/6/2020 2:15:00 AM 6.92 44.456 0.328 7.84 3.68 11.26
11/6/2020 2:30:00 AM 6.91 44.438 0.328 7.82 6.61 11.24
11/6/2020 2:45:00 AM 6.91 44.438 0.328 7.82 6.08 11.25
11/6/2020 3:00:00 AM 6.89 44.402 0.328 7.82 3.44 11.25
11/6/2020 3:15:00 AM 6.87 44.366 0.328 7.81 5.57 11.25
11/6/2020 3:30:00 AM 6.83 44.294 0.329 7.82 3.56 11.26
11/6/2020 3:45:00 AM 6.8 44.24 0.329 7.82 3.8 11.27
11/6/2020 4:00:00 AM 6.76 44.168 0.329 7.82 4.33 11.27
11/6/2020 4:15:00 AM 6.73 44.114 0.329 7.81 3.49 11.29
11/6/2020 4:30:00 AM 6.69 44.042 0.329 7.81 4.34 11.28
11/6/2020 4:45:00 AM 6.65 43.97 0.329 7.81 3.55 11.3
11/6/2020 5:00:00 AM 6.61 43.898 0.329 7.81 3.59 11.3
11/6/2020 5:15:00 AM 6.57 43.826 0.329 7.81 3.76 11.32
11/6/2020 5:30:00 AM 6.53 43.754 0.329 7.81 5.79 11.32
11/6/2020 5:45:00 AM 6.49 43.682 0.33 7.81 5.04 11.34
11/6/2020 6:00:00 AM 6.45 43.61 0.33 7.81 3.37 11.35
11/6/2020 6:15:00 AM 6.41 43.538 0.33 7.81 3.74 11.36
11/6/2020 6:30:00 AM 6.37 43.466 0.33 7.79 5.6 11.38
11/6/2020 6:45:00 AM 6.33 43.394 0.33 7.79 6.36 11.39
11/6/2020 7:00:00 AM 6.29 43.322 0.33 7.8 5.38 11.41
11/6/2020 7:15:00 AM 6.26 43.268 0.33 7.8 3.49 11.46
11/6/2020 7:30:00 AM 6.23 43.214 0.33 7.81 3.15 11.51
11/6/2020 7:45:00 AM 6.22 43.196 0.33 7.83 4.99 11.57
11/6/2020 8:00:00 AM 6.21 43.178 0.33 7.83 2.69 11.65
11/6/2020 8:15:00 AM 6.22 43.196 0.33 7.85 4.69 11.72
11/6/2020 8:30:00 AM 6.24 43.232 0.33 7.86 2.61 11.81
11/6/2020 8:45:00 AM 6.27 43.286 0.33 7.88 2.78 11.88
11/6/2020 9:00:00 AM 6.31 43.358 0.33 7.9 2.67 11.96
11/6/2020 9:15:00 AM 6.37 43.466 0.33 7.92 2.56 12.03
11/6/2020 9:30:00 AM 6.45 43.61 0.329 7.93 4.87 12.08
11/6/2020 9:45:00 AM 6.53 43.754 0.329 7.95 2.28 12.14
11/6/2020 10:00:00 AM 6.61 43.898 0.329 7.96 2.48 12.19
11/6/2020 10:15:00 AM 6.71 44.078 0.329 7.97 3.53 12.24
11/6/2020 10:30:00 AM 6.82 44.276 0.329 8 2.29 12.28
11/6/2020 10:45:00 AM 6.93 44.474 0.329 8.01 2.37 12.31
11/6/2020 11:00:00 AM 7.07 44.726 0.329 8.03 2.14 12.34
11/6/2020 11:15:00 AM 7.21 44.978 0.328 8.04 2.33 12.39
11/6/2020 11:30:00 AM 7.36 45.248 0.328 8.06 2.27 12.41
11/6/2020 11:45:00 AM 7.52 45.536 0.328 8.08 2.21 12.44
11/6/2020 12:00:00 PM 7.68 45.824 0.328 8.09 2.22 12.45
11/6/2020 12:15:00 PM 7.84 46.112 0.328 8.1 2.42 12.47
11/6/2020 12:30:00 PM 8 46.4 0.328 8.11 2.2 12.47
11/6/2020 12:45:00 PM 8.15 46.67 0.328 8.12 2.28 12.46
11/6/2020 1:00:00 PM 8.29 46.922 0.328 8.14 2.3 12.45
11/6/2020 1:15:00 PM 8.42 47.156 0.328 8.14 2.21 12.44
11/6/2020 1:30:00 PM 8.55 47.39 0.328 8.15 2.41 12.42
11/6/2020 1:45:00 PM 8.66 47.588 0.328 8.15 2.35 12.39
11/6/2020 2:00:00 PM 8.75 47.75 0.328 8.16 2.32 12.37
11/6/2020 2:15:00 PM 8.83 47.894 0.328 8.16 2.39 12.33
11/6/2020 2:30:00 PM 8.9 48.02 0.328 8.16 2.38 12.29
11/6/2020 2:45:00 PM 8.96 48.128 0.328 8.15 2.37 12.24
11/6/2020 3:00:00 PM 9 48.2 0.328 8.15 2.69 12.18
11/6/2020 3:15:00 PM 9.02 48.236 0.328 8.14 2.61 12.09
11/6/2020 3:30:00 PM 9.03 48.254 0.328 8.13 2.3 12
11/6/2020 3:45:00 PM 9.03 48.254 0.328 8.11 2.43 11.91
11/6/2020 4:00:00 PM 9.04 48.272 0.329 8.1 2.39 11.82
11/6/2020 4:15:00 PM 9.04 48.272 0.329 8.09 2.47 11.73
11/6/2020 4:30:00 PM 9.01 48.218 0.329 8.07 2.51 11.62
11/6/2020 4:45:00 PM 8.97 48.146 0.329 8.05 2.57 11.51
11/6/2020 5:00:00 PM 8.93 48.074 0.33 8.03 2.69 11.4
11/6/2020 5:15:00 PM 8.87 47.966 0.33 8.01 2.76 11.3
11/6/2020 5:30:00 PM 8.82 47.876 0.33 7.97 2.78 11.23
11/6/2020 5:45:00 PM 8.77 47.786 0.331 7.97 2.95 11.17
11/6/2020 6:00:00 PM 8.72 47.696 0.331 7.95 3.01 11.12
11/6/2020 6:15:00 PM 8.68 47.624 0.331 7.94 3 11.08
11/6/2020 6:30:00 PM 8.63 47.534 0.331 7.93 2.78 11.05
11/6/2020 6:45:00 PM 8.58 47.444 0.331 7.92 3.15 11.03
11/6/2020 7:00:00 PM 8.53 47.354 0.332 7.91 3.21 11.02
11/6/2020 7:15:00 PM 8.47 47.246 0.332 7.9 2.87 11
11/6/2020 7:30:00 PM 8.41 47.138 0.332 7.89 3.27 10.99
11/6/2020 7:45:00 PM 8.35 47.03 0.332 7.89 3.53 10.99
11/6/2020 8:00:00 PM 8.29 46.922 0.332 7.88 3.85 10.98
11/6/2020 8:15:00 PM 8.24 46.832 0.333 7.88 3.25 10.96
11/6/2020 8:30:00 PM 8.18 46.724 0.333 7.87 3.55 10.96
11/6/2020 8:45:00 PM 8.13 46.634 0.333 7.87 3.34 10.96
11/6/2020 9:00:00 PM 8.08 46.544 0.333 7.87 3.02 10.95
11/6/2020 9:15:00 PM 8.03 46.454 0.333 7.86 3.56 10.95
11/6/2020 9:30:00 PM 8 46.4 0.333 7.86 3.66 10.94
11/6/2020 9:45:00 PM 7.95 46.31 0.333 7.85 3.22 10.94
11/6/2020 10:00:00 PM 7.91 46.238 0.333 7.85 4 10.93
11/6/2020 10:15:00 PM 7.86 46.148 0.334 7.85 3.6 10.94
11/6/2020 10:30:00 PM 7.82 46.076 0.334 7.84 4.24 10.94
11/6/2020 10:45:00 PM 7.78 46.004 0.334 7.84 3.72 10.95
11/6/2020 11:00:00 PM 7.74 45.932 0.334 7.83 3.91 10.95
11/6/2020 11:15:00 PM 7.7 45.86 0.334 7.84 6.02 10.95
11/6/2020 11:30:00 PM 7.66 45.788 0.335 7.84 3.27 10.95
11/6/2020 11:45:00 PM 7.62 45.716 0.335 7.84 3.35 10.96
11/7/2020 12:00:00 AM 7.58 45.644 0.335 7.84 3.3 10.97
11/7/2020 12:15:00 AM 7.54 45.572 0.335 7.83 3 10.97
11/7/2020 12:30:00 AM 7.5 45.5 0.335 7.83 4.57 10.98
11/7/2020 12:45:00 AM 7.46 45.428 0.336 7.83 3.45 10.99
11/7/2020 1:00:00 AM 7.42 45.356 0.336 7.83 3.68 11
11/7/2020 1:15:00 AM 7.38 45.284 0.336 7.83 3.41 11
11/7/2020 1:30:00 AM 7.34 45.212 0.336 7.83 3.11 11
11/7/2020 1:45:00 AM 7.31 45.158 0.336 7.83 3.36 11.01
11/7/2020 2:00:00 AM 7.27 45.086 0.336 7.83 5.76 11.03
11/7/2020 2:15:00 AM 7.23 45.014 0.337 7.82 2.88 11.05
11/7/2020 2:30:00 AM 7.19 44.942 0.337 7.83 3.29 11.05
11/7/2020 2:45:00 AM 7.16 44.888 0.337 7.82 3.27 11.06
11/7/2020 3:00:00 AM 7.12 44.816 0.337 7.82 3.3 11.07
11/7/2020 3:15:00 AM 7.08 44.744 0.337 7.82 3.04 11.08
11/7/2020 3:30:00 AM 7.04 44.672 0.337 7.83 3.12 11.08
11/7/2020 3:45:00 AM 7.01 44.618 0.338 7.82 3.15 11.09
11/7/2020 4:00:00 AM 6.96 44.528 0.338 7.82 3.47 11.1
11/7/2020 4:15:00 AM 6.92 44.456 0.338 7.82 3.04 11.13
11/7/2020 4:30:00 AM 6.88 44.384 0.338 7.82 4.3 11.12
11/7/2020 4:45:00 AM 6.83 44.294 0.338 7.82 3.32 11.14
11/7/2020 5:00:00 AM 6.79 44.222 0.338 7.82 3.08 11.17
11/7/2020 5:15:00 AM 6.75 44.15 0.338 7.81 4.37 11.18
11/7/2020 5:30:00 AM 6.7 44.06 0.339 7.82 3.01 11.2
11/7/2020 5:45:00 AM 6.66 43.988 0.339 7.81 3.2 11.22
11/7/2020 6:00:00 AM 6.61 43.898 0.339 7.81 3.16 11.23
11/7/2020 6:15:00 AM 6.56 43.808 0.339 7.81 3.02 11.24
11/7/2020 6:30:00 AM 6.52 43.736 0.339 7.81 5.23 11.26
11/7/2020 6:45:00 AM 6.48 43.664 0.339 7.82 3.24 11.28
11/7/2020 7:00:00 AM 6.43 43.574 0.34 7.82 3.26 11.31
11/7/2020 7:15:00 AM 6.4 43.52 0.34 7.82 3.12 11.35
11/7/2020 7:30:00 AM 6.38 43.484 0.34 7.83 5.88 11.42
11/7/2020 7:45:00 AM 6.35 43.43 0.34 7.84 2.84 11.48
11/7/2020 8:00:00 AM 6.34 43.412 0.34 7.85 5.18 11.56
11/7/2020 8:15:00 AM 6.35 43.43 0.34 7.87 2.63 11.68
11/7/2020 8:30:00 AM 6.37 43.466 0.34 7.89 4.69 11.77
11/7/2020 8:45:00 AM 6.4 43.52 0.34 7.9 4.45 11.85
11/7/2020 9:00:00 AM 6.44 43.592 0.34 7.93 2.47 11.95
11/7/2020 9:15:00 AM 6.51 43.718 0.34 7.95 2.46 12.04
11/7/2020 9:30:00 AM 6.58 43.844 0.34 7.97 2.32 12.13
11/7/2020 9:45:00 AM 6.66 43.988 0.34 7.98 4.37 12.2
11/7/2020 10:00:00 AM 6.75 44.15 0.34 8.01 2.27 12.27
11/7/2020 10:15:00 AM 6.84 44.312 0.34 8.02 2.32 12.33
11/7/2020 10:30:00 AM 6.96 44.528 0.34 8.03 4.21 12.4
11/7/2020 10:45:00 AM 7.09 44.762 0.339 8.06 2.14 12.47
11/7/2020 11:00:00 AM 7.22 44.996 0.339 8.08 2.11 12.51
11/7/2020 11:15:00 AM 7.35 45.23 0.339 8.1 2.09 12.57
11/7/2020 11:30:00 AM 7.51 45.518 0.339 8.12 2.1 12.61
11/7/2020 11:45:00 AM 7.65 45.77 0.339 8.14 2.18 12.66
11/7/2020 12:00:00 PM 7.78 46.004 0.338 8.14 2.13 12.69
11/7/2020 12:15:00 PM 7.97 46.346 0.338 8.18 2.1 12.73
11/7/2020 12:30:00 PM 8.13 46.634 0.338 8.19 2.07 12.75
11/7/2020 12:45:00 PM 8.27 46.886 0.338 8.21 2.08 12.74
11/7/2020 1:00:00 PM 8.41 47.138 0.338 8.21 2.16 12.76
11/7/2020 1:15:00 PM 8.55 47.39 0.338 8.23 2.12 12.74
11/7/2020 1:30:00 PM 8.68 47.624 0.337 8.24 2.07 12.74
11/7/2020 1:45:00 PM 8.81 47.858 0.337 8.24 2.14 12.73
11/7/2020 2:00:00 PM 8.94 48.092 0.337 8.26 2.44 12.72
11/7/2020 2:15:00 PM 9.05 48.29 0.337 8.26 2.32 12.71
11/7/2020 2:30:00 PM 9.13 48.434 0.337 8.27 3.79 12.66
11/7/2020 2:45:00 PM 9.2 48.56 0.337 8.26 2.36 12.6
11/7/2020 3:00:00 PM 9.25 48.65 0.337 8.26 2.26 12.54
11/7/2020 3:15:00 PM 9.28 48.704 0.337 8.25 2.75 12.45
11/7/2020 3:30:00 PM 9.29 48.722 0.338 8.23 2.48 12.35
11/7/2020 3:45:00 PM 9.3 48.74 0.338 8.22 2.44 12.24
11/7/2020 4:00:00 PM 9.32 48.776 0.338 8.22 3.22 12.16
11/7/2020 4:15:00 PM 9.32 48.776 0.338 8.2 3.97 12.06
11/7/2020 4:30:00 PM 9.3 48.74 0.339 8.18 2.84 11.91
11/7/2020 4:45:00 PM 9.26 48.668 0.339 8.15 2.64 11.75
11/7/2020 5:00:00 PM 9.22 48.596 0.34 8.11 6.09 11.61
11/7/2020 5:15:00 PM 9.16 48.488 0.34 8.09 7.93 11.47
11/7/2020 5:30:00 PM 9.09 48.362 0.341 8.06 2.62 11.37
11/7/2020 5:45:00 PM 9.04 48.272 0.341 8.04 2.62 11.27
11/7/2020 6:00:00 PM 8.99 48.182 0.341 8.02 4.92 11.19
11/7/2020 6:15:00 PM 8.94 48.092 0.341 7.99 3.28 11.12
11/7/2020 6:30:00 PM 8.89 48.002 0.342 7.99 3.24 11.07
11/7/2020 6:45:00 PM 8.84 47.912 0.342 7.98 2.71 11.05
11/7/2020 7:00:00 PM 8.79 47.822 0.342 7.97 5.12 11.02
11/7/2020 7:15:00 PM 8.73 47.714 0.342 7.96 4.41 10.99
11/7/2020 7:30:00 PM 8.68 47.624 0.342 7.96 3.47 10.97
11/7/2020 7:45:00 PM 8.62 47.516 0.343 7.95 4.16 10.96
11/7/2020 8:00:00 PM 8.56 47.408 0.343 7.93 4.09 10.95
11/7/2020 8:15:00 PM 8.51 47.318 0.343 7.94 7.66 10.94
11/7/2020 8:30:00 PM 8.45 47.21 0.343 7.92 3.33 10.93
11/7/2020 8:45:00 PM 8.39 47.102 0.343 7.92 3.66 10.92
11/7/2020 9:00:00 PM 8.34 47.012 0.343 7.91 145.64 10.9
11/7/2020 9:15:00 PM 8.29 46.922 0.344 7.91 5.17 10.89
11/7/2020 9:30:00 PM 8.24 46.832 0.344 7.9 4.75 10.88
11/7/2020 9:45:00 PM 8.19 46.742 0.344 7.89 3.74 10.88
11/7/2020 10:00:00 PM 8.14 46.652 0.344 7.89 3.7 10.88
11/7/2020 10:15:00 PM 8.1 46.58 0.344 7.89 3.27 10.87
11/7/2020 10:30:00 PM 8.06 46.508 0.344 7.88 3.58 10.89
11/7/2020 10:45:00 PM 8.02 46.436 0.344 7.88 3.16 10.89
11/7/2020 11:00:00 PM 7.97 46.346 0.345 7.88 3.05 10.89
11/7/2020 11:15:00 PM 7.94 46.292 0.345 7.88 3.24 10.89
11/7/2020 11:30:00 PM 7.89 46.202 0.345 7.88 3.26 10.89
11/7/2020 11:45:00 PM 7.85 46.13 0.345 7.87 3.15 10.9
11/8/2020 12:00:00 AM 7.8 46.04 0.345 7.87 3.11 10.9
11/8/2020 12:15:00 AM 7.76 45.968 0.345 7.87 3.23 10.9
11/8/2020 12:30:00 AM 7.72 45.896 0.346 7.87 3.46 10.91
11/8/2020 12:45:00 AM 7.68 45.824 0.346 7.86 3.37 10.92
11/8/2020 1:00:00 AM 7.63 45.734 0.346 7.86 3.31 10.92
11/8/2020 1:15:00 AM 7.59 45.662 0.346 7.86 3.38 10.93
11/8/2020 1:30:00 AM 7.55 45.59 0.346 7.86 3.08 10.94
11/8/2020 1:45:00 AM 7.5 45.5 0.346 7.86 2.83 10.95
11/8/2020 2:00:00 AM 7.46 45.428 0.346 7.86 7.21 10.94
11/8/2020 2:15:00 AM 7.41 45.338 0.347 7.85 3.07 10.98
11/8/2020 2:30:00 AM 7.37 45.266 0.347 7.86 2.98 10.99
11/8/2020 2:45:00 AM 7.33 45.194 0.347 7.86 3.18 10.98
11/8/2020 3:00:00 AM 7.28 45.104 0.347 7.85 2.98 11
11/8/2020 3:15:00 AM 7.23 45.014 0.347 7.85 2.84 11.02
11/8/2020 3:30:00 AM 7.2 44.96 0.347 7.84 3.72 11
11/8/2020 3:45:00 AM 7.15 44.87 0.347 7.85 3.84 11.03
11/8/2020 4:00:00 AM 7.11 44.798 0.347 7.85 4.2 11.05
11/8/2020 4:15:00 AM 7.07 44.726 0.348 7.85 2.92 11.07
11/8/2020 4:30:00 AM 7.02 44.636 0.348 7.85 4.78 11.08
11/8/2020 4:45:00 AM 6.98 44.564 0.348 7.84 3.2 11.09
11/8/2020 5:00:00 AM 6.94 44.492 0.348 7.85 2.99 11.1
11/8/2020 5:15:00 AM 6.9 44.42 0.348 7.85 3.47 11.11
11/8/2020 5:30:00 AM 6.87 44.366 0.348 7.85 3.38 11.14
11/8/2020 5:45:00 AM 6.82 44.276 0.348 7.84 2.95 11.14
11/8/2020 6:00:00 AM 6.77 44.186 0.348 7.84 3.41 11.14
11/8/2020 6:15:00 AM 6.72 44.096 0.348 7.84 3.18 11.18
11/8/2020 6:30:00 AM 6.66 43.988 0.348 7.84 3.85 11.16
11/8/2020 6:45:00 AM 6.63 43.934 0.348 7.85 6.11 11.21
11/8/2020 7:00:00 AM 6.58 43.844 0.348 7.85 3.06 11.25
11/8/2020 7:15:00 AM 6.55 43.79 0.348 7.85 4.57 11.29
11/8/2020 7:30:00 AM 6.52 43.736 0.348 7.86 2.61 11.38
11/8/2020 7:45:00 AM 6.5 43.7 0.348 7.88 4.48 11.48
11/8/2020 8:00:00 AM 6.48 43.664 0.348 7.88 2.64 11.59
11/8/2020 8:15:00 AM 6.48 43.664 0.348 7.9 3.56 11.65
11/8/2020 8:30:00 AM 6.49 43.682 0.348 7.92 3.48 11.79
11/8/2020 8:45:00 AM 6.52 43.736 0.348 7.93 2.47 11.9
11/8/2020 9:00:00 AM 6.56 43.808 0.348 7.96 2.43 11.99
11/8/2020 9:15:00 AM 6.62 43.916 0.348 7.97 4.18 12.1
11/8/2020 9:30:00 AM 6.68 44.024 0.348 8 4.31 12.2
11/8/2020 9:45:00 AM 6.75 44.15 0.348 8.02 2.27 12.29
11/8/2020 10:00:00 AM 6.83 44.294 0.348 8.04 2.36 12.39
11/8/2020 10:15:00 AM 6.93 44.474 0.348 8.06 2.25 12.43
11/8/2020 10:30:00 AM 7.04 44.672 0.348 8.08 2.05 12.52
11/8/2020 10:45:00 AM 7.17 44.906 0.347 8.08 3.66 12.56
11/8/2020 11:00:00 AM 7.28 45.104 0.347 8.12 2.11 12.62
11/8/2020 11:15:00 AM 7.41 45.338 0.347 8.13 2.13 12.69
11/8/2020 11:30:00 AM 7.56 45.608 0.347 8.16 2.06 12.73
11/8/2020 11:45:00 AM 7.71 45.878 0.347 8.17 2.2 12.77
11/8/2020 12:00:00 PM 7.86 46.148 0.346 8.18 1.95 12.8
11/8/2020 12:15:00 PM 8.02 46.436 0.346 8.2 2.04 12.82
11/8/2020 12:30:00 PM 8.16 46.688 0.346 8.21 1.98 12.83
11/8/2020 12:45:00 PM 8.29 46.922 0.346 8.22 1.93 12.84
11/8/2020 1:00:00 PM 8.42 47.156 0.345 8.24 1.99 12.83
11/8/2020 1:15:00 PM 8.53 47.354 0.345 8.24 1.95 12.84
11/8/2020 1:30:00 PM 8.65 47.57 0.345 8.25 2.15 12.83
11/8/2020 1:45:00 PM 8.75 47.75 0.344 8.26 1.94 12.8
11/8/2020 2:00:00 PM 8.85 47.93 0.344 8.27 2.02 12.78
11/8/2020 2:15:00 PM 8.92 48.056 0.344 8.26 2.11 12.75
11/8/2020 2:30:00 PM 8.97 48.146 0.344 8.27 2.11 12.7
11/8/2020 2:45:00 PM 9.02 48.236 0.344 8.26 2.15 12.64
11/8/2020 3:00:00 PM 9.06 48.308 0.344 8.25 4.16 12.57
11/8/2020 3:15:00 PM 9.07 48.326 0.344 8.25 2.11 12.46
11/8/2020 3:30:00 PM 9.08 48.344 0.344 8.23 2.19 12.3
11/8/2020 3:45:00 PM 9.08 48.344 0.344 8.22 2.41 12.16
11/8/2020 4:00:00 PM 9.09 48.362 0.344 8.19 6.57 12.08
11/8/2020 4:15:00 PM 9.09 48.362 0.344 8.19 2.2 11.93
11/8/2020 4:30:00 PM 9.08 48.344 0.344 8.16 4.15 11.84
11/8/2020 4:45:00 PM 9.06 48.308 0.345 8.15 2.44 11.69
11/8/2020 5:00:00 PM 9.02 48.236 0.345 8.13 2.4 11.58
11/8/2020 5:15:00 PM 8.97 48.146 0.345 8.1 2.63 11.44
11/8/2020 5:30:00 PM 8.92 48.056 0.345 8.08 2.81 11.34
11/8/2020 5:45:00 PM 8.86 47.948 0.346 8.05 2.55 11.28
11/8/2020 6:00:00 PM 8.8 47.84 0.346 8.03 2.85 11.21
11/8/2020 6:15:00 PM 8.75 47.75 0.346 8.02 3.6 11.16
11/8/2020 6:30:00 PM 8.71 47.678 0.346 8.01 2.51 11.12
11/8/2020 6:45:00 PM 8.65 47.57 0.346 8 2.73 11.09
11/8/2020 7:00:00 PM 8.59 47.462 0.346 7.98 2.9 11.07
11/8/2020 7:15:00 PM 8.53 47.354 0.346 7.98 3.4 11.05
11/8/2020 7:30:00 PM 8.46 47.228 0.347 7.97 2.76 11.05
11/8/2020 7:45:00 PM 8.4 47.12 0.347 7.96 2.62 11.04
11/8/2020 8:00:00 PM 8.32 46.976 0.347 7.95 2.73 11.03
11/8/2020 8:15:00 PM 8.26 46.868 0.347 7.94 5.97 11.02
11/8/2020 8:30:00 PM 8.18 46.724 0.347 7.93 3.49 11
11/8/2020 8:45:00 PM 8.11 46.598 0.347 7.93 2.99 11.01
11/8/2020 9:00:00 PM 8.04 46.472 0.347 7.92 3.89 11.01
11/8/2020 9:15:00 PM 7.98 46.364 0.348 7.92 3.65 11.01
11/8/2020 9:30:00 PM 7.91 46.238 0.348 7.92 3.24 11
11/8/2020 9:45:00 PM 7.85 46.13 0.348 7.91 3.09 11.01
11/8/2020 10:00:00 PM 7.8 46.04 0.348 7.91 3.39 10.99
11/8/2020 10:15:00 PM 7.75 45.95 0.348 7.9 3.49 10.96
11/8/2020 10:30:00 PM 7.7 45.86 0.348 7.9 4.32 11.02
11/8/2020 10:45:00 PM 7.65 45.77 0.348 7.9 2.98 11.01
11/8/2020 11:00:00 PM 7.6 45.68 0.348 7.89 3 11.02
11/8/2020 11:15:00 PM 7.55 45.59 0.348 7.89 3.01 11.03
11/8/2020 11:30:00 PM 7.51 45.518 0.348 7.89 3.09 10.99
11/8/2020 11:45:00 PM 7.47 45.446 0.348 7.89 3.72 11.03
11/9/2020 12:00:00 AM 7.42 45.356 0.348 7.89 3.62 11.01
11/9/2020 12:15:00 AM 7.38 45.284 0.349 7.89 2.76 11.06
11/9/2020 12:30:00 AM 7.34 45.212 0.349 7.88 3.02 11.06
11/9/2020 12:45:00 AM 7.29 45.122 0.349 7.89 2.95 11.06
11/9/2020 1:00:00 AM 7.25 45.05 0.349 7.88 2.85 11.07
11/9/2020 1:15:00 AM 7.2 44.96 0.349 7.88 2.85 11.09
11/9/2020 1:30:00 AM 7.16 44.888 0.349 7.88 3.07 11.11
11/9/2020 1:45:00 AM 7.12 44.816 0.349 7.88 3.04 11.1
11/9/2020 2:00:00 AM 7.08 44.744 0.349 7.87 3.22 11.12
11/9/2020 2:15:00 AM 7.04 44.672 0.349 7.87 3.19 11.13
11/9/2020 2:30:00 AM 6.99 44.582 0.349 7.87 3.18 11.13
11/9/2020 2:45:00 AM 6.96 44.528 0.349 7.87 2.99 11.15
11/9/2020 3:00:00 AM 6.91 44.438 0.349 7.87 3.28 11.15
11/9/2020 3:15:00 AM 6.87 44.366 0.349 7.87 2.89 11.16
11/9/2020 3:30:00 AM 6.83 44.294 0.349 7.87 3.2 11.17
11/9/2020 3:45:00 AM 6.79 44.222 0.349 7.87 3.12 11.19
11/9/2020 4:00:00 AM 6.75 44.15 0.349 7.87 2.87 11.19
11/9/2020 4:15:00 AM 6.71 44.078 0.349 7.87 2.84 11.2
11/9/2020 4:30:00 AM 6.67 44.006 0.349 7.87 3.18 11.21
11/9/2020 4:45:00 AM 6.63 43.934 0.35 7.86 3.08 11.22
11/9/2020 5:00:00 AM 6.6 43.88 0.35 7.87 2.99 11.24
11/9/2020 5:15:00 AM 6.56 43.808 0.35 7.87 3.02 11.25
11/9/2020 5:30:00 AM 6.52 43.736 0.35 7.87 4.33 11.26
11/9/2020 5:45:00 AM 6.48 43.664 0.35 7.87 4.79 11.28
11/9/2020 6:00:00 AM 6.44 43.592 0.35 7.86 2.76 11.3
11/9/2020 6:15:00 AM 6.4 43.52 0.35 7.87 3.11 11.3
11/9/2020 6:30:00 AM 6.35 43.43 0.35 7.87 5.5 11.32
11/9/2020 6:45:00 AM 6.32 43.376 0.35 7.86 3.17 11.32
11/9/2020 7:00:00 AM 6.28 43.304 0.35 7.87 4.9 11.36
11/9/2020 7:15:00 AM 6.25 43.25 0.35 7.87 2.64 11.41
11/9/2020 7:30:00 AM 6.22 43.196 0.35 7.88 4.59 11.48
11/9/2020 7:45:00 AM 6.21 43.178 0.35 7.89 4.57 11.58
11/9/2020 8:00:00 AM 6.21 43.178 0.35 7.91 5.12 11.67
11/9/2020 8:15:00 AM 6.22 43.196 0.35 7.92 2.81 11.77
11/9/2020 8:30:00 AM 6.24 43.232 0.35 7.94 2.46 11.89
11/9/2020 8:45:00 AM 6.28 43.304 0.35 7.96 2.63 12
11/9/2020 9:00:00 AM 6.33 43.394 0.35 7.99 2.5 12.11
11/9/2020 9:15:00 AM 6.39 43.502 0.35 8.01 2.42 12.22
11/9/2020 9:30:00 AM 6.47 43.646 0.35 8.03 2.33 12.31
11/9/2020 9:45:00 AM 6.56 43.808 0.349 8.05 2.49 12.4
11/9/2020 10:00:00 AM 6.65 43.97 0.349 8.07 2.19 12.48
11/9/2020 10:15:00 AM 6.75 44.15 0.349 8.09 2.12 12.56
11/9/2020 10:30:00 AM 6.87 44.366 0.349 8.11 2.14 12.6
11/9/2020 10:45:00 AM 6.99 44.582 0.349 8.13 2.01 12.69
11/9/2020 11:00:00 AM 7.13 44.834 0.349 8.15 2.31 12.75
11/9/2020 11:15:00 AM 7.29 45.122 0.348 8.17 2.26 12.81
11/9/2020 11:30:00 AM 7.42 45.356 0.348 8.18 2.14 12.85
11/9/2020 11:45:00 AM 7.57 45.626 0.348 8.2 2.02 12.92
11/9/2020 12:00:00 PM 7.72 45.896 0.348 8.22 2.03 12.93
11/9/2020 12:15:00 PM 7.87 46.166 0.348 8.23 2.12 12.95
11/9/2020 12:30:00 PM 8.04 46.472 0.347 8.24 2.02 12.98
11/9/2020 12:45:00 PM 8.18 46.724 0.347 8.26 2.07 12.99
11/9/2020 1:00:00 PM 8.32 46.976 0.347 8.27 2.06 13
11/9/2020 1:15:00 PM 8.44 47.192 0.347 8.27 2.07 12.99
11/9/2020 1:30:00 PM 8.55 47.39 0.347 8.28 2.08 12.97
11/9/2020 1:45:00 PM 8.66 47.588 0.346 8.29 2.05 12.95
11/9/2020 2:00:00 PM 8.75 47.75 0.346 8.29 2.07 12.92
11/9/2020 2:15:00 PM 8.83 47.894 0.346 8.3 2.27 12.88
11/9/2020 2:30:00 PM 8.9 48.02 0.346 8.3 2.17 12.83
11/9/2020 2:45:00 PM 8.95 48.11 0.346 8.29 2.39 12.75
11/9/2020 3:00:00 PM 8.99 48.182 0.346 8.29 2.02 12.66
11/9/2020 3:15:00 PM 9.01 48.218 0.346 8.26 4.21 12.56
11/9/2020 3:30:00 PM 9.01 48.218 0.346 8.26 2.58 12.4
11/9/2020 3:45:00 PM 9.02 48.236 0.347 8.23 4.29 12.27
11/9/2020 4:00:00 PM 9.02 48.236 0.347 8.24 2.16 12.13
11/9/2020 4:15:00 PM 9.02 48.236 0.347 8.22 2.13 12.02
11/9/2020 4:30:00 PM 9.02 48.236 0.347 8.2 2.01 11.9
11/9/2020 4:45:00 PM 9 48.2 0.348 8.18 2.54 11.76
11/9/2020 5:00:00 PM 8.98 48.164 0.348 8.16 4 11.61
11/9/2020 5:15:00 PM 8.94 48.092 0.348 8.13 3.19 11.49
11/9/2020 5:30:00 PM 8.89 48.002 0.349 8.1 3.44 11.36
11/9/2020 5:45:00 PM 8.84 47.912 0.349 8.08 2.63 11.27
11/9/2020 6:00:00 PM 8.79 47.822 0.349 8.06 2.58 11.2
11/9/2020 6:15:00 PM 8.75 47.75 0.349 8.05 2.73 11.14
11/9/2020 6:30:00 PM 8.71 47.678 0.35 8.04 2.8 11.09
11/9/2020 6:45:00 PM 8.67 47.606 0.35 8.03 2.44 11.06
11/9/2020 7:00:00 PM 8.62 47.516 0.35 8.01 3.01 11.03
11/9/2020 7:15:00 PM 8.57 47.426 0.35 8.01 2.49 11
11/9/2020 7:30:00 PM 8.51 47.318 0.35 8 3.34 11
11/9/2020 7:45:00 PM 8.44 47.192 0.35 7.99 3.01 10.99
11/9/2020 8:00:00 PM 8.38 47.084 0.351 7.99 3.21 10.96
11/9/2020 8:15:00 PM 8.3 46.94 0.351 7.97 3.82 10.97
11/9/2020 8:30:00 PM 8.24 46.832 0.351 7.97 2.7 10.97
11/9/2020 8:45:00 PM 8.16 46.688 0.351 7.96 2.88 10.97
11/9/2020 9:00:00 PM 8.09 46.562 0.351 7.96 4.54 10.98
11/9/2020 9:15:00 PM 8.02 46.436 0.352 7.95 2.86 10.97
11/9/2020 9:30:00 PM 7.95 46.31 0.352 7.94 4.65 10.99
11/9/2020 9:45:00 PM 7.88 46.184 0.352 7.93 3.21 10.99
11/9/2020 10:00:00 PM 7.82 46.076 0.352 7.93 2.64 10.99
11/9/2020 10:15:00 PM 7.76 45.968 0.352 7.93 2.67 10.98
11/9/2020 10:30:00 PM 7.7 45.86 0.353 7.93 2.63 10.99
11/9/2020 10:45:00 PM 7.65 45.77 0.353 7.91 11.02 10.97
11/9/2020 11:00:00 PM 7.6 45.68 0.353 7.91 3.64 10.97
11/9/2020 11:15:00 PM 7.55 45.59 0.353 7.91 3.18 10.96
11/9/2020 11:30:00 PM 7.52 45.536 0.353 7.91 5.26 10.97
11/9/2020 11:45:00 PM 7.48 45.464 0.353 7.92 3.23 10.98
11/10/2020 12:00:00 AM 7.45 45.41 0.353 7.91 3.03 10.98
11/10/2020 12:15:00 AM 7.42 45.356 0.353 7.91 3.08 10.98
11/10/2020 12:30:00 AM 7.39 45.302 0.353 7.9 3.04 10.99
11/10/2020 12:45:00 AM 7.36 45.248 0.354 7.91 2.85 11
11/10/2020 1:00:00 AM 7.33 45.194 0.354 7.91 3.28 11.01
11/10/2020 1:15:00 AM 7.3 45.14 0.354 7.9 3.14 11.02
11/10/2020 1:30:00 AM 7.28 45.104 0.354 7.9 3.08 11.01
11/10/2020 1:45:00 AM 7.25 45.05 0.354 7.9 2.86 11.01
11/10/2020 2:00:00 AM 7.22 44.996 0.354 7.9 2.68 11.01
11/10/2020 2:15:00 AM 7.19 44.942 0.354 7.9 2.9 11.02
11/10/2020 2:30:00 AM 7.16 44.888 0.354 7.9 2.94 11.04
11/10/2020 2:45:00 AM 7.13 44.834 0.354 7.89 3.13 11.03
11/10/2020 3:00:00 AM 7.09 44.762 0.354 7.89 2.96 11.05
11/10/2020 3:15:00 AM 7.07 44.726 0.355 7.89 3.22 11.06
11/10/2020 3:30:00 AM 7.04 44.672 0.355 7.89 3.26 11.05
11/10/2020 3:45:00 AM 7.02 44.636 0.355 7.89 3.14 11.07
11/10/2020 4:00:00 AM 6.99 44.582 0.355 7.89 2.81 11.08
11/10/2020 4:15:00 AM 6.97 44.546 0.355 7.89 2.83 11.08
11/10/2020 4:30:00 AM 6.95 44.51 0.355 7.89 3.21 11.06
11/10/2020 4:45:00 AM 6.93 44.474 0.355 7.89 3.21 11.06
11/10/2020 5:00:00 AM 6.92 44.456 0.356 7.89 3.19 11.07
11/10/2020 5:15:00 AM 6.9 44.42 0.356 7.89 3.17 11.09
11/10/2020 5:30:00 AM 6.89 44.402 0.356 7.89 3.15 11.07
11/10/2020 5:45:00 AM 6.87 44.366 0.356 7.89 2.99 11.08
11/10/2020 6:00:00 AM 6.86 44.348 0.356 7.89 2.99 11.1
11/10/2020 6:15:00 AM 6.85 44.33 0.356 7.89 3.05 11.09
11/10/2020 6:30:00 AM 6.84 44.312 0.356 7.89 3.47 11.09
11/10/2020 6:45:00 AM 6.83 44.294 0.356 7.88 2.88 11.1
11/10/2020 7:00:00 AM 6.83 44.294 0.356 7.89 3.93 11.13
11/10/2020 7:15:00 AM 6.83 44.294 0.356 7.9 2.92 11.17
11/10/2020 7:30:00 AM 6.84 44.312 0.356 7.9 3.97 11.23
11/10/2020 7:45:00 AM 6.87 44.366 0.356 7.92 2.86 11.32
11/10/2020 8:00:00 AM 6.91 44.438 0.356 7.94 2.94 11.42
11/10/2020 8:15:00 AM 6.96 44.528 0.356 7.96 2.57 11.53
11/10/2020 8:30:00 AM 7.01 44.618 0.356 7.98 2.56 11.66
11/10/2020 8:45:00 AM 7.1 44.78 0.356 8.01 2.66 11.78
11/10/2020 9:00:00 AM 7.2 44.96 0.355 8.04 3.13 11.89
11/10/2020 9:15:00 AM 7.31 45.158 0.355 8.06 2.46 12.01
11/10/2020 9:30:00 AM 7.42 45.356 0.355 8.08 2.54 12.11
11/10/2020 9:45:00 AM 7.55 45.59 0.355 8.11 2.49 12.2
11/10/2020 10:00:00 AM 7.68 45.824 0.354 8.13 2.37 12.3
11/10/2020 10:15:00 AM 7.81 46.058 0.354 8.15 2.39 12.37
11/10/2020 10:30:00 AM 7.93 46.274 0.354 8.17 2.32 12.44
11/10/2020 10:45:00 AM 8.07 46.526 0.354 8.18 2.4 12.5
11/10/2020 11:00:00 AM 8.21 46.778 0.353 8.2 2.5 12.54
11/10/2020 11:15:00 AM 8.38 47.084 0.353 8.22 2.28 12.62
11/10/2020 11:30:00 AM 8.54 47.372 0.353 8.23 4.28 12.69
11/10/2020 11:45:00 AM 8.71 47.678 0.353 8.26 2.23 12.69
11/10/2020 12:00:00 PM 8.89 48.002 0.352 8.27 2.28 12.75
11/10/2020 12:15:00 PM 9.03 48.254 0.352 8.28 2.2 12.77
11/10/2020 12:30:00 PM 9.22 48.596 0.351 8.28 3.95 12.79
11/10/2020 12:45:00 PM 9.38 48.884 0.351 8.31 2.29 12.82
11/10/2020 1:00:00 PM 9.53 49.154 0.351 8.32 2.58 12.85
11/10/2020 1:15:00 PM 9.68 49.424 0.351 8.34 2.16 12.85
11/10/2020 1:30:00 PM 9.8 49.64 0.35 8.33 4.09 12.84
11/10/2020 1:45:00 PM 9.91 49.838 0.35 8.35 2.28 12.81
11/10/2020 2:00:00 PM 10.04 50.072 0.35 8.34 4.44 12.76
11/10/2020 2:15:00 PM 10.11 50.198 0.349 8.36 2.21 12.72
11/10/2020 2:30:00 PM 10.17 50.306 0.349 8.36 2.3 12.67
11/10/2020 2:45:00 PM 10.23 50.414 0.349 8.36 2.39 12.58
11/10/2020 3:00:00 PM 10.26 50.468 0.349 8.33 5.03 12.47
11/10/2020 3:15:00 PM 10.29 50.522 0.349 8.32 6.76 12.32
11/10/2020 3:30:00 PM 10.3 50.54 0.349 8.32 2.3 12.17
11/10/2020 3:45:00 PM 10.31 50.558 0.35 8.3 2.64 11.97
11/10/2020 4:00:00 PM 10.33 50.594 0.35 8.28 5.76 11.86
11/10/2020 4:15:00 PM 10.35 50.63 0.35 8.27 4.28 11.71
11/10/2020 4:30:00 PM 10.34 50.612 0.35 8.25 4.44 11.62
11/10/2020 4:45:00 PM 10.32 50.576 0.35 8.21 6.16 11.46
11/10/2020 5:00:00 PM 10.28 50.504 0.351 8.2 3.42 11.3
11/10/2020 5:15:00 PM 10.24 50.432 0.351 8.18 2.35 11.15
11/10/2020 5:30:00 PM 10.2 50.36 0.351 8.14 4.9 11.04
11/10/2020 5:45:00 PM 10.16 50.288 0.352 8.12 3.03 10.91
11/10/2020 6:00:00 PM 10.12 50.216 0.352 8.11 3.23 10.82
11/10/2020 6:15:00 PM 10.1 50.18 0.352 8.08 4.72 10.74
11/10/2020 6:30:00 PM 10.07 50.126 0.353 8.07 2.7 10.67
11/10/2020 6:45:00 PM 10.05 50.09 0.353 8.05 4.56 10.63
11/10/2020 7:00:00 PM 10.03 50.054 0.353 8.04 4.42 10.59
11/10/2020 7:15:00 PM 10 50 0.353 8.04 4.34 10.56
11/10/2020 7:30:00 PM 9.98 49.964 0.353 8.03 3.76 10.53
11/10/2020 7:45:00 PM 9.96 49.928 0.353 8.02 3.13 10.5
11/10/2020 8:00:00 PM 9.93 49.874 0.353 8.01 4.75 10.49
11/10/2020 8:15:00 PM 9.89 49.802 0.354 8.01 2.67 10.47
11/10/2020 8:30:00 PM 9.85 49.73 0.354 7.99 4.58 10.46
11/10/2020 8:45:00 PM 9.81 49.658 0.354 7.99 3.29 10.45
11/10/2020 9:00:00 PM 9.77 49.586 0.354 7.99 3.88 10.44
11/10/2020 9:15:00 PM 9.74 49.532 0.355 7.98 2.55 10.42
11/10/2020 9:30:00 PM 9.71 49.478 0.355 7.98 2.84 10.41
11/10/2020 9:45:00 PM 9.68 49.424 0.355 7.97 2.87 10.4
11/10/2020 10:00:00 PM 9.66 49.388 0.355 7.96 4.33 10.39
11/10/2020 10:15:00 PM 9.64 49.352 0.355 7.96 4.41 10.37
11/10/2020 10:30:00 PM 9.62 49.316 0.356 7.95 4.45 10.37
11/10/2020 10:45:00 PM 9.6 49.28 0.356 7.96 3.35 10.37
11/10/2020 11:00:00 PM 9.59 49.262 0.356 7.95 3.02 10.34
11/10/2020 11:15:00 PM 9.57 49.226 0.356 7.95 5.56 10.33
11/10/2020 11:30:00 PM 9.55 49.19 0.357 7.94 4.96 10.32
11/10/2020 11:45:00 PM 9.53 49.154 0.357 7.94 2.82 10.33
11/11/2020 12:00:00 AM 9.51 49.118 0.357 7.94 2.88 10.32
11/11/2020 12:15:00 AM 9.48 49.064 0.357 7.94 2.96 10.33
11/11/2020 12:30:00 AM 9.46 49.028 0.357 7.93 2.96 10.32
11/11/2020 12:45:00 AM 9.44 48.992 0.357 7.93 2.91 10.32
11/11/2020 1:00:00 AM 9.43 48.974 0.357 7.93 3.19 10.33
11/11/2020 1:15:00 AM 9.42 48.956 0.357 7.93 2.94 10.31
11/11/2020 1:30:00 AM 9.42 48.956 0.357 7.93 4.85 10.31
11/11/2020 1:45:00 AM 9.4 48.92 0.357 7.93 3.09 10.32
11/11/2020 2:00:00 AM 9.39 48.902 0.357 7.92 5.1 10.31
11/11/2020 2:15:00 AM 9.39 48.902 0.358 7.93 4.77 10.3
11/11/2020 2:30:00 AM 9.39 48.902 0.358 7.92 2.83 10.3
11/11/2020 2:45:00 AM 9.38 48.884 0.358 7.92 4.59 10.3
11/11/2020 3:00:00 AM 9.36 48.848 0.358 7.92 2.93 10.29
11/11/2020 3:15:00 AM 9.35 48.83 0.358 7.92 7.35 10.29
11/11/2020 3:30:00 AM 9.34 48.812 0.358 7.91 4.03 10.29
11/11/2020 3:45:00 AM 9.35 48.83 0.358 7.91 4.42 10.3
11/11/2020 4:00:00 AM 9.36 48.848 0.358 7.92 3.79 10.28
11/11/2020 4:15:00 AM 9.38 48.884 0.358 7.93 5.26 10.27
11/11/2020 4:30:00 AM 9.39 48.902 0.358 7.92 6.88 10.27
11/11/2020 4:45:00 AM 9.41 48.938 0.358 7.92 5.1 10.26
11/11/2020 5:00:00 AM 9.42 48.956 0.359 7.92 3 10.29
11/11/2020 5:15:00 AM 9.43 48.974 0.359 7.93 3.07 10.26
11/11/2020 5:30:00 AM 9.44 48.992 0.359 7.91 4.27 10.26
11/11/2020 5:45:00 AM 9.43 48.974 0.359 7.91 5.64 10.26
11/11/2020 6:00:00 AM 9.44 48.992 0.359 7.93 3.16 10.26
11/11/2020 6:15:00 AM 9.46 49.028 0.359 7.93 2.92 10.25
11/11/2020 6:30:00 AM 9.48 49.064 0.359 7.93 3.06 10.25
11/11/2020 6:45:00 AM 9.54 49.172 0.359 7.93 4.93 10.22
11/11/2020 7:00:00 AM 9.57 49.226 0.359 7.94 2.86 10.25
11/11/2020 7:15:00 AM 9.59 49.262 0.359 7.93 4.8 10.26
11/11/2020 7:30:00 AM 9.62 49.316 0.359 7.94 3.04 10.33
11/11/2020 7:45:00 AM 9.67 49.406 0.359 7.95 2.71 10.41
11/11/2020 8:00:00 AM 9.72 49.496 0.359 7.98 2.78 10.52
11/11/2020 8:15:00 AM 9.77 49.586 0.359 7.99 2.65 10.59
11/11/2020 8:30:00 AM 9.81 49.658 0.359 7.97 4.45 10.58
11/11/2020 8:45:00 AM 9.85 49.73 0.359 7.99 2.58 10.6
11/11/2020 9:00:00 AM 9.9 49.82 0.358 7.98 4.38 10.59
11/11/2020 9:15:00 AM 9.94 49.892 0.357 7.99 4.48 10.59
11/11/2020 9:30:00 AM 9.99 49.982 0.356 7.99 3.1 10.61
11/11/2020 9:45:00 AM 10.02 50.036 0.355 8.01 2.62 10.63
11/11/2020 10:00:00 AM 10.07 50.126 0.354 8 4.24 10.62
11/11/2020 10:15:00 AM 10.11 50.198 0.354 8.01 2.53 10.62
11/11/2020 10:30:00 AM 10.15 50.27 0.353 8.02 2.56 10.64
11/11/2020 10:45:00 AM 10.21 50.378 0.353 8.01 4.25 10.69
11/11/2020 11:00:00 AM 10.28 50.504 0.352 8.02 2.47 10.68
11/11/2020 11:15:00 AM 10.36 50.648 0.349 8.03 2.7 10.65
11/11/2020 11:30:00 AM 10.42 50.756 0.347 8.01 3.43 10.64
11/11/2020 11:45:00 AM 10.46 50.828 0.347 8.03 2.67 10.68
11/11/2020 12:00:00 PM 10.52 50.936 0.346 8.04 2.67 10.72
11/11/2020 12:15:00 PM 10.57 51.026 0.345 8.05 3.3 10.74
11/11/2020 12:30:00 PM 10.64 51.152 0.343 8.06 3.1 10.71
11/11/2020 12:45:00 PM 10.71 51.278 0.342 8.06 3.02 10.74
11/11/2020 1:00:00 PM 10.77 51.386 0.34 8.05 5.25 10.72
11/11/2020 1:15:00 PM 10.81 51.458 0.34 8.05 3.49 10.68
11/11/2020 1:30:00 PM 10.83 51.494 0.339 8.04 3.75 10.65
11/11/2020 1:45:00 PM 10.86 51.548 0.339 8.03 5.91 10.64
11/11/2020 2:00:00 PM 10.9 51.62 0.339 8.04 4.62 10.65
11/11/2020 2:15:00 PM 10.95 51.71 0.339 8.04 5.34 10.61
11/11/2020 2:30:00 PM 10.99 51.782 0.339 8.02 10.3 10.55
11/11/2020 2:45:00 PM 11.01 51.818 0.34 8.02 5.65 10.54
11/11/2020 3:00:00 PM 11.03 51.854 0.341 8.01 7.59 10.54
11/11/2020 3:15:00 PM 11.04 51.872 0.342 8 5.99 10.5
11/11/2020 3:30:00 PM 11.04 51.872 0.342 7.99 5.51 10.43
11/11/2020 3:45:00 PM 11.06 51.908 0.342 7.98 6.5 10.36
11/11/2020 4:00:00 PM 11.06 51.908 0.342 7.97 7.97 10.35
11/11/2020 4:15:00 PM 11.07 51.926 0.343 7.95 11.37 10.3
11/11/2020 4:30:00 PM 11.07 51.926 0.344 7.94 9.32 10.26
11/11/2020 4:45:00 PM 11.08 51.944 0.345 7.93 7.97 10.21
11/11/2020 5:00:00 PM 11.08 51.944 0.346 7.92 7.18 10.16
11/11/2020 5:15:00 PM 11.07 51.926 0.346 7.91 8.29 10.14
11/11/2020 5:30:00 PM 11.06 51.908 0.345 7.89 9.68 10.12
11/11/2020 5:45:00 PM 11.06 51.908 0.345 7.89 7.98 10.09
11/11/2020 6:00:00 PM 11.05 51.89 0.344 7.88 8.44 10.07
11/11/2020 6:15:00 PM 11.05 51.89 0.344 7.87 8.88 10.05
11/11/2020 6:30:00 PM 11.06 51.908 0.343 7.86 9.46 10.02
11/11/2020 6:45:00 PM 11.06 51.908 0.342 7.84 14.36 10.01
11/11/2020 7:00:00 PM 11.06 51.908 0.34 7.85 10.9 9.98
11/11/2020 7:15:00 PM 11.06 51.908 0.339 7.84 16.34 9.98
11/11/2020 7:30:00 PM 11.06 51.908 0.337 7.82 15.94 9.95
11/11/2020 7:45:00 PM 11.06 51.908 0.334 7.81 16.15 9.93
11/11/2020 8:00:00 PM 11.07 51.926 0.331 7.81 16.2 9.93
11/11/2020 8:15:00 PM 11.09 51.962 0.328 7.8 12.79 9.92
11/11/2020 8:30:00 PM 11.08 51.944 0.325 7.79 15.7 9.91
11/11/2020 8:45:00 PM 11.07 51.926 0.322 7.8 19.44 9.89
11/11/2020 9:00:00 PM 11.06 51.908 0.319 7.8 14.93 9.9
11/11/2020 9:15:00 PM 11.05 51.89 0.318 7.8 16.17 9.89
11/11/2020 9:30:00 PM 11.04 51.872 0.317 7.79 13.81 9.89
11/11/2020 9:45:00 PM 11.03 51.854 0.316 7.79 13.8 9.89
11/11/2020 10:00:00 PM 11.02 51.836 0.316 7.79 56.99 9.89
11/11/2020 10:15:00 PM 11.01 51.818 0.316 7.78 14.6 9.9
11/11/2020 10:30:00 PM 11 51.8 0.316 7.79 12.23 9.91
11/11/2020 10:45:00 PM 10.99 51.782 0.315 7.79 12.7 9.9
11/11/2020 11:00:00 PM 10.98 51.764 0.315 7.78 15.68 9.91
11/11/2020 11:15:00 PM 10.96 51.728 0.314 7.77 15.55 9.92
11/11/2020 11:30:00 PM 10.94 51.692 0.314 7.77 11.68 9.91
11/11/2020 11:45:00 PM 10.91 51.638 0.313 7.78 12.16 9.92
11/12/2020 12:00:00 AM 10.89 51.602 0.312 7.78 12.54 9.93
11/12/2020 12:15:00 AM 10.86 51.548 0.312 7.77 11.25 9.92
11/12/2020 12:30:00 AM 10.84 51.512 0.311 7.76 11.35 9.93
11/12/2020 12:45:00 AM 10.81 51.458 0.31 7.77 10.44 9.92
11/12/2020 1:00:00 AM 10.77 51.386 0.309 7.77 10.28 9.92
11/12/2020 1:15:00 AM 10.74 51.332 0.307 7.77 10.23 9.94
11/12/2020 1:30:00 AM 10.7 51.26 0.306 7.76 12.26 9.92
11/12/2020 1:45:00 AM 10.67 51.206 0.304 7.76 13.73 9.86
11/12/2020 2:00:00 AM 10.64 51.152 0.302 7.76 13.34 9.96
11/12/2020 2:15:00 AM 10.61 51.098 0.301 7.78 12.25 9.93
11/12/2020 2:30:00 AM 10.57 51.026 0.291 7.76 32.44 9.94
11/12/2020 2:45:00 AM 10.54 50.972 0.298 7.76 9.25 9.96
11/12/2020 3:00:00 AM 10.51 50.918 0.297 7.78 9.91 9.98
11/12/2020 3:15:00 AM 10.48 50.864 0.149 7.75 12.29 9.98
11/12/2020 3:30:00 AM 10.44 50.792 0.296 7.76 9.96 9.98
11/12/2020 3:45:00 AM 10.41 50.738 0.296 7.76 12.74 9.99
11/12/2020 4:00:00 AM 10.37 50.666 0.296 7.76 11.02 9.99
11/12/2020 4:15:00 AM 10.34 50.612 0.297 7.76 9.34 9.98
11/12/2020 4:30:00 AM 10.3 50.54 0.297 7.75 11.28 10
11/12/2020 4:45:00 AM 10.26 50.468 0.298 7.75 11.05 10.01
11/12/2020 5:00:00 AM 10.22 50.396 0.299 7.75 9.03 10
11/12/2020 5:15:00 AM 10.18 50.324 0.3 7.76 9.72 10
11/12/2020 5:30:00 AM 10.13 50.234 0.301 7.76 9.1 10.05
11/12/2020 5:45:00 AM 10.08 50.144 0.301 7.77 13.1 10.02
11/12/2020 6:00:00 AM 10.04 50.072 0.302 7.77 10.69 10.06
11/12/2020 6:15:00 AM 9.99 49.982 0.303 7.76 9.45 10.11
11/12/2020 6:30:00 AM 9.94 49.892 0.304 7.77 9.31 10.12
11/12/2020 6:45:00 AM 9.89 49.802 0.305 7.77 8.69 10.14
11/12/2020 7:00:00 AM 9.85 49.73 0.306 7.78 9.52 10.17
11/12/2020 7:15:00 AM 9.82 49.676 0.307 7.78 11.09 10.17
11/12/2020 7:30:00 AM 9.78 49.604 0.307 7.79 12.89 10.22
11/12/2020 7:45:00 AM 9.74 49.532 0.308 7.79 10.72 10.24
11/12/2020 8:00:00 AM 9.7 49.46 0.309 7.8 10.36 10.27
11/12/2020 8:15:00 AM 9.67 49.406 0.309 7.81 9.77 10.33
11/12/2020 8:30:00 AM 9.65 49.37 0.31 7.81 10.23 10.36
11/12/2020 8:45:00 AM 9.62 49.316 0.31 7.82 7.32 10.39
11/12/2020 9:00:00 AM 9.6 49.28 0.311 7.83 7.11 10.44
11/12/2020 9:15:00 AM 9.58 49.244 0.311 7.83 7.54 10.51
11/12/2020 9:30:00 AM 9.56 49.208 0.312 7.85 7.17 10.56
11/12/2020 9:45:00 AM 9.54 49.172 0.312 7.85 6.85 10.61
11/12/2020 10:00:00 AM 9.52 49.136 0.313 7.86 6.6 10.65
11/12/2020 10:15:00 AM 9.5 49.1 0.313 7.86 7.45 10.72
11/12/2020 10:30:00 AM 9.5 49.1 0.314 7.87 6.67 10.77
11/12/2020 10:45:00 AM 9.51 49.118 0.314 7.88 13.06 10.78
11/12/2020 11:00:00 AM 9.5 49.1 0.314 7.88 6.17 10.88
11/12/2020 11:15:00 AM 9.49 49.082 0.315 7.91 11.04 10.91
11/12/2020 11:30:00 AM 9.48 49.064 0.315 7.91 6.51 10.94
11/12/2020 11:45:00 AM 9.49 49.082 0.316 7.92 5.99 11.02
11/12/2020 12:00:00 PM 9.5 49.1 0.316 7.94 8.48 11.09
11/12/2020 12:15:00 PM 9.53 49.154 0.316 7.95 9.55 11.18
11/12/2020 12:30:00 PM 9.58 49.244 0.316 7.98 5.83 11.21
11/12/2020 12:45:00 PM 9.62 49.316 0.316 8 5.78 11.28
11/12/2020 1:00:00 PM 9.64 49.352 0.316 8.01 5.46 11.32
11/12/2020 1:15:00 PM 9.65 49.37 0.316 8.02 7.07 11.37
11/12/2020 1:30:00 PM 9.65 49.37 0.316 8.02 6.1 11.36
11/12/2020 1:45:00 PM 9.65 49.37 0.316 8.01 7.95 11.37
11/12/2020 2:00:00 PM 9.66 49.388 0.316 8.02 5.59 11.37
11/12/2020 2:15:00 PM 9.67 49.406 0.316 8.02 6.16 11.36
11/12/2020 2:30:00 PM 9.68 49.424 0.315 8.01 7.9 11.38
11/12/2020 2:45:00 PM 9.68 49.424 0.314 8.01 8.62 11.32
11/12/2020 3:00:00 PM 9.68 49.424 0.314 8.01 6.98 11.3
11/12/2020 3:15:00 PM 9.69 49.442 0.313 8.02 6.85 11.27
11/12/2020 3:30:00 PM 9.68 49.424 0.281 8 6.4 11.22
11/12/2020 3:45:00 PM 9.66 49.388 0.311 7.98 10.89 11.17
11/12/2020 4:00:00 PM 9.63 49.334 0.309 7.96 9.62 11.13
11/12/2020 4:15:00 PM 9.58 49.244 0.308 7.93 6.99 11.05
11/12/2020 4:30:00 PM 9.54 49.172 0.307 7.92 7.88 10.97
11/12/2020 4:45:00 PM 9.5 49.1 0.305 7.91 7.13 10.89
11/12/2020 5:00:00 PM 9.45 49.01 0.304 7.89 7.74 10.82
11/12/2020 5:15:00 PM 9.41 48.938 0.303 7.89 10.68 10.78
11/12/2020 5:30:00 PM 9.35 48.83 0.302 7.87 7.3 10.72
11/12/2020 5:45:00 PM 9.3 48.74 0.301 7.86 10.59 10.69
11/12/2020 6:00:00 PM 9.25 48.65 0.3 7.85 9.32 10.67
11/12/2020 6:15:00 PM 9.19 48.542 0.3 7.84 9.69 10.65
11/12/2020 6:30:00 PM 9.13 48.434 0.299 7.83 8.4 10.64
11/12/2020 6:45:00 PM 9.08 48.344 0.299 7.83 8.24 10.62
11/12/2020 7:00:00 PM 9.04 48.272 0.299 7.82 9.92 10.61
11/12/2020 7:15:00 PM 8.99 48.182 0.299 7.8 10.67 10.6
11/12/2020 7:30:00 PM 8.93 48.074 0.3 7.81 7.94 10.59
11/12/2020 7:45:00 PM 8.89 48.002 0.299 7.79 11.43 10.57
11/12/2020 8:00:00 PM 8.83 47.894 0.3 7.81 12.12 10.56
11/12/2020 8:15:00 PM 8.77 47.786 0.3 7.8 14.1 10.58
11/12/2020 8:30:00 PM 8.71 47.678 0.301 7.79 9.38 10.58
11/12/2020 8:45:00 PM 8.66 47.588 0.301 7.79 8.66 10.58
11/12/2020 9:00:00 PM 8.61 47.498 0.301 7.79 11.7 10.59
11/12/2020 9:15:00 PM 8.56 47.408 0.301 7.79 10.19 10.59
11/12/2020 9:30:00 PM 8.5 47.3 0.302 7.78 9.22 10.6
11/12/2020 9:45:00 PM 8.45 47.21 0.302 7.78 11.29 10.61
11/12/2020 10:00:00 PM 8.4 47.12 0.302 7.78 8.03 10.58
11/12/2020 10:15:00 PM 8.34 47.012 0.302 7.78 8.52 10.61
11/12/2020 10:30:00 PM 8.29 46.922 0.302 7.78 8.1 10.62
11/12/2020 10:45:00 PM 8.23 46.814 0.302 7.78 8.63 10.63
11/12/2020 11:00:00 PM 8.18 46.724 0.301 7.78 7.73 10.63
11/12/2020 11:15:00 PM 8.12 46.616 0.301 7.77 8.02 10.64
11/12/2020 11:30:00 PM 8.06 46.508 0.301 7.77 8.09 10.64
11/12/2020 11:45:00 PM 8 46.4 0.301 7.77 8.89 10.68
11/13/2020 12:00:00 AM 7.94 46.292 0.301 7.76 8.06 10.68
11/13/2020 12:15:00 AM 7.89 46.202 0.3 7.76 11.42 10.7
11/13/2020 12:30:00 AM 7.83 46.094 0.3 7.76 34.14 10.7
11/13/2020 12:45:00 AM 7.77 45.986 0.3 7.75 7.58 10.72
11/13/2020 1:00:00 AM 7.72 45.896 0.299 7.75 8.77 10.74
11/13/2020 1:15:00 AM 7.66 45.788 0.299 7.75 8.2 10.76
11/13/2020 1:30:00 AM 7.59 45.662 0.299 7.75 8.04 10.76
11/13/2020 1:45:00 AM 7.53 45.554 0.299 7.74 8.05 10.77
11/13/2020 2:00:00 AM 7.47 45.446 0.299 7.75 8.9 10.74
11/13/2020 2:15:00 AM 7.41 45.338 0.298 7.74 12.03 10.8
11/13/2020 2:30:00 AM 7.36 45.248 0.298 7.75 8.25 10.81
11/13/2020 2:45:00 AM 7.3 45.14 0.298 7.73 7.98 10.81
11/13/2020 3:00:00 AM 7.26 45.068 0.298 7.74 11.57 10.85
11/13/2020 3:15:00 AM 7.2 44.96 0.297 7.74 7.13 10.88
11/13/2020 3:30:00 AM 7.14 44.852 0.297 7.74 7.14 10.89
11/13/2020 3:45:00 AM 7.08 44.744 0.297 7.73 7.78 10.91
11/13/2020 4:00:00 AM 7.02 44.636 0.297 7.74 15.86 10.93
11/13/2020 4:15:00 AM 6.97 44.546 0.297 7.74 10.42 10.93
11/13/2020 4:30:00 AM 6.91 44.438 0.297 7.74 8.42 10.96
11/13/2020 4:45:00 AM 6.86 44.348 0.297 7.74 7.41 10.96
11/13/2020 5:00:00 AM 6.81 44.258 0.297 7.74 6.65 10.98
11/13/2020 5:15:00 AM 6.77 44.186 0.297 7.75 6.37 10.99
11/13/2020 5:30:00 AM 6.75 44.15 0.297 7.75 7.1 11
11/13/2020 5:45:00 AM 6.74 44.132 0.297 7.75 7.2 11.01
11/13/2020 6:00:00 AM 6.74 44.132 0.297 7.76 7.24 11.03
11/13/2020 6:15:00 AM 6.72 44.096 0.297 7.76 14.68 11.03
11/13/2020 6:30:00 AM 6.72 44.096 0.297 7.75 35.11 11.03
11/13/2020 6:45:00 AM 6.71 44.078 0.297 7.76 7.25 11.04
11/13/2020 7:00:00 AM 6.71 44.078 0.297 7.75 6.68 11.05
11/13/2020 7:15:00 AM 6.7 44.06 0.298 7.76 10.04 11.06
11/13/2020 7:30:00 AM 6.69 44.042 0.298 7.77 10.07 11.08
11/13/2020 7:45:00 AM 6.69 44.042 0.298 7.77 28.53 11.11
11/13/2020 8:00:00 AM 6.69 44.042 0.298 7.77 5.78 11.13
11/13/2020 8:15:00 AM 6.69 44.042 0.298 7.78 5.7 11.16
11/13/2020 8:30:00 AM 6.71 44.078 0.298 7.78 7.14 11.23
11/13/2020 8:45:00 AM 6.74 44.132 0.298 7.8 5.58 11.32
11/13/2020 9:00:00 AM 6.75 44.15 0.298 7.81 5.29 11.36
11/13/2020 9:15:00 AM 6.76 44.168 0.298 7.82 4.74 11.39
11/13/2020 9:30:00 AM 6.77 44.186 0.298 7.83 4.93 11.41
11/13/2020 9:45:00 AM 6.82 44.276